<?xml version="1.0" encoding="UTF-8" standalone="no" ?>
<gpx xmlns="http://www.topografix.com/GPX/1/1" xmlns:xsi="http://www.w3.org/2001/XMLSchema-instance" xsi:schemaLocation="http://www.topografix.com/GPX/1/1 http://www.topografix.com/GPX/1/1/gpx.xsd" version="1.1" creator="VisuGPX - https://www.visugpx.com">
  <metadata>
    <name>Tête de Lauzarot</name>
    <desc><![CDATA[La Tête de lauzarot par les chalets de Prentiq et la Cabane de la Muande à partir de l'Ubac en Valgaudemar.]]></desc>
  </metadata>
  <trk>
    <name><![CDATA[Tête de Lauzarot]]></name>
    <trkseg>
      <trkpt lat="44.80334" lon="6.11437">
        <ele>1093.36</ele>
        <time>2019-09-19T06:27:19Z</time>
      </trkpt>
      <trkpt lat="44.80334" lon="6.11439">
        <ele>1093.44</ele>
        <time>2019-09-19T06:27:20Z</time>
      </trkpt>
      <trkpt lat="44.80329" lon="6.11392">
        <ele>1092.97</ele>
        <time>2019-09-19T06:27:53Z</time>
      </trkpt>
      <trkpt lat="44.80348" lon="6.11356">
        <ele>1093.01</ele>
        <time>2019-09-19T06:28:19Z</time>
      </trkpt>
      <trkpt lat="44.80351" lon="6.11351">
        <ele>1092.02</ele>
        <time>2019-09-19T06:29:10Z</time>
      </trkpt>
      <trkpt lat="44.80347" lon="6.11351">
        <ele>1091.27</ele>
        <time>2019-09-19T06:29:36Z</time>
      </trkpt>
      <trkpt lat="44.80349" lon="6.11353">
        <ele>1089.85</ele>
        <time>2019-09-19T06:30:07Z</time>
      </trkpt>
      <trkpt lat="44.80352" lon="6.11352">
        <ele>1089.41</ele>
        <time>2019-09-19T06:30:32Z</time>
      </trkpt>
      <trkpt lat="44.80354" lon="6.11363">
        <ele>1089.54</ele>
        <time>2019-09-19T06:30:50Z</time>
      </trkpt>
      <trkpt lat="44.80355" lon="6.11364">
        <ele>1089.1</ele>
        <time>2019-09-19T06:31:05Z</time>
      </trkpt>
      <trkpt lat="44.8035" lon="6.11358">
        <ele>1087.95</ele>
        <time>2019-09-19T06:31:32Z</time>
      </trkpt>
      <trkpt lat="44.80352" lon="6.11366">
        <ele>1086.82</ele>
        <time>2019-09-19T06:31:57Z</time>
      </trkpt>
      <trkpt lat="44.80355" lon="6.11384">
        <ele>1086.99</ele>
        <time>2019-09-19T06:32:19Z</time>
      </trkpt>
      <trkpt lat="44.80356" lon="6.11406">
        <ele>1088.25</ele>
        <time>2019-09-19T06:32:42Z</time>
      </trkpt>
      <trkpt lat="44.8035" lon="6.11423">
        <ele>1089.11</ele>
        <time>2019-09-19T06:33:02Z</time>
      </trkpt>
      <trkpt lat="44.80338" lon="6.11441">
        <ele>1089.9</ele>
        <time>2019-09-19T06:33:22Z</time>
      </trkpt>
      <trkpt lat="44.80324" lon="6.11455">
        <ele>1091.25</ele>
        <time>2019-09-19T06:33:42Z</time>
      </trkpt>
      <trkpt lat="44.80311" lon="6.11473">
        <ele>1092.53</ele>
        <time>2019-09-19T06:34:06Z</time>
      </trkpt>
      <trkpt lat="44.80303" lon="6.11495">
        <ele>1093.91</ele>
        <time>2019-09-19T06:34:29Z</time>
      </trkpt>
      <trkpt lat="44.80295" lon="6.11516">
        <ele>1095.05</ele>
        <time>2019-09-19T06:34:51Z</time>
      </trkpt>
      <trkpt lat="44.80285" lon="6.11535">
        <ele>1096.3</ele>
        <time>2019-09-19T06:35:12Z</time>
      </trkpt>
      <trkpt lat="44.80274" lon="6.11554">
        <ele>1097.32</ele>
        <time>2019-09-19T06:35:34Z</time>
      </trkpt>
      <trkpt lat="44.80267" lon="6.1157">
        <ele>1098.81</ele>
        <time>2019-09-19T06:35:52Z</time>
      </trkpt>
      <trkpt lat="44.80255" lon="6.11586">
        <ele>1100.85</ele>
        <time>2019-09-19T06:36:15Z</time>
      </trkpt>
      <trkpt lat="44.80239" lon="6.11598">
        <ele>1102.68</ele>
        <time>2019-09-19T06:36:37Z</time>
      </trkpt>
      <trkpt lat="44.80227" lon="6.11604">
        <ele>1103.85</ele>
        <time>2019-09-19T06:36:54Z</time>
      </trkpt>
      <trkpt lat="44.80214" lon="6.11611">
        <ele>1104.67</ele>
        <time>2019-09-19T06:37:13Z</time>
      </trkpt>
      <trkpt lat="44.80201" lon="6.11618">
        <ele>1104.99</ele>
        <time>2019-09-19T06:37:29Z</time>
      </trkpt>
      <trkpt lat="44.80182" lon="6.11631">
        <ele>1104.73</ele>
        <time>2019-09-19T06:37:53Z</time>
      </trkpt>
      <trkpt lat="44.80175" lon="6.11659">
        <ele>1106.37</ele>
        <time>2019-09-19T06:38:20Z</time>
      </trkpt>
      <trkpt lat="44.80175" lon="6.11688">
        <ele>1107.23</ele>
        <time>2019-09-19T06:38:45Z</time>
      </trkpt>
      <trkpt lat="44.80176" lon="6.11707">
        <ele>1109.19</ele>
        <time>2019-09-19T06:39:06Z</time>
      </trkpt>
      <trkpt lat="44.80166" lon="6.11721">
        <ele>1109.97</ele>
        <time>2019-09-19T06:39:25Z</time>
      </trkpt>
      <trkpt lat="44.80154" lon="6.11738">
        <ele>1111.32</ele>
        <time>2019-09-19T06:39:49Z</time>
      </trkpt>
      <trkpt lat="44.8015" lon="6.11758">
        <ele>1113.17</ele>
        <time>2019-09-19T06:40:12Z</time>
      </trkpt>
      <trkpt lat="44.80148" lon="6.11778">
        <ele>1115.65</ele>
        <time>2019-09-19T06:40:34Z</time>
      </trkpt>
      <trkpt lat="44.80138" lon="6.11798">
        <ele>1117.9</ele>
        <time>2019-09-19T06:40:58Z</time>
      </trkpt>
      <trkpt lat="44.80128" lon="6.11807">
        <ele>1120.14</ele>
        <time>2019-09-19T06:41:20Z</time>
      </trkpt>
      <trkpt lat="44.80118" lon="6.11815">
        <ele>1122.34</ele>
        <time>2019-09-19T06:41:42Z</time>
      </trkpt>
      <trkpt lat="44.80108" lon="6.11822">
        <ele>1124.59</ele>
        <time>2019-09-19T06:42:03Z</time>
      </trkpt>
      <trkpt lat="44.80098" lon="6.11829">
        <ele>1127.11</ele>
        <time>2019-09-19T06:42:23Z</time>
      </trkpt>
      <trkpt lat="44.80085" lon="6.11833">
        <ele>1129.04</ele>
        <time>2019-09-19T06:42:45Z</time>
      </trkpt>
      <trkpt lat="44.80075" lon="6.11847">
        <ele>1131.01</ele>
        <time>2019-09-19T06:43:07Z</time>
      </trkpt>
      <trkpt lat="44.8007" lon="6.11862">
        <ele>1133.34</ele>
        <time>2019-09-19T06:43:27Z</time>
      </trkpt>
      <trkpt lat="44.80071" lon="6.11876">
        <ele>1135.18</ele>
        <time>2019-09-19T06:43:48Z</time>
      </trkpt>
      <trkpt lat="44.80065" lon="6.11894">
        <ele>1137.94</ele>
        <time>2019-09-19T06:44:12Z</time>
      </trkpt>
      <trkpt lat="44.80057" lon="6.11915">
        <ele>1140.49</ele>
        <time>2019-09-19T06:44:35Z</time>
      </trkpt>
      <trkpt lat="44.80048" lon="6.11931">
        <ele>1142.09</ele>
        <time>2019-09-19T06:44:54Z</time>
      </trkpt>
      <trkpt lat="44.80042" lon="6.11949">
        <ele>1144.1</ele>
        <time>2019-09-19T06:45:14Z</time>
      </trkpt>
      <trkpt lat="44.80035" lon="6.11968">
        <ele>1146.67</ele>
        <time>2019-09-19T06:45:38Z</time>
      </trkpt>
      <trkpt lat="44.80026" lon="6.11985">
        <ele>1149.29</ele>
        <time>2019-09-19T06:46:00Z</time>
      </trkpt>
      <trkpt lat="44.80017" lon="6.12001">
        <ele>1152.21</ele>
        <time>2019-09-19T06:46:23Z</time>
      </trkpt>
      <trkpt lat="44.80011" lon="6.12012">
        <ele>1154.18</ele>
        <time>2019-09-19T06:46:43Z</time>
      </trkpt>
      <trkpt lat="44.80008" lon="6.12025">
        <ele>1156.32</ele>
        <time>2019-09-19T06:47:03Z</time>
      </trkpt>
      <trkpt lat="44.80006" lon="6.12043">
        <ele>1158.4</ele>
        <time>2019-09-19T06:47:25Z</time>
      </trkpt>
      <trkpt lat="44.80004" lon="6.12057">
        <ele>1160.34</ele>
        <time>2019-09-19T06:47:40Z</time>
      </trkpt>
      <trkpt lat="44.7999" lon="6.12073">
        <ele>1162.3</ele>
        <time>2019-09-19T06:48:01Z</time>
      </trkpt>
      <trkpt lat="44.79969" lon="6.12079">
        <ele>1161.87</ele>
        <time>2019-09-19T06:48:24Z</time>
      </trkpt>
      <trkpt lat="44.79959" lon="6.12096">
        <ele>1162.68</ele>
        <time>2019-09-19T06:48:47Z</time>
      </trkpt>
      <trkpt lat="44.79958" lon="6.12116">
        <ele>1164.23</ele>
        <time>2019-09-19T06:49:08Z</time>
      </trkpt>
      <trkpt lat="44.79959" lon="6.12136">
        <ele>1166.47</ele>
        <time>2019-09-19T06:49:30Z</time>
      </trkpt>
      <trkpt lat="44.79953" lon="6.12161">
        <ele>1168.49</ele>
        <time>2019-09-19T06:49:53Z</time>
      </trkpt>
      <trkpt lat="44.79953" lon="6.12176">
        <ele>1170.37</ele>
        <time>2019-09-19T06:50:11Z</time>
      </trkpt>
      <trkpt lat="44.7995" lon="6.12193">
        <ele>1173.47</ele>
        <time>2019-09-19T06:50:33Z</time>
      </trkpt>
      <trkpt lat="44.79948" lon="6.12206">
        <ele>1174.93</ele>
        <time>2019-09-19T06:50:49Z</time>
      </trkpt>
      <trkpt lat="44.79942" lon="6.12225">
        <ele>1177.68</ele>
        <time>2019-09-19T06:51:12Z</time>
      </trkpt>
      <trkpt lat="44.79927" lon="6.1224">
        <ele>1179.83</ele>
        <time>2019-09-19T06:51:32Z</time>
      </trkpt>
      <trkpt lat="44.79915" lon="6.12255">
        <ele>1180.9</ele>
        <time>2019-09-19T06:51:50Z</time>
      </trkpt>
      <trkpt lat="44.79908" lon="6.12269">
        <ele>1182.61</ele>
        <time>2019-09-19T06:52:09Z</time>
      </trkpt>
      <trkpt lat="44.79903" lon="6.12285">
        <ele>1185.07</ele>
        <time>2019-09-19T06:52:27Z</time>
      </trkpt>
      <trkpt lat="44.79892" lon="6.12301">
        <ele>1187.05</ele>
        <time>2019-09-19T06:52:48Z</time>
      </trkpt>
      <trkpt lat="44.79882" lon="6.12317">
        <ele>1189.69</ele>
        <time>2019-09-19T06:53:11Z</time>
      </trkpt>
      <trkpt lat="44.79868" lon="6.12326">
        <ele>1191.72</ele>
        <time>2019-09-19T06:53:34Z</time>
      </trkpt>
      <trkpt lat="44.79862" lon="6.12341">
        <ele>1193.45</ele>
        <time>2019-09-19T06:53:54Z</time>
      </trkpt>
      <trkpt lat="44.79856" lon="6.12361">
        <ele>1196.45</ele>
        <time>2019-09-19T06:54:17Z</time>
      </trkpt>
      <trkpt lat="44.79854" lon="6.12375">
        <ele>1197.23</ele>
        <time>2019-09-19T06:54:36Z</time>
      </trkpt>
      <trkpt lat="44.79849" lon="6.12394">
        <ele>1198.54</ele>
        <time>2019-09-19T06:54:58Z</time>
      </trkpt>
      <trkpt lat="44.79844" lon="6.12413">
        <ele>1200.84</ele>
        <time>2019-09-19T06:55:21Z</time>
      </trkpt>
      <trkpt lat="44.79837" lon="6.12425">
        <ele>1203.36</ele>
        <time>2019-09-19T06:55:39Z</time>
      </trkpt>
      <trkpt lat="44.79832" lon="6.12439">
        <ele>1205.04</ele>
        <time>2019-09-19T06:55:59Z</time>
      </trkpt>
      <trkpt lat="44.79827" lon="6.12449">
        <ele>1207.5</ele>
        <time>2019-09-19T06:56:15Z</time>
      </trkpt>
      <trkpt lat="44.79819" lon="6.12454">
        <ele>1209.25</ele>
        <time>2019-09-19T06:56:31Z</time>
      </trkpt>
      <trkpt lat="44.79807" lon="6.12457">
        <ele>1211.81</ele>
        <time>2019-09-19T06:56:51Z</time>
      </trkpt>
      <trkpt lat="44.79802" lon="6.12466">
        <ele>1214.19</ele>
        <time>2019-09-19T06:57:11Z</time>
      </trkpt>
      <trkpt lat="44.79792" lon="6.12469">
        <ele>1217.31</ele>
        <time>2019-09-19T06:57:31Z</time>
      </trkpt>
      <trkpt lat="44.79783" lon="6.12471">
        <ele>1220.19</ele>
        <time>2019-09-19T06:57:49Z</time>
      </trkpt>
      <trkpt lat="44.79774" lon="6.12473">
        <ele>1223.35</ele>
        <time>2019-09-19T06:58:08Z</time>
      </trkpt>
      <trkpt lat="44.79771" lon="6.12487">
        <ele>1226.41</ele>
        <time>2019-09-19T06:58:27Z</time>
      </trkpt>
      <trkpt lat="44.79763" lon="6.12505">
        <ele>1228.13</ele>
        <time>2019-09-19T06:58:52Z</time>
      </trkpt>
      <trkpt lat="44.79759" lon="6.12511">
        <ele>1229.25</ele>
        <time>2019-09-19T06:59:16Z</time>
      </trkpt>
      <trkpt lat="44.79761" lon="6.12509">
        <ele>1228.51</ele>
        <time>2019-09-19T06:59:48Z</time>
      </trkpt>
      <trkpt lat="44.79761" lon="6.12507">
        <ele>1227.96</ele>
        <time>2019-09-19T07:00:19Z</time>
      </trkpt>
      <trkpt lat="44.79762" lon="6.12507">
        <ele>1227.26</ele>
        <time>2019-09-19T07:00:48Z</time>
      </trkpt>
      <trkpt lat="44.79761" lon="6.1251">
        <ele>1226.82</ele>
        <time>2019-09-19T07:01:16Z</time>
      </trkpt>
      <trkpt lat="44.7976" lon="6.1251">
        <ele>1226.29</ele>
        <time>2019-09-19T07:01:42Z</time>
      </trkpt>
      <trkpt lat="44.79757" lon="6.12521">
        <ele>1228.15</ele>
        <time>2019-09-19T07:02:00Z</time>
      </trkpt>
      <trkpt lat="44.79751" lon="6.12531">
        <ele>1229.38</ele>
        <time>2019-09-19T07:02:18Z</time>
      </trkpt>
      <trkpt lat="44.79741" lon="6.12537">
        <ele>1232.1</ele>
        <time>2019-09-19T07:02:39Z</time>
      </trkpt>
      <trkpt lat="44.79728" lon="6.12546">
        <ele>1234.52</ele>
        <time>2019-09-19T07:03:00Z</time>
      </trkpt>
      <trkpt lat="44.79721" lon="6.12547">
        <ele>1237.28</ele>
        <time>2019-09-19T07:03:19Z</time>
      </trkpt>
      <trkpt lat="44.79714" lon="6.12544">
        <ele>1240.55</ele>
        <time>2019-09-19T07:03:38Z</time>
      </trkpt>
      <trkpt lat="44.79707" lon="6.12544">
        <ele>1243.65</ele>
        <time>2019-09-19T07:04:00Z</time>
      </trkpt>
      <trkpt lat="44.797" lon="6.12549">
        <ele>1246.76</ele>
        <time>2019-09-19T07:04:18Z</time>
      </trkpt>
      <trkpt lat="44.79694" lon="6.12556">
        <ele>1249.94</ele>
        <time>2019-09-19T07:04:38Z</time>
      </trkpt>
      <trkpt lat="44.79689" lon="6.12563">
        <ele>1253.06</ele>
        <time>2019-09-19T07:04:56Z</time>
      </trkpt>
      <trkpt lat="44.79674" lon="6.12575">
        <ele>1255.4</ele>
        <time>2019-09-19T07:05:20Z</time>
      </trkpt>
      <trkpt lat="44.79662" lon="6.12588">
        <ele>1257.37</ele>
        <time>2019-09-19T07:05:43Z</time>
      </trkpt>
      <trkpt lat="44.79651" lon="6.12605">
        <ele>1259.27</ele>
        <time>2019-09-19T07:06:04Z</time>
      </trkpt>
      <trkpt lat="44.79638" lon="6.12621">
        <ele>1261.26</ele>
        <time>2019-09-19T07:06:28Z</time>
      </trkpt>
      <trkpt lat="44.79634" lon="6.12631">
        <ele>1263.49</ele>
        <time>2019-09-19T07:06:48Z</time>
      </trkpt>
      <trkpt lat="44.79624" lon="6.12641">
        <ele>1265.17</ele>
        <time>2019-09-19T07:07:09Z</time>
      </trkpt>
      <trkpt lat="44.79609" lon="6.12658">
        <ele>1267.13</ele>
        <time>2019-09-19T07:07:33Z</time>
      </trkpt>
      <trkpt lat="44.79599" lon="6.12677">
        <ele>1270.01</ele>
        <time>2019-09-19T07:07:59Z</time>
      </trkpt>
      <trkpt lat="44.79596" lon="6.12693">
        <ele>1271.8</ele>
        <time>2019-09-19T07:08:19Z</time>
      </trkpt>
      <trkpt lat="44.79592" lon="6.12713">
        <ele>1274.02</ele>
        <time>2019-09-19T07:08:39Z</time>
      </trkpt>
      <trkpt lat="44.79585" lon="6.12732">
        <ele>1276.76</ele>
        <time>2019-09-19T07:09:03Z</time>
      </trkpt>
      <trkpt lat="44.79572" lon="6.12742">
        <ele>1278.8</ele>
        <time>2019-09-19T07:09:25Z</time>
      </trkpt>
      <trkpt lat="44.79562" lon="6.1275">
        <ele>1281.49</ele>
        <time>2019-09-19T07:09:48Z</time>
      </trkpt>
      <trkpt lat="44.79552" lon="6.12762">
        <ele>1284.51</ele>
        <time>2019-09-19T07:10:09Z</time>
      </trkpt>
      <trkpt lat="44.79542" lon="6.12774">
        <ele>1287.19</ele>
        <time>2019-09-19T07:10:29Z</time>
      </trkpt>
      <trkpt lat="44.79523" lon="6.1278">
        <ele>1289.02</ele>
        <time>2019-09-19T07:10:51Z</time>
      </trkpt>
      <trkpt lat="44.79508" lon="6.12792">
        <ele>1290.83</ele>
        <time>2019-09-19T07:11:13Z</time>
      </trkpt>
      <trkpt lat="44.79492" lon="6.12803">
        <ele>1291.79</ele>
        <time>2019-09-19T07:11:35Z</time>
      </trkpt>
      <trkpt lat="44.79476" lon="6.12815">
        <ele>1291.75</ele>
        <time>2019-09-19T07:11:59Z</time>
      </trkpt>
      <trkpt lat="44.7946" lon="6.12822">
        <ele>1291.42</ele>
        <time>2019-09-19T07:12:19Z</time>
      </trkpt>
      <trkpt lat="44.79444" lon="6.12836">
        <ele>1290.9</ele>
        <time>2019-09-19T07:12:38Z</time>
      </trkpt>
      <trkpt lat="44.79436" lon="6.1286">
        <ele>1293.24</ele>
        <time>2019-09-19T07:13:00Z</time>
      </trkpt>
      <trkpt lat="44.79428" lon="6.12881">
        <ele>1295.54</ele>
        <time>2019-09-19T07:13:22Z</time>
      </trkpt>
      <trkpt lat="44.79422" lon="6.12893">
        <ele>1295.89</ele>
        <time>2019-09-19T07:13:40Z</time>
      </trkpt>
      <trkpt lat="44.79409" lon="6.12908">
        <ele>1296.07</ele>
        <time>2019-09-19T07:13:58Z</time>
      </trkpt>
      <trkpt lat="44.79397" lon="6.12916">
        <ele>1297.12</ele>
        <time>2019-09-19T07:14:17Z</time>
      </trkpt>
      <trkpt lat="44.79383" lon="6.12927">
        <ele>1298.82</ele>
        <time>2019-09-19T07:14:37Z</time>
      </trkpt>
      <trkpt lat="44.79368" lon="6.12934">
        <ele>1301.82</ele>
        <time>2019-09-19T07:14:58Z</time>
      </trkpt>
      <trkpt lat="44.79354" lon="6.12947">
        <ele>1304.39</ele>
        <time>2019-09-19T07:15:21Z</time>
      </trkpt>
      <trkpt lat="44.79337" lon="6.12952">
        <ele>1306.28</ele>
        <time>2019-09-19T07:15:41Z</time>
      </trkpt>
      <trkpt lat="44.79321" lon="6.12965">
        <ele>1309.33</ele>
        <time>2019-09-19T07:16:04Z</time>
      </trkpt>
      <trkpt lat="44.79313" lon="6.12978">
        <ele>1311.42</ele>
        <time>2019-09-19T07:16:24Z</time>
      </trkpt>
      <trkpt lat="44.79301" lon="6.12992">
        <ele>1313.56</ele>
        <time>2019-09-19T07:16:44Z</time>
      </trkpt>
      <trkpt lat="44.7929" lon="6.13004">
        <ele>1315.13</ele>
        <time>2019-09-19T07:17:00Z</time>
      </trkpt>
      <trkpt lat="44.79276" lon="6.13013">
        <ele>1317.5</ele>
        <time>2019-09-19T07:17:21Z</time>
      </trkpt>
      <trkpt lat="44.79263" lon="6.13025">
        <ele>1319.56</ele>
        <time>2019-09-19T07:17:42Z</time>
      </trkpt>
      <trkpt lat="44.79251" lon="6.13041">
        <ele>1322.2</ele>
        <time>2019-09-19T07:18:05Z</time>
      </trkpt>
      <trkpt lat="44.79242" lon="6.13053">
        <ele>1325.21</ele>
        <time>2019-09-19T07:18:24Z</time>
      </trkpt>
      <trkpt lat="44.79231" lon="6.13062">
        <ele>1328.23</ele>
        <time>2019-09-19T07:18:44Z</time>
      </trkpt>
      <trkpt lat="44.79222" lon="6.13072">
        <ele>1330.72</ele>
        <time>2019-09-19T07:19:02Z</time>
      </trkpt>
      <trkpt lat="44.79214" lon="6.13082">
        <ele>1333.17</ele>
        <time>2019-09-19T07:19:17Z</time>
      </trkpt>
      <trkpt lat="44.79203" lon="6.13091">
        <ele>1336.05</ele>
        <time>2019-09-19T07:19:35Z</time>
      </trkpt>
      <trkpt lat="44.79193" lon="6.13099">
        <ele>1339.13</ele>
        <time>2019-09-19T07:19:53Z</time>
      </trkpt>
      <trkpt lat="44.79181" lon="6.13106">
        <ele>1342.1</ele>
        <time>2019-09-19T07:20:12Z</time>
      </trkpt>
      <trkpt lat="44.79169" lon="6.1311">
        <ele>1344.69</ele>
        <time>2019-09-19T07:20:31Z</time>
      </trkpt>
      <trkpt lat="44.79156" lon="6.13121">
        <ele>1346.82</ele>
        <time>2019-09-19T07:20:49Z</time>
      </trkpt>
      <trkpt lat="44.79146" lon="6.1313">
        <ele>1348.92</ele>
        <time>2019-09-19T07:21:04Z</time>
      </trkpt>
      <trkpt lat="44.79138" lon="6.13144">
        <ele>1350.77</ele>
        <time>2019-09-19T07:21:19Z</time>
      </trkpt>
      <trkpt lat="44.79136" lon="6.13158">
        <ele>1351.26</ele>
        <time>2019-09-19T07:21:31Z</time>
      </trkpt>
      <trkpt lat="44.79137" lon="6.13164">
        <ele>1351.59</ele>
        <time>2019-09-19T07:21:38Z</time>
      </trkpt>
      <trkpt lat="44.79143" lon="6.13182">
        <ele>1351.83</ele>
        <time>2019-09-19T07:21:53Z</time>
      </trkpt>
      <trkpt lat="44.7914" lon="6.13207">
        <ele>1352.48</ele>
        <time>2019-09-19T07:22:13Z</time>
      </trkpt>
      <trkpt lat="44.79137" lon="6.1323">
        <ele>1353.79</ele>
        <time>2019-09-19T07:22:32Z</time>
      </trkpt>
      <trkpt lat="44.79137" lon="6.13232">
        <ele>1353.87</ele>
        <time>2019-09-19T07:22:34Z</time>
      </trkpt>
      <trkpt lat="44.79141" lon="6.13254">
        <ele>1354.83</ele>
        <time>2019-09-19T07:22:51Z</time>
      </trkpt>
      <trkpt lat="44.79154" lon="6.13267">
        <ele>1354.89</ele>
        <time>2019-09-19T07:23:08Z</time>
      </trkpt>
      <trkpt lat="44.79159" lon="6.13268">
        <ele>1355.82</ele>
        <time>2019-09-19T07:23:15Z</time>
      </trkpt>
      <trkpt lat="44.7917" lon="6.13264">
        <ele>1357.5</ele>
        <time>2019-09-19T07:23:30Z</time>
      </trkpt>
      <trkpt lat="44.79182" lon="6.1326">
        <ele>1358.44</ele>
        <time>2019-09-19T07:23:47Z</time>
      </trkpt>
      <trkpt lat="44.79182" lon="6.1326">
        <ele>1358.46</ele>
        <time>2019-09-19T07:24:08Z</time>
      </trkpt>
      <trkpt lat="44.79181" lon="6.13261">
        <ele>1358.42</ele>
        <time>2019-09-19T07:24:25Z</time>
      </trkpt>
      <trkpt lat="44.79181" lon="6.13259">
        <ele>1358.53</ele>
        <time>2019-09-19T07:24:45Z</time>
      </trkpt>
      <trkpt lat="44.79177" lon="6.13258">
        <ele>1358.48</ele>
        <time>2019-09-19T07:25:01Z</time>
      </trkpt>
      <trkpt lat="44.79177" lon="6.13259">
        <ele>1358.32</ele>
        <time>2019-09-19T07:25:19Z</time>
      </trkpt>
      <trkpt lat="44.79177" lon="6.13259">
        <ele>1358.17</ele>
        <time>2019-09-19T07:25:37Z</time>
      </trkpt>
      <trkpt lat="44.79177" lon="6.13259">
        <ele>1358.47</ele>
        <time>2019-09-19T07:25:57Z</time>
      </trkpt>
      <trkpt lat="44.79177" lon="6.13258">
        <ele>1358.17</ele>
        <time>2019-09-19T07:26:12Z</time>
      </trkpt>
      <trkpt lat="44.79178" lon="6.13258">
        <ele>1358.15</ele>
        <time>2019-09-19T07:26:44Z</time>
      </trkpt>
      <trkpt lat="44.79176" lon="6.13258">
        <ele>1358.4</ele>
        <time>2019-09-19T07:27:09Z</time>
      </trkpt>
      <trkpt lat="44.79177" lon="6.13258">
        <ele>1358.16</ele>
        <time>2019-09-19T07:27:31Z</time>
      </trkpt>
      <trkpt lat="44.79177" lon="6.13259">
        <ele>1358.22</ele>
        <time>2019-09-19T07:27:45Z</time>
      </trkpt>
      <trkpt lat="44.79178" lon="6.1326">
        <ele>1358.23</ele>
        <time>2019-09-19T07:28:18Z</time>
      </trkpt>
      <trkpt lat="44.79177" lon="6.1326">
        <ele>1358.19</ele>
        <time>2019-09-19T07:28:45Z</time>
      </trkpt>
      <trkpt lat="44.79178" lon="6.1326">
        <ele>1358.28</ele>
        <time>2019-09-19T07:29:04Z</time>
      </trkpt>
      <trkpt lat="44.79178" lon="6.1326">
        <ele>1358.58</ele>
        <time>2019-09-19T07:29:24Z</time>
      </trkpt>
      <trkpt lat="44.79178" lon="6.1326">
        <ele>1358.41</ele>
        <time>2019-09-19T07:29:49Z</time>
      </trkpt>
      <trkpt lat="44.79178" lon="6.1326">
        <ele>1358.51</ele>
        <time>2019-09-19T07:30:13Z</time>
      </trkpt>
      <trkpt lat="44.79178" lon="6.13258">
        <ele>1358.47</ele>
        <time>2019-09-19T07:30:39Z</time>
      </trkpt>
      <trkpt lat="44.79177" lon="6.13257">
        <ele>1358.51</ele>
        <time>2019-09-19T07:31:02Z</time>
      </trkpt>
      <trkpt lat="44.79176" lon="6.13258">
        <ele>1358.54</ele>
        <time>2019-09-19T07:31:25Z</time>
      </trkpt>
      <trkpt lat="44.79177" lon="6.13257">
        <ele>1358.65</ele>
        <time>2019-09-19T07:31:45Z</time>
      </trkpt>
      <trkpt lat="44.79177" lon="6.13257">
        <ele>1358.71</ele>
        <time>2019-09-19T07:32:10Z</time>
      </trkpt>
      <trkpt lat="44.79177" lon="6.13257">
        <ele>1358.64</ele>
        <time>2019-09-19T07:32:39Z</time>
      </trkpt>
      <trkpt lat="44.79177" lon="6.13257">
        <ele>1358.77</ele>
        <time>2019-09-19T07:33:10Z</time>
      </trkpt>
      <trkpt lat="44.79178" lon="6.13255">
        <ele>1358.77</ele>
        <time>2019-09-19T07:33:54Z</time>
      </trkpt>
      <trkpt lat="44.79178" lon="6.13256">
        <ele>1358.61</ele>
        <time>2019-09-19T07:34:28Z</time>
      </trkpt>
      <trkpt lat="44.79177" lon="6.13256">
        <ele>1358.53</ele>
        <time>2019-09-19T07:34:47Z</time>
      </trkpt>
      <trkpt lat="44.79176" lon="6.13257">
        <ele>1358.5</ele>
        <time>2019-09-19T07:35:18Z</time>
      </trkpt>
      <trkpt lat="44.79176" lon="6.13257">
        <ele>1358.33</ele>
        <time>2019-09-19T07:35:40Z</time>
      </trkpt>
      <trkpt lat="44.79176" lon="6.13258">
        <ele>1358.44</ele>
        <time>2019-09-19T07:36:00Z</time>
      </trkpt>
      <trkpt lat="44.79177" lon="6.1326">
        <ele>1358.48</ele>
        <time>2019-09-19T07:36:22Z</time>
      </trkpt>
      <trkpt lat="44.79178" lon="6.1326">
        <ele>1358.31</ele>
        <time>2019-09-19T07:36:43Z</time>
      </trkpt>
      <trkpt lat="44.79182" lon="6.13258">
        <ele>1358.4</ele>
        <time>2019-09-19T07:36:55Z</time>
      </trkpt>
      <trkpt lat="44.79181" lon="6.13258">
        <ele>1358.23</ele>
        <time>2019-09-19T07:37:09Z</time>
      </trkpt>
      <trkpt lat="44.7918" lon="6.13261">
        <ele>1358.39</ele>
        <time>2019-09-19T07:37:15Z</time>
      </trkpt>
      <trkpt lat="44.79175" lon="6.13262">
        <ele>1358.39</ele>
        <time>2019-09-19T07:37:29Z</time>
      </trkpt>
      <trkpt lat="44.79173" lon="6.13263">
        <ele>1358.31</ele>
        <time>2019-09-19T07:37:32Z</time>
      </trkpt>
      <trkpt lat="44.79166" lon="6.13267">
        <ele>1357.74</ele>
        <time>2019-09-19T07:37:42Z</time>
      </trkpt>
      <trkpt lat="44.79163" lon="6.13269">
        <ele>1356.78</ele>
        <time>2019-09-19T07:37:57Z</time>
      </trkpt>
      <trkpt lat="44.79162" lon="6.13269">
        <ele>1356.75</ele>
        <time>2019-09-19T07:37:58Z</time>
      </trkpt>
      <trkpt lat="44.79155" lon="6.13266">
        <ele>1356.29</ele>
        <time>2019-09-19T07:38:07Z</time>
      </trkpt>
      <trkpt lat="44.79152" lon="6.13262">
        <ele>1355.67</ele>
        <time>2019-09-19T07:38:11Z</time>
      </trkpt>
      <trkpt lat="44.79143" lon="6.13255">
        <ele>1354.43</ele>
        <time>2019-09-19T07:38:25Z</time>
      </trkpt>
      <trkpt lat="44.79137" lon="6.13252">
        <ele>1354.4</ele>
        <time>2019-09-19T07:38:37Z</time>
      </trkpt>
      <trkpt lat="44.79128" lon="6.13238">
        <ele>1356</ele>
        <time>2019-09-19T07:38:53Z</time>
      </trkpt>
      <trkpt lat="44.79122" lon="6.1323">
        <ele>1357.15</ele>
        <time>2019-09-19T07:39:07Z</time>
      </trkpt>
      <trkpt lat="44.79115" lon="6.13212">
        <ele>1359.2</ele>
        <time>2019-09-19T07:39:25Z</time>
      </trkpt>
      <trkpt lat="44.79107" lon="6.13194">
        <ele>1361.24</ele>
        <time>2019-09-19T07:39:44Z</time>
      </trkpt>
      <trkpt lat="44.79099" lon="6.13177">
        <ele>1362.98</ele>
        <time>2019-09-19T07:40:02Z</time>
      </trkpt>
      <trkpt lat="44.79087" lon="6.13176">
        <ele>1364.01</ele>
        <time>2019-09-19T07:40:19Z</time>
      </trkpt>
      <trkpt lat="44.79084" lon="6.13193">
        <ele>1365.75</ele>
        <time>2019-09-19T07:40:36Z</time>
      </trkpt>
      <trkpt lat="44.79081" lon="6.13209">
        <ele>1367.98</ele>
        <time>2019-09-19T07:40:53Z</time>
      </trkpt>
      <trkpt lat="44.79073" lon="6.13227">
        <ele>1370.19</ele>
        <time>2019-09-19T07:41:13Z</time>
      </trkpt>
      <trkpt lat="44.79065" lon="6.13237">
        <ele>1372.47</ele>
        <time>2019-09-19T07:41:30Z</time>
      </trkpt>
      <trkpt lat="44.79063" lon="6.13238">
        <ele>1372.63</ele>
        <time>2019-09-19T07:41:32Z</time>
      </trkpt>
      <trkpt lat="44.79053" lon="6.13232">
        <ele>1374.07</ele>
        <time>2019-09-19T07:41:49Z</time>
      </trkpt>
      <trkpt lat="44.79046" lon="6.13213">
        <ele>1376.6</ele>
        <time>2019-09-19T07:42:09Z</time>
      </trkpt>
      <trkpt lat="44.79038" lon="6.13195">
        <ele>1378.34</ele>
        <time>2019-09-19T07:42:27Z</time>
      </trkpt>
      <trkpt lat="44.79029" lon="6.1318">
        <ele>1379.77</ele>
        <time>2019-09-19T07:42:43Z</time>
      </trkpt>
      <trkpt lat="44.7902" lon="6.13167">
        <ele>1380.64</ele>
        <time>2019-09-19T07:43:00Z</time>
      </trkpt>
      <trkpt lat="44.79015" lon="6.13152">
        <ele>1381.22</ele>
        <time>2019-09-19T07:43:19Z</time>
      </trkpt>
      <trkpt lat="44.79018" lon="6.13131">
        <ele>1383.54</ele>
        <time>2019-09-19T07:43:39Z</time>
      </trkpt>
      <trkpt lat="44.79014" lon="6.13131">
        <ele>1386.01</ele>
        <time>2019-09-19T07:43:56Z</time>
      </trkpt>
      <trkpt lat="44.79005" lon="6.13139">
        <ele>1387.8</ele>
        <time>2019-09-19T07:44:15Z</time>
      </trkpt>
      <trkpt lat="44.78995" lon="6.13147">
        <ele>1390.24</ele>
        <time>2019-09-19T07:44:34Z</time>
      </trkpt>
      <trkpt lat="44.78983" lon="6.13154">
        <ele>1393.25</ele>
        <time>2019-09-19T07:44:55Z</time>
      </trkpt>
      <trkpt lat="44.78974" lon="6.13161">
        <ele>1396.27</ele>
        <time>2019-09-19T07:45:14Z</time>
      </trkpt>
      <trkpt lat="44.78968" lon="6.13169">
        <ele>1399.37</ele>
        <time>2019-09-19T07:45:31Z</time>
      </trkpt>
      <trkpt lat="44.78958" lon="6.1318">
        <ele>1402.47</ele>
        <time>2019-09-19T07:45:51Z</time>
      </trkpt>
      <trkpt lat="44.78949" lon="6.1318">
        <ele>1405.62</ele>
        <time>2019-09-19T07:46:09Z</time>
      </trkpt>
      <trkpt lat="44.78939" lon="6.1318">
        <ele>1408.43</ele>
        <time>2019-09-19T07:46:29Z</time>
      </trkpt>
      <trkpt lat="44.78929" lon="6.1318">
        <ele>1411.44</ele>
        <time>2019-09-19T07:46:49Z</time>
      </trkpt>
      <trkpt lat="44.78921" lon="6.13178">
        <ele>1414.53</ele>
        <time>2019-09-19T07:47:07Z</time>
      </trkpt>
      <trkpt lat="44.78913" lon="6.13174">
        <ele>1417.7</ele>
        <time>2019-09-19T07:47:24Z</time>
      </trkpt>
      <trkpt lat="44.78904" lon="6.13172">
        <ele>1420.56</ele>
        <time>2019-09-19T07:47:43Z</time>
      </trkpt>
      <trkpt lat="44.78894" lon="6.13171">
        <ele>1423.69</ele>
        <time>2019-09-19T07:48:01Z</time>
      </trkpt>
      <trkpt lat="44.78888" lon="6.13169">
        <ele>1425.47</ele>
        <time>2019-09-19T07:48:18Z</time>
      </trkpt>
      <trkpt lat="44.78879" lon="6.1317">
        <ele>1428.59</ele>
        <time>2019-09-19T07:48:37Z</time>
      </trkpt>
      <trkpt lat="44.7887" lon="6.13165">
        <ele>1431.63</ele>
        <time>2019-09-19T07:48:56Z</time>
      </trkpt>
      <trkpt lat="44.78862" lon="6.13159">
        <ele>1434.32</ele>
        <time>2019-09-19T07:49:13Z</time>
      </trkpt>
      <trkpt lat="44.78854" lon="6.13152">
        <ele>1437.36</ele>
        <time>2019-09-19T07:49:32Z</time>
      </trkpt>
      <trkpt lat="44.78858" lon="6.13141">
        <ele>1439.43</ele>
        <time>2019-09-19T07:49:51Z</time>
      </trkpt>
      <trkpt lat="44.78866" lon="6.13131">
        <ele>1442.59</ele>
        <time>2019-09-19T07:50:10Z</time>
      </trkpt>
      <trkpt lat="44.78871" lon="6.13119">
        <ele>1444.39</ele>
        <time>2019-09-19T07:50:29Z</time>
      </trkpt>
      <trkpt lat="44.7887" lon="6.13102">
        <ele>1447.24</ele>
        <time>2019-09-19T07:50:51Z</time>
      </trkpt>
      <trkpt lat="44.78872" lon="6.13087">
        <ele>1450.37</ele>
        <time>2019-09-19T07:51:10Z</time>
      </trkpt>
      <trkpt lat="44.78866" lon="6.13085">
        <ele>1453.47</ele>
        <time>2019-09-19T07:51:31Z</time>
      </trkpt>
      <trkpt lat="44.78857" lon="6.13081">
        <ele>1456.32</ele>
        <time>2019-09-19T07:51:49Z</time>
      </trkpt>
      <trkpt lat="44.78849" lon="6.13084">
        <ele>1459.36</ele>
        <time>2019-09-19T07:52:10Z</time>
      </trkpt>
      <trkpt lat="44.78836" lon="6.13089">
        <ele>1461.58</ele>
        <time>2019-09-19T07:52:31Z</time>
      </trkpt>
      <trkpt lat="44.78824" lon="6.13076">
        <ele>1464.23</ele>
        <time>2019-09-19T07:52:52Z</time>
      </trkpt>
      <trkpt lat="44.78814" lon="6.13065">
        <ele>1467.32</ele>
        <time>2019-09-19T07:53:10Z</time>
      </trkpt>
      <trkpt lat="44.78804" lon="6.13062">
        <ele>1470.37</ele>
        <time>2019-09-19T07:53:30Z</time>
      </trkpt>
      <trkpt lat="44.78793" lon="6.13057">
        <ele>1473.32</ele>
        <time>2019-09-19T07:53:52Z</time>
      </trkpt>
      <trkpt lat="44.78784" lon="6.1305">
        <ele>1475.95</ele>
        <time>2019-09-19T07:54:11Z</time>
      </trkpt>
      <trkpt lat="44.78773" lon="6.13051">
        <ele>1479.01</ele>
        <time>2019-09-19T07:54:33Z</time>
      </trkpt>
      <trkpt lat="44.78762" lon="6.13048">
        <ele>1481.53</ele>
        <time>2019-09-19T07:54:56Z</time>
      </trkpt>
      <trkpt lat="44.78754" lon="6.13047">
        <ele>1483.72</ele>
        <time>2019-09-19T07:55:14Z</time>
      </trkpt>
      <trkpt lat="44.7874" lon="6.13048">
        <ele>1486.85</ele>
        <time>2019-09-19T07:55:35Z</time>
      </trkpt>
      <trkpt lat="44.78735" lon="6.13041">
        <ele>1489.93</ele>
        <time>2019-09-19T07:55:55Z</time>
      </trkpt>
      <trkpt lat="44.78728" lon="6.13034">
        <ele>1492.89</ele>
        <time>2019-09-19T07:56:15Z</time>
      </trkpt>
      <trkpt lat="44.7872" lon="6.13031">
        <ele>1495.76</ele>
        <time>2019-09-19T07:56:36Z</time>
      </trkpt>
      <trkpt lat="44.78708" lon="6.13028">
        <ele>1498.83</ele>
        <time>2019-09-19T07:56:58Z</time>
      </trkpt>
      <trkpt lat="44.78694" lon="6.1302">
        <ele>1501.75</ele>
        <time>2019-09-19T07:57:21Z</time>
      </trkpt>
      <trkpt lat="44.78684" lon="6.13005">
        <ele>1504.43</ele>
        <time>2019-09-19T07:57:43Z</time>
      </trkpt>
      <trkpt lat="44.78672" lon="6.12998">
        <ele>1506.85</ele>
        <time>2019-09-19T07:58:03Z</time>
      </trkpt>
      <trkpt lat="44.78665" lon="6.12988">
        <ele>1509.37</ele>
        <time>2019-09-19T07:58:25Z</time>
      </trkpt>
      <trkpt lat="44.78657" lon="6.12984">
        <ele>1511.53</ele>
        <time>2019-09-19T07:58:40Z</time>
      </trkpt>
      <trkpt lat="44.78648" lon="6.12977">
        <ele>1514.2</ele>
        <time>2019-09-19T07:59:01Z</time>
      </trkpt>
      <trkpt lat="44.78642" lon="6.12967">
        <ele>1517.26</ele>
        <time>2019-09-19T07:59:19Z</time>
      </trkpt>
      <trkpt lat="44.78635" lon="6.12956">
        <ele>1520.36</ele>
        <time>2019-09-19T07:59:39Z</time>
      </trkpt>
      <trkpt lat="44.78628" lon="6.12943">
        <ele>1523.05</ele>
        <time>2019-09-19T08:00:00Z</time>
      </trkpt>
      <trkpt lat="44.78622" lon="6.12935">
        <ele>1525.08</ele>
        <time>2019-09-19T08:00:17Z</time>
      </trkpt>
      <trkpt lat="44.7862" lon="6.12934">
        <ele>1525.85</ele>
        <time>2019-09-19T08:00:38Z</time>
      </trkpt>
      <trkpt lat="44.7862" lon="6.12935">
        <ele>1525.44</ele>
        <time>2019-09-19T08:01:00Z</time>
      </trkpt>
      <trkpt lat="44.78617" lon="6.12932">
        <ele>1525.54</ele>
        <time>2019-09-19T08:01:18Z</time>
      </trkpt>
      <trkpt lat="44.78607" lon="6.12926">
        <ele>1527.92</ele>
        <time>2019-09-19T08:01:39Z</time>
      </trkpt>
      <trkpt lat="44.78602" lon="6.12916">
        <ele>1530.33</ele>
        <time>2019-09-19T08:01:57Z</time>
      </trkpt>
      <trkpt lat="44.78592" lon="6.12911">
        <ele>1533.12</ele>
        <time>2019-09-19T08:02:17Z</time>
      </trkpt>
      <trkpt lat="44.78583" lon="6.12904">
        <ele>1536.23</ele>
        <time>2019-09-19T08:02:39Z</time>
      </trkpt>
      <trkpt lat="44.78573" lon="6.12897">
        <ele>1538.66</ele>
        <time>2019-09-19T08:02:59Z</time>
      </trkpt>
      <trkpt lat="44.78561" lon="6.12892">
        <ele>1541.67</ele>
        <time>2019-09-19T08:03:23Z</time>
      </trkpt>
      <trkpt lat="44.78549" lon="6.12884">
        <ele>1543.88</ele>
        <time>2019-09-19T08:03:44Z</time>
      </trkpt>
      <trkpt lat="44.78542" lon="6.12878">
        <ele>1545.99</ele>
        <time>2019-09-19T08:04:01Z</time>
      </trkpt>
      <trkpt lat="44.78533" lon="6.12867">
        <ele>1549.06</ele>
        <time>2019-09-19T08:04:23Z</time>
      </trkpt>
      <trkpt lat="44.78526" lon="6.12858">
        <ele>1551.73</ele>
        <time>2019-09-19T08:04:42Z</time>
      </trkpt>
      <trkpt lat="44.78516" lon="6.12848">
        <ele>1554.77</ele>
        <time>2019-09-19T08:05:04Z</time>
      </trkpt>
      <trkpt lat="44.78506" lon="6.12842">
        <ele>1556.56</ele>
        <time>2019-09-19T08:05:25Z</time>
      </trkpt>
      <trkpt lat="44.78494" lon="6.12838">
        <ele>1557.59</ele>
        <time>2019-09-19T08:05:46Z</time>
      </trkpt>
      <trkpt lat="44.78488" lon="6.12825">
        <ele>1560.34</ele>
        <time>2019-09-19T08:06:05Z</time>
      </trkpt>
      <trkpt lat="44.78476" lon="6.12822">
        <ele>1562.01</ele>
        <time>2019-09-19T08:06:26Z</time>
      </trkpt>
      <trkpt lat="44.78467" lon="6.12811">
        <ele>1564.5</ele>
        <time>2019-09-19T08:06:46Z</time>
      </trkpt>
      <trkpt lat="44.78457" lon="6.12801">
        <ele>1567.21</ele>
        <time>2019-09-19T08:07:06Z</time>
      </trkpt>
      <trkpt lat="44.78445" lon="6.128">
        <ele>1569.05</ele>
        <time>2019-09-19T08:07:26Z</time>
      </trkpt>
      <trkpt lat="44.78437" lon="6.12791">
        <ele>1571.28</ele>
        <time>2019-09-19T08:07:45Z</time>
      </trkpt>
      <trkpt lat="44.78428" lon="6.12786">
        <ele>1573.54</ele>
        <time>2019-09-19T08:08:02Z</time>
      </trkpt>
      <trkpt lat="44.78424" lon="6.12777">
        <ele>1576.35</ele>
        <time>2019-09-19T08:08:22Z</time>
      </trkpt>
      <trkpt lat="44.78417" lon="6.12767">
        <ele>1579.49</ele>
        <time>2019-09-19T08:08:42Z</time>
      </trkpt>
      <trkpt lat="44.78409" lon="6.12756">
        <ele>1581.9</ele>
        <time>2019-09-19T08:09:02Z</time>
      </trkpt>
      <trkpt lat="44.78399" lon="6.12746">
        <ele>1584.79</ele>
        <time>2019-09-19T08:09:24Z</time>
      </trkpt>
      <trkpt lat="44.78386" lon="6.12734">
        <ele>1587.3</ele>
        <time>2019-09-19T08:09:46Z</time>
      </trkpt>
      <trkpt lat="44.7838" lon="6.12724">
        <ele>1590.39</ele>
        <time>2019-09-19T08:10:04Z</time>
      </trkpt>
      <trkpt lat="44.78374" lon="6.1271">
        <ele>1593.47</ele>
        <time>2019-09-19T08:10:23Z</time>
      </trkpt>
      <trkpt lat="44.7837" lon="6.12701">
        <ele>1596.66</ele>
        <time>2019-09-19T08:10:39Z</time>
      </trkpt>
      <trkpt lat="44.78368" lon="6.12691">
        <ele>1599.71</ele>
        <time>2019-09-19T08:10:56Z</time>
      </trkpt>
      <trkpt lat="44.78355" lon="6.12688">
        <ele>1602.8</ele>
        <time>2019-09-19T08:11:13Z</time>
      </trkpt>
      <trkpt lat="44.78344" lon="6.12679">
        <ele>1605.88</ele>
        <time>2019-09-19T08:11:34Z</time>
      </trkpt>
      <trkpt lat="44.78334" lon="6.12671">
        <ele>1608.76</ele>
        <time>2019-09-19T08:11:55Z</time>
      </trkpt>
      <trkpt lat="44.78327" lon="6.1266">
        <ele>1611.9</ele>
        <time>2019-09-19T08:12:13Z</time>
      </trkpt>
      <trkpt lat="44.78317" lon="6.12652">
        <ele>1614.96</ele>
        <time>2019-09-19T08:12:33Z</time>
      </trkpt>
      <trkpt lat="44.78306" lon="6.12649">
        <ele>1617.97</ele>
        <time>2019-09-19T08:12:49Z</time>
      </trkpt>
      <trkpt lat="44.78297" lon="6.12645">
        <ele>1619.99</ele>
        <time>2019-09-19T08:13:07Z</time>
      </trkpt>
      <trkpt lat="44.78288" lon="6.12635">
        <ele>1622.91</ele>
        <time>2019-09-19T08:13:28Z</time>
      </trkpt>
      <trkpt lat="44.78284" lon="6.12627">
        <ele>1625.93</ele>
        <time>2019-09-19T08:13:45Z</time>
      </trkpt>
      <trkpt lat="44.7828" lon="6.12616">
        <ele>1629.02</ele>
        <time>2019-09-19T08:14:02Z</time>
      </trkpt>
      <trkpt lat="44.78271" lon="6.12605">
        <ele>1632.12</ele>
        <time>2019-09-19T08:14:22Z</time>
      </trkpt>
      <trkpt lat="44.78264" lon="6.12597">
        <ele>1635</ele>
        <time>2019-09-19T08:14:40Z</time>
      </trkpt>
      <trkpt lat="44.78251" lon="6.12586">
        <ele>1637.75</ele>
        <time>2019-09-19T08:15:00Z</time>
      </trkpt>
      <trkpt lat="44.78238" lon="6.12576">
        <ele>1640.19</ele>
        <time>2019-09-19T08:15:22Z</time>
      </trkpt>
      <trkpt lat="44.78232" lon="6.12564">
        <ele>1643.28</ele>
        <time>2019-09-19T08:15:44Z</time>
      </trkpt>
      <trkpt lat="44.78225" lon="6.12554">
        <ele>1646.31</ele>
        <time>2019-09-19T08:16:04Z</time>
      </trkpt>
      <trkpt lat="44.78218" lon="6.12543">
        <ele>1649.39</ele>
        <time>2019-09-19T08:16:24Z</time>
      </trkpt>
      <trkpt lat="44.78207" lon="6.12533">
        <ele>1652.37</ele>
        <time>2019-09-19T08:16:44Z</time>
      </trkpt>
      <trkpt lat="44.78199" lon="6.12527">
        <ele>1655.11</ele>
        <time>2019-09-19T08:17:02Z</time>
      </trkpt>
      <trkpt lat="44.78192" lon="6.12519">
        <ele>1657.86</ele>
        <time>2019-09-19T08:17:20Z</time>
      </trkpt>
      <trkpt lat="44.78185" lon="6.12511">
        <ele>1660.24</ele>
        <time>2019-09-19T08:17:37Z</time>
      </trkpt>
      <trkpt lat="44.78177" lon="6.12505">
        <ele>1663.27</ele>
        <time>2019-09-19T08:17:53Z</time>
      </trkpt>
      <trkpt lat="44.78172" lon="6.12496">
        <ele>1666.37</ele>
        <time>2019-09-19T08:18:11Z</time>
      </trkpt>
      <trkpt lat="44.78175" lon="6.12487">
        <ele>1668.94</ele>
        <time>2019-09-19T08:18:28Z</time>
      </trkpt>
      <trkpt lat="44.78172" lon="6.12475">
        <ele>1672.04</ele>
        <time>2019-09-19T08:18:49Z</time>
      </trkpt>
      <trkpt lat="44.7817" lon="6.1246">
        <ele>1675.2</ele>
        <time>2019-09-19T08:19:10Z</time>
      </trkpt>
      <trkpt lat="44.78168" lon="6.1245">
        <ele>1678.34</ele>
        <time>2019-09-19T08:19:26Z</time>
      </trkpt>
      <trkpt lat="44.78168" lon="6.12437">
        <ele>1681.67</ele>
        <time>2019-09-19T08:19:45Z</time>
      </trkpt>
      <trkpt lat="44.78166" lon="6.12424">
        <ele>1684.73</ele>
        <time>2019-09-19T08:20:05Z</time>
      </trkpt>
      <trkpt lat="44.78171" lon="6.12412">
        <ele>1687.92</ele>
        <time>2019-09-19T08:20:23Z</time>
      </trkpt>
      <trkpt lat="44.78179" lon="6.12399">
        <ele>1691.04</ele>
        <time>2019-09-19T08:20:44Z</time>
      </trkpt>
      <trkpt lat="44.7818" lon="6.12392">
        <ele>1694.1</ele>
        <time>2019-09-19T08:21:02Z</time>
      </trkpt>
      <trkpt lat="44.78183" lon="6.12382">
        <ele>1697.19</ele>
        <time>2019-09-19T08:21:21Z</time>
      </trkpt>
      <trkpt lat="44.78189" lon="6.12378">
        <ele>1700.2</ele>
        <time>2019-09-19T08:21:36Z</time>
      </trkpt>
      <trkpt lat="44.78198" lon="6.12374">
        <ele>1702.31</ele>
        <time>2019-09-19T08:21:52Z</time>
      </trkpt>
      <trkpt lat="44.78205" lon="6.12372">
        <ele>1704.83</ele>
        <time>2019-09-19T08:22:07Z</time>
      </trkpt>
      <trkpt lat="44.78213" lon="6.12369">
        <ele>1706.97</ele>
        <time>2019-09-19T08:22:24Z</time>
      </trkpt>
      <trkpt lat="44.7822" lon="6.12361">
        <ele>1710.03</ele>
        <time>2019-09-19T08:22:41Z</time>
      </trkpt>
      <trkpt lat="44.78215" lon="6.12351">
        <ele>1713.1</ele>
        <time>2019-09-19T08:22:59Z</time>
      </trkpt>
      <trkpt lat="44.78214" lon="6.12345">
        <ele>1715.8</ele>
        <time>2019-09-19T08:23:17Z</time>
      </trkpt>
      <trkpt lat="44.78217" lon="6.12347">
        <ele>1715.76</ele>
        <time>2019-09-19T08:23:44Z</time>
      </trkpt>
      <trkpt lat="44.78217" lon="6.12346">
        <ele>1715.7</ele>
        <time>2019-09-19T08:24:12Z</time>
      </trkpt>
      <trkpt lat="44.78215" lon="6.12348">
        <ele>1715.6</ele>
        <time>2019-09-19T08:24:35Z</time>
      </trkpt>
      <trkpt lat="44.78217" lon="6.12347">
        <ele>1715.59</ele>
        <time>2019-09-19T08:25:01Z</time>
      </trkpt>
      <trkpt lat="44.78217" lon="6.12348">
        <ele>1715.75</ele>
        <time>2019-09-19T08:25:28Z</time>
      </trkpt>
      <trkpt lat="44.78217" lon="6.12347">
        <ele>1715.85</ele>
        <time>2019-09-19T08:25:50Z</time>
      </trkpt>
      <trkpt lat="44.78215" lon="6.12347">
        <ele>1715.55</ele>
        <time>2019-09-19T08:26:19Z</time>
      </trkpt>
      <trkpt lat="44.78215" lon="6.12349">
        <ele>1715.44</ele>
        <time>2019-09-19T08:26:53Z</time>
      </trkpt>
      <trkpt lat="44.78215" lon="6.12347">
        <ele>1715.75</ele>
        <time>2019-09-19T08:27:54Z</time>
      </trkpt>
      <trkpt lat="44.78215" lon="6.12349">
        <ele>1715.82</ele>
        <time>2019-09-19T08:29:00Z</time>
      </trkpt>
      <trkpt lat="44.78215" lon="6.12348">
        <ele>1715.94</ele>
        <time>2019-09-19T08:30:11Z</time>
      </trkpt>
      <trkpt lat="44.78214" lon="6.12349">
        <ele>1717.07</ele>
        <time>2019-09-19T08:30:35Z</time>
      </trkpt>
      <trkpt lat="44.78217" lon="6.12348">
        <ele>1717.55</ele>
        <time>2019-09-19T08:30:57Z</time>
      </trkpt>
      <trkpt lat="44.78221" lon="6.12343">
        <ele>1718.69</ele>
        <time>2019-09-19T08:31:13Z</time>
      </trkpt>
      <trkpt lat="44.78228" lon="6.12338">
        <ele>1721.33</ele>
        <time>2019-09-19T08:31:29Z</time>
      </trkpt>
      <trkpt lat="44.78234" lon="6.12333">
        <ele>1723.84</ele>
        <time>2019-09-19T08:31:45Z</time>
      </trkpt>
      <trkpt lat="44.78238" lon="6.12325">
        <ele>1726.7</ele>
        <time>2019-09-19T08:32:05Z</time>
      </trkpt>
      <trkpt lat="44.78231" lon="6.12318">
        <ele>1729.77</ele>
        <time>2019-09-19T08:32:25Z</time>
      </trkpt>
      <trkpt lat="44.7823" lon="6.12311">
        <ele>1732</ele>
        <time>2019-09-19T08:32:39Z</time>
      </trkpt>
      <trkpt lat="44.78227" lon="6.12304">
        <ele>1734.43</ele>
        <time>2019-09-19T08:32:54Z</time>
      </trkpt>
      <trkpt lat="44.78222" lon="6.12296">
        <ele>1737.19</ele>
        <time>2019-09-19T08:33:13Z</time>
      </trkpt>
      <trkpt lat="44.7823" lon="6.12296">
        <ele>1738.76</ele>
        <time>2019-09-19T08:33:29Z</time>
      </trkpt>
      <trkpt lat="44.78238" lon="6.12293">
        <ele>1741.62</ele>
        <time>2019-09-19T08:33:49Z</time>
      </trkpt>
      <trkpt lat="44.78245" lon="6.12289">
        <ele>1743.57</ele>
        <time>2019-09-19T08:34:06Z</time>
      </trkpt>
      <trkpt lat="44.78241" lon="6.12284">
        <ele>1746.02</ele>
        <time>2019-09-19T08:34:20Z</time>
      </trkpt>
      <trkpt lat="44.78244" lon="6.12279">
        <ele>1747.81</ele>
        <time>2019-09-19T08:34:35Z</time>
      </trkpt>
      <trkpt lat="44.7825" lon="6.12275">
        <ele>1750.7</ele>
        <time>2019-09-19T08:34:54Z</time>
      </trkpt>
      <trkpt lat="44.78246" lon="6.12267">
        <ele>1753.67</ele>
        <time>2019-09-19T08:35:13Z</time>
      </trkpt>
      <trkpt lat="44.78237" lon="6.12261">
        <ele>1755.92</ele>
        <time>2019-09-19T08:35:31Z</time>
      </trkpt>
      <trkpt lat="44.78237" lon="6.12257">
        <ele>1757.51</ele>
        <time>2019-09-19T08:35:49Z</time>
      </trkpt>
      <trkpt lat="44.78242" lon="6.12254">
        <ele>1759.79</ele>
        <time>2019-09-19T08:36:04Z</time>
      </trkpt>
      <trkpt lat="44.78244" lon="6.12247">
        <ele>1762.8</ele>
        <time>2019-09-19T08:36:20Z</time>
      </trkpt>
      <trkpt lat="44.78251" lon="6.12244">
        <ele>1765.64</ele>
        <time>2019-09-19T08:36:36Z</time>
      </trkpt>
      <trkpt lat="44.78258" lon="6.12241">
        <ele>1768.23</ele>
        <time>2019-09-19T08:36:52Z</time>
      </trkpt>
      <trkpt lat="44.7826" lon="6.12235">
        <ele>1771.52</ele>
        <time>2019-09-19T08:37:08Z</time>
      </trkpt>
      <trkpt lat="44.78257" lon="6.12228">
        <ele>1774.53</ele>
        <time>2019-09-19T08:37:25Z</time>
      </trkpt>
      <trkpt lat="44.78253" lon="6.12219">
        <ele>1777.39</ele>
        <time>2019-09-19T08:37:45Z</time>
      </trkpt>
      <trkpt lat="44.78246" lon="6.12209">
        <ele>1780.27</ele>
        <time>2019-09-19T08:38:06Z</time>
      </trkpt>
      <trkpt lat="44.78247" lon="6.12202">
        <ele>1783.44</ele>
        <time>2019-09-19T08:38:25Z</time>
      </trkpt>
      <trkpt lat="44.7825" lon="6.12196">
        <ele>1786.46</ele>
        <time>2019-09-19T08:38:46Z</time>
      </trkpt>
      <trkpt lat="44.78244" lon="6.12188">
        <ele>1789.37</ele>
        <time>2019-09-19T08:39:05Z</time>
      </trkpt>
      <trkpt lat="44.78241" lon="6.12183">
        <ele>1792.43</ele>
        <time>2019-09-19T08:39:23Z</time>
      </trkpt>
      <trkpt lat="44.78236" lon="6.1218">
        <ele>1795.28</ele>
        <time>2019-09-19T08:39:38Z</time>
      </trkpt>
      <trkpt lat="44.78233" lon="6.12174">
        <ele>1798.26</ele>
        <time>2019-09-19T08:39:53Z</time>
      </trkpt>
      <trkpt lat="44.78227" lon="6.12168">
        <ele>1801.3</ele>
        <time>2019-09-19T08:40:13Z</time>
      </trkpt>
      <trkpt lat="44.78218" lon="6.12169">
        <ele>1803.86</ele>
        <time>2019-09-19T08:40:29Z</time>
      </trkpt>
      <trkpt lat="44.78211" lon="6.12169">
        <ele>1806.37</ele>
        <time>2019-09-19T08:40:45Z</time>
      </trkpt>
      <trkpt lat="44.78211" lon="6.12171">
        <ele>1807.28</ele>
        <time>2019-09-19T08:41:07Z</time>
      </trkpt>
      <trkpt lat="44.78211" lon="6.12169">
        <ele>1807.45</ele>
        <time>2019-09-19T08:41:34Z</time>
      </trkpt>
      <trkpt lat="44.7821" lon="6.12169">
        <ele>1807.01</ele>
        <time>2019-09-19T08:42:15Z</time>
      </trkpt>
      <trkpt lat="44.7821" lon="6.12168">
        <ele>1807.32</ele>
        <time>2019-09-19T08:42:35Z</time>
      </trkpt>
      <trkpt lat="44.78211" lon="6.12165">
        <ele>1807.64</ele>
        <time>2019-09-19T08:42:56Z</time>
      </trkpt>
      <trkpt lat="44.78204" lon="6.12167">
        <ele>1809.09</ele>
        <time>2019-09-19T08:43:11Z</time>
      </trkpt>
      <trkpt lat="44.78198" lon="6.12171">
        <ele>1811.29</ele>
        <time>2019-09-19T08:43:24Z</time>
      </trkpt>
      <trkpt lat="44.78193" lon="6.12171">
        <ele>1813.85</ele>
        <time>2019-09-19T08:43:37Z</time>
      </trkpt>
      <trkpt lat="44.78193" lon="6.12167">
        <ele>1814.8</ele>
        <time>2019-09-19T08:43:58Z</time>
      </trkpt>
      <trkpt lat="44.78187" lon="6.12161">
        <ele>1817.42</ele>
        <time>2019-09-19T08:44:13Z</time>
      </trkpt>
      <trkpt lat="44.78179" lon="6.12152">
        <ele>1819.64</ele>
        <time>2019-09-19T08:44:32Z</time>
      </trkpt>
      <trkpt lat="44.78167" lon="6.12148">
        <ele>1822.76</ele>
        <time>2019-09-19T08:44:53Z</time>
      </trkpt>
      <trkpt lat="44.78158" lon="6.12145">
        <ele>1825.56</ele>
        <time>2019-09-19T08:45:14Z</time>
      </trkpt>
      <trkpt lat="44.78148" lon="6.12144">
        <ele>1827.91</ele>
        <time>2019-09-19T08:45:31Z</time>
      </trkpt>
      <trkpt lat="44.78136" lon="6.12145">
        <ele>1830.6</ele>
        <time>2019-09-19T08:45:51Z</time>
      </trkpt>
      <trkpt lat="44.78124" lon="6.12147">
        <ele>1832.64</ele>
        <time>2019-09-19T08:46:09Z</time>
      </trkpt>
      <trkpt lat="44.78115" lon="6.1214">
        <ele>1834.91</ele>
        <time>2019-09-19T08:46:27Z</time>
      </trkpt>
      <trkpt lat="44.78109" lon="6.12134">
        <ele>1837.95</ele>
        <time>2019-09-19T08:46:45Z</time>
      </trkpt>
      <trkpt lat="44.78104" lon="6.12129">
        <ele>1839.99</ele>
        <time>2019-09-19T08:47:03Z</time>
      </trkpt>
      <trkpt lat="44.78094" lon="6.12126">
        <ele>1842.14</ele>
        <time>2019-09-19T08:47:22Z</time>
      </trkpt>
      <trkpt lat="44.7809" lon="6.12122">
        <ele>1844.31</ele>
        <time>2019-09-19T08:47:40Z</time>
      </trkpt>
      <trkpt lat="44.78081" lon="6.12117">
        <ele>1847.11</ele>
        <time>2019-09-19T08:48:01Z</time>
      </trkpt>
      <trkpt lat="44.78073" lon="6.12116">
        <ele>1850.12</ele>
        <time>2019-09-19T08:48:20Z</time>
      </trkpt>
      <trkpt lat="44.78067" lon="6.12115">
        <ele>1853.27</ele>
        <time>2019-09-19T08:48:36Z</time>
      </trkpt>
      <trkpt lat="44.78062" lon="6.1211">
        <ele>1856.41</ele>
        <time>2019-09-19T08:48:53Z</time>
      </trkpt>
      <trkpt lat="44.78053" lon="6.12112">
        <ele>1859.43</ele>
        <time>2019-09-19T08:49:13Z</time>
      </trkpt>
      <trkpt lat="44.78045" lon="6.12113">
        <ele>1860.92</ele>
        <time>2019-09-19T08:49:28Z</time>
      </trkpt>
      <trkpt lat="44.7804" lon="6.12114">
        <ele>1863.45</ele>
        <time>2019-09-19T08:49:45Z</time>
      </trkpt>
      <trkpt lat="44.78032" lon="6.12115">
        <ele>1866.53</ele>
        <time>2019-09-19T08:50:02Z</time>
      </trkpt>
      <trkpt lat="44.78034" lon="6.12107">
        <ele>1869.61</ele>
        <time>2019-09-19T08:50:21Z</time>
      </trkpt>
      <trkpt lat="44.7803" lon="6.12103">
        <ele>1872.77</ele>
        <time>2019-09-19T08:50:41Z</time>
      </trkpt>
      <trkpt lat="44.78023" lon="6.12101">
        <ele>1875.78</ele>
        <time>2019-09-19T08:50:59Z</time>
      </trkpt>
      <trkpt lat="44.78012" lon="6.12103">
        <ele>1878.86</ele>
        <time>2019-09-19T08:51:16Z</time>
      </trkpt>
      <trkpt lat="44.78002" lon="6.121">
        <ele>1881.86</ele>
        <time>2019-09-19T08:51:34Z</time>
      </trkpt>
      <trkpt lat="44.77997" lon="6.12092">
        <ele>1884.92</ele>
        <time>2019-09-19T08:51:50Z</time>
      </trkpt>
      <trkpt lat="44.78002" lon="6.12075">
        <ele>1887.75</ele>
        <time>2019-09-19T08:52:10Z</time>
      </trkpt>
      <trkpt lat="44.7801" lon="6.12063">
        <ele>1888.82</ele>
        <time>2019-09-19T08:52:26Z</time>
      </trkpt>
      <trkpt lat="44.78013" lon="6.12053">
        <ele>1889.32</ele>
        <time>2019-09-19T08:52:47Z</time>
      </trkpt>
      <trkpt lat="44.78022" lon="6.1204">
        <ele>1890.34</ele>
        <time>2019-09-19T08:53:03Z</time>
      </trkpt>
      <trkpt lat="44.78024" lon="6.12038">
        <ele>1890.5</ele>
        <time>2019-09-19T08:53:06Z</time>
      </trkpt>
      <trkpt lat="44.7803" lon="6.12036">
        <ele>1890.65</ele>
        <time>2019-09-19T08:53:12Z</time>
      </trkpt>
      <trkpt lat="44.78048" lon="6.12034">
        <ele>1892.09</ele>
        <time>2019-09-19T08:53:31Z</time>
      </trkpt>
      <trkpt lat="44.78055" lon="6.12031">
        <ele>1894.1</ele>
        <time>2019-09-19T08:53:48Z</time>
      </trkpt>
      <trkpt lat="44.78056" lon="6.12032">
        <ele>1894.61</ele>
        <time>2019-09-19T08:54:05Z</time>
      </trkpt>
      <trkpt lat="44.78053" lon="6.1203">
        <ele>1894.92</ele>
        <time>2019-09-19T08:54:23Z</time>
      </trkpt>
      <trkpt lat="44.78052" lon="6.1203">
        <ele>1893.7</ele>
        <time>2019-09-19T08:54:46Z</time>
      </trkpt>
      <trkpt lat="44.7805" lon="6.12032">
        <ele>1893.99</ele>
        <time>2019-09-19T08:55:26Z</time>
      </trkpt>
      <trkpt lat="44.78049" lon="6.12036">
        <ele>1894.25</ele>
        <time>2019-09-19T08:55:53Z</time>
      </trkpt>
      <trkpt lat="44.7805" lon="6.12033">
        <ele>1894.23</ele>
        <time>2019-09-19T08:56:21Z</time>
      </trkpt>
      <trkpt lat="44.7805" lon="6.12032">
        <ele>1894.44</ele>
        <time>2019-09-19T08:56:56Z</time>
      </trkpt>
      <trkpt lat="44.78051" lon="6.1203">
        <ele>1894.65</ele>
        <time>2019-09-19T08:57:26Z</time>
      </trkpt>
      <trkpt lat="44.78053" lon="6.12029">
        <ele>1894.86</ele>
        <time>2019-09-19T08:57:55Z</time>
      </trkpt>
      <trkpt lat="44.78052" lon="6.12032">
        <ele>1895.3</ele>
        <time>2019-09-19T08:58:24Z</time>
      </trkpt>
      <trkpt lat="44.7805" lon="6.12035">
        <ele>1895.38</ele>
        <time>2019-09-19T08:58:51Z</time>
      </trkpt>
      <trkpt lat="44.78051" lon="6.12032">
        <ele>1895.75</ele>
        <time>2019-09-19T08:59:20Z</time>
      </trkpt>
      <trkpt lat="44.78052" lon="6.12031">
        <ele>1895.3</ele>
        <time>2019-09-19T08:59:49Z</time>
      </trkpt>
      <trkpt lat="44.78051" lon="6.12033">
        <ele>1895.3</ele>
        <time>2019-09-19T09:00:21Z</time>
      </trkpt>
      <trkpt lat="44.78053" lon="6.1203">
        <ele>1895.71</ele>
        <time>2019-09-19T09:00:52Z</time>
      </trkpt>
      <trkpt lat="44.78051" lon="6.12032">
        <ele>1895.92</ele>
        <time>2019-09-19T09:01:20Z</time>
      </trkpt>
      <trkpt lat="44.78052" lon="6.1203">
        <ele>1895.95</ele>
        <time>2019-09-19T09:01:49Z</time>
      </trkpt>
      <trkpt lat="44.78052" lon="6.12029">
        <ele>1896.26</ele>
        <time>2019-09-19T09:02:20Z</time>
      </trkpt>
      <trkpt lat="44.78052" lon="6.12028">
        <ele>1896.33</ele>
        <time>2019-09-19T09:02:49Z</time>
      </trkpt>
      <trkpt lat="44.78053" lon="6.12029">
        <ele>1896.58</ele>
        <time>2019-09-19T09:03:17Z</time>
      </trkpt>
      <trkpt lat="44.7805" lon="6.1203">
        <ele>1897.5</ele>
        <time>2019-09-19T09:03:33Z</time>
      </trkpt>
      <trkpt lat="44.78049" lon="6.12027">
        <ele>1897.48</ele>
        <time>2019-09-19T09:03:55Z</time>
      </trkpt>
      <trkpt lat="44.78051" lon="6.1202">
        <ele>1899.83</ele>
        <time>2019-09-19T09:04:11Z</time>
      </trkpt>
      <trkpt lat="44.78062" lon="6.12011">
        <ele>1902.84</ele>
        <time>2019-09-19T09:04:30Z</time>
      </trkpt>
      <trkpt lat="44.78063" lon="6.12003">
        <ele>1906.01</ele>
        <time>2019-09-19T09:04:46Z</time>
      </trkpt>
      <trkpt lat="44.78064" lon="6.11995">
        <ele>1908.68</ele>
        <time>2019-09-19T09:05:03Z</time>
      </trkpt>
      <trkpt lat="44.78067" lon="6.11991">
        <ele>1911.26</ele>
        <time>2019-09-19T09:05:20Z</time>
      </trkpt>
      <trkpt lat="44.78073" lon="6.11979">
        <ele>1914.29</ele>
        <time>2019-09-19T09:05:38Z</time>
      </trkpt>
      <trkpt lat="44.78078" lon="6.11971">
        <ele>1917.29</ele>
        <time>2019-09-19T09:05:55Z</time>
      </trkpt>
      <trkpt lat="44.78084" lon="6.11965">
        <ele>1920.19</ele>
        <time>2019-09-19T09:06:15Z</time>
      </trkpt>
      <trkpt lat="44.78089" lon="6.11958">
        <ele>1923.19</ele>
        <time>2019-09-19T09:06:33Z</time>
      </trkpt>
      <trkpt lat="44.7809" lon="6.11952">
        <ele>1926.29</ele>
        <time>2019-09-19T09:06:51Z</time>
      </trkpt>
      <trkpt lat="44.7809" lon="6.11946">
        <ele>1929.29</ele>
        <time>2019-09-19T09:07:10Z</time>
      </trkpt>
      <trkpt lat="44.78088" lon="6.11942">
        <ele>1930.9</ele>
        <time>2019-09-19T09:07:30Z</time>
      </trkpt>
      <trkpt lat="44.78084" lon="6.11939">
        <ele>1932.72</ele>
        <time>2019-09-19T09:07:46Z</time>
      </trkpt>
      <trkpt lat="44.7808" lon="6.11932">
        <ele>1935.49</ele>
        <time>2019-09-19T09:08:06Z</time>
      </trkpt>
      <trkpt lat="44.78077" lon="6.11926">
        <ele>1938.5</ele>
        <time>2019-09-19T09:08:25Z</time>
      </trkpt>
      <trkpt lat="44.78076" lon="6.11918">
        <ele>1941.19</ele>
        <time>2019-09-19T09:08:45Z</time>
      </trkpt>
      <trkpt lat="44.78073" lon="6.11906">
        <ele>1944.24</ele>
        <time>2019-09-19T09:09:03Z</time>
      </trkpt>
      <trkpt lat="44.7808" lon="6.11906">
        <ele>1947.1</ele>
        <time>2019-09-19T09:09:20Z</time>
      </trkpt>
      <trkpt lat="44.78088" lon="6.11907">
        <ele>1950</ele>
        <time>2019-09-19T09:09:40Z</time>
      </trkpt>
      <trkpt lat="44.78093" lon="6.11906">
        <ele>1952.96</ele>
        <time>2019-09-19T09:09:58Z</time>
      </trkpt>
      <trkpt lat="44.78094" lon="6.11896">
        <ele>1955.05</ele>
        <time>2019-09-19T09:10:16Z</time>
      </trkpt>
      <trkpt lat="44.78096" lon="6.11889">
        <ele>1957.56</ele>
        <time>2019-09-19T09:10:35Z</time>
      </trkpt>
      <trkpt lat="44.78099" lon="6.11882">
        <ele>1960.61</ele>
        <time>2019-09-19T09:10:53Z</time>
      </trkpt>
      <trkpt lat="44.78099" lon="6.11873">
        <ele>1963.61</ele>
        <time>2019-09-19T09:11:12Z</time>
      </trkpt>
      <trkpt lat="44.78095" lon="6.11866">
        <ele>1966.72</ele>
        <time>2019-09-19T09:11:33Z</time>
      </trkpt>
      <trkpt lat="44.7809" lon="6.11861">
        <ele>1969.6</ele>
        <time>2019-09-19T09:11:52Z</time>
      </trkpt>
      <trkpt lat="44.78086" lon="6.11857">
        <ele>1971.72</ele>
        <time>2019-09-19T09:12:11Z</time>
      </trkpt>
      <trkpt lat="44.78081" lon="6.11852">
        <ele>1974.83</ele>
        <time>2019-09-19T09:12:27Z</time>
      </trkpt>
      <trkpt lat="44.78076" lon="6.11846">
        <ele>1977.93</ele>
        <time>2019-09-19T09:12:48Z</time>
      </trkpt>
      <trkpt lat="44.78073" lon="6.1184">
        <ele>1981.09</ele>
        <time>2019-09-19T09:13:06Z</time>
      </trkpt>
      <trkpt lat="44.78068" lon="6.11833">
        <ele>1984.1</ele>
        <time>2019-09-19T09:13:23Z</time>
      </trkpt>
      <trkpt lat="44.78071" lon="6.11828">
        <ele>1987.44</ele>
        <time>2019-09-19T09:13:41Z</time>
      </trkpt>
      <trkpt lat="44.78073" lon="6.11826">
        <ele>1988.99</ele>
        <time>2019-09-19T09:14:07Z</time>
      </trkpt>
      <trkpt lat="44.78071" lon="6.11825">
        <ele>1989.13</ele>
        <time>2019-09-19T09:14:33Z</time>
      </trkpt>
      <trkpt lat="44.78071" lon="6.11826">
        <ele>1989.04</ele>
        <time>2019-09-19T09:15:00Z</time>
      </trkpt>
      <trkpt lat="44.78072" lon="6.11823">
        <ele>1989.18</ele>
        <time>2019-09-19T09:15:26Z</time>
      </trkpt>
      <trkpt lat="44.78068" lon="6.11819">
        <ele>1991.5</ele>
        <time>2019-09-19T09:15:43Z</time>
      </trkpt>
      <trkpt lat="44.78064" lon="6.11812">
        <ele>1994.59</ele>
        <time>2019-09-19T09:15:59Z</time>
      </trkpt>
      <trkpt lat="44.78065" lon="6.11801">
        <ele>1997.76</ele>
        <time>2019-09-19T09:16:18Z</time>
      </trkpt>
      <trkpt lat="44.78064" lon="6.11794">
        <ele>2000.9</ele>
        <time>2019-09-19T09:16:37Z</time>
      </trkpt>
      <trkpt lat="44.78066" lon="6.11782">
        <ele>2003.71</ele>
        <time>2019-09-19T09:16:58Z</time>
      </trkpt>
      <trkpt lat="44.78075" lon="6.11775">
        <ele>2006.87</ele>
        <time>2019-09-19T09:17:20Z</time>
      </trkpt>
      <trkpt lat="44.78085" lon="6.1177">
        <ele>2008.89</ele>
        <time>2019-09-19T09:17:40Z</time>
      </trkpt>
      <trkpt lat="44.78096" lon="6.11768">
        <ele>2011.05</ele>
        <time>2019-09-19T09:17:58Z</time>
      </trkpt>
      <trkpt lat="44.78105" lon="6.11766">
        <ele>2013.29</ele>
        <time>2019-09-19T09:18:17Z</time>
      </trkpt>
      <trkpt lat="44.78113" lon="6.11767">
        <ele>2016.34</ele>
        <time>2019-09-19T09:18:36Z</time>
      </trkpt>
      <trkpt lat="44.78116" lon="6.11766">
        <ele>2018.38</ele>
        <time>2019-09-19T09:18:56Z</time>
      </trkpt>
      <trkpt lat="44.78121" lon="6.1176">
        <ele>2020.64</ele>
        <time>2019-09-19T09:19:19Z</time>
      </trkpt>
      <trkpt lat="44.78127" lon="6.11759">
        <ele>2021.01</ele>
        <time>2019-09-19T09:19:43Z</time>
      </trkpt>
      <trkpt lat="44.78132" lon="6.11756">
        <ele>2021.37</ele>
        <time>2019-09-19T09:20:10Z</time>
      </trkpt>
      <trkpt lat="44.78127" lon="6.11758">
        <ele>2021.24</ele>
        <time>2019-09-19T09:20:37Z</time>
      </trkpt>
      <trkpt lat="44.78126" lon="6.11758">
        <ele>2021.44</ele>
        <time>2019-09-19T09:21:05Z</time>
      </trkpt>
      <trkpt lat="44.7813" lon="6.11757">
        <ele>2021.51</ele>
        <time>2019-09-19T09:21:33Z</time>
      </trkpt>
      <trkpt lat="44.7813" lon="6.11758">
        <ele>2021.57</ele>
        <time>2019-09-19T09:21:43Z</time>
      </trkpt>
      <trkpt lat="44.78127" lon="6.1176">
        <ele>2021.97</ele>
        <time>2019-09-19T09:22:07Z</time>
      </trkpt>
      <trkpt lat="44.78128" lon="6.11757">
        <ele>2022.32</ele>
        <time>2019-09-19T09:22:39Z</time>
      </trkpt>
      <trkpt lat="44.78128" lon="6.11758">
        <ele>2022.48</ele>
        <time>2019-09-19T09:23:05Z</time>
      </trkpt>
      <trkpt lat="44.78134" lon="6.11757">
        <ele>2022.13</ele>
        <time>2019-09-19T09:23:36Z</time>
      </trkpt>
      <trkpt lat="44.78136" lon="6.11759">
        <ele>2023.85</ele>
        <time>2019-09-19T09:23:59Z</time>
      </trkpt>
      <trkpt lat="44.78143" lon="6.11761">
        <ele>2026.87</ele>
        <time>2019-09-19T09:24:22Z</time>
      </trkpt>
      <trkpt lat="44.78148" lon="6.11759">
        <ele>2029.92</ele>
        <time>2019-09-19T09:24:38Z</time>
      </trkpt>
      <trkpt lat="44.78155" lon="6.11759">
        <ele>2032.6</ele>
        <time>2019-09-19T09:24:56Z</time>
      </trkpt>
      <trkpt lat="44.7816" lon="6.11756">
        <ele>2034.69</ele>
        <time>2019-09-19T09:25:15Z</time>
      </trkpt>
      <trkpt lat="44.78169" lon="6.11752">
        <ele>2037.57</ele>
        <time>2019-09-19T09:25:35Z</time>
      </trkpt>
      <trkpt lat="44.78175" lon="6.11746">
        <ele>2040.73</ele>
        <time>2019-09-19T09:25:53Z</time>
      </trkpt>
      <trkpt lat="44.78176" lon="6.11743">
        <ele>2041.73</ele>
        <time>2019-09-19T09:26:11Z</time>
      </trkpt>
      <trkpt lat="44.78185" lon="6.11739">
        <ele>2044.91</ele>
        <time>2019-09-19T09:26:31Z</time>
      </trkpt>
      <trkpt lat="44.78188" lon="6.11736">
        <ele>2046.63</ele>
        <time>2019-09-19T09:26:49Z</time>
      </trkpt>
      <trkpt lat="44.78197" lon="6.11734">
        <ele>2048.62</ele>
        <time>2019-09-19T09:27:09Z</time>
      </trkpt>
      <trkpt lat="44.78202" lon="6.11729">
        <ele>2051.66</ele>
        <time>2019-09-19T09:27:29Z</time>
      </trkpt>
      <trkpt lat="44.7821" lon="6.11727">
        <ele>2054.36</ele>
        <time>2019-09-19T09:27:47Z</time>
      </trkpt>
      <trkpt lat="44.78215" lon="6.11723">
        <ele>2057.22</ele>
        <time>2019-09-19T09:28:05Z</time>
      </trkpt>
      <trkpt lat="44.78219" lon="6.11719">
        <ele>2060.27</ele>
        <time>2019-09-19T09:28:21Z</time>
      </trkpt>
      <trkpt lat="44.78222" lon="6.11715">
        <ele>2062.68</ele>
        <time>2019-09-19T09:28:38Z</time>
      </trkpt>
      <trkpt lat="44.78228" lon="6.11714">
        <ele>2065.64</ele>
        <time>2019-09-19T09:28:56Z</time>
      </trkpt>
      <trkpt lat="44.78232" lon="6.11713">
        <ele>2068.71</ele>
        <time>2019-09-19T09:29:15Z</time>
      </trkpt>
      <trkpt lat="44.78239" lon="6.11713">
        <ele>2071.4</ele>
        <time>2019-09-19T09:29:34Z</time>
      </trkpt>
      <trkpt lat="44.78246" lon="6.11706">
        <ele>2073.41</ele>
        <time>2019-09-19T09:29:55Z</time>
      </trkpt>
      <trkpt lat="44.78245" lon="6.11696">
        <ele>2075.72</ele>
        <time>2019-09-19T09:30:13Z</time>
      </trkpt>
      <trkpt lat="44.78248" lon="6.11688">
        <ele>2078.73</ele>
        <time>2019-09-19T09:30:31Z</time>
      </trkpt>
      <trkpt lat="44.78255" lon="6.11688">
        <ele>2081.75</ele>
        <time>2019-09-19T09:30:47Z</time>
      </trkpt>
      <trkpt lat="44.7826" lon="6.11685">
        <ele>2084.85</ele>
        <time>2019-09-19T09:31:07Z</time>
      </trkpt>
      <trkpt lat="44.78263" lon="6.11678">
        <ele>2087.33</ele>
        <time>2019-09-19T09:31:25Z</time>
      </trkpt>
      <trkpt lat="44.78267" lon="6.11671">
        <ele>2089.84</ele>
        <time>2019-09-19T09:31:47Z</time>
      </trkpt>
      <trkpt lat="44.78272" lon="6.11663">
        <ele>2092.87</ele>
        <time>2019-09-19T09:32:08Z</time>
      </trkpt>
      <trkpt lat="44.78276" lon="6.11657">
        <ele>2096.12</ele>
        <time>2019-09-19T09:32:26Z</time>
      </trkpt>
      <trkpt lat="44.7828" lon="6.11648">
        <ele>2099</ele>
        <time>2019-09-19T09:32:48Z</time>
      </trkpt>
      <trkpt lat="44.78287" lon="6.11638">
        <ele>2101.55</ele>
        <time>2019-09-19T09:33:09Z</time>
      </trkpt>
      <trkpt lat="44.78295" lon="6.11636">
        <ele>2104.55</ele>
        <time>2019-09-19T09:33:27Z</time>
      </trkpt>
      <trkpt lat="44.78301" lon="6.1163">
        <ele>2107.72</ele>
        <time>2019-09-19T09:33:48Z</time>
      </trkpt>
      <trkpt lat="44.78305" lon="6.11627">
        <ele>2110.74</ele>
        <time>2019-09-19T09:34:05Z</time>
      </trkpt>
      <trkpt lat="44.7831" lon="6.1163">
        <ele>2113.28</ele>
        <time>2019-09-19T09:34:25Z</time>
      </trkpt>
      <trkpt lat="44.78316" lon="6.11637">
        <ele>2116.12</ele>
        <time>2019-09-19T09:34:45Z</time>
      </trkpt>
      <trkpt lat="44.78317" lon="6.11639">
        <ele>2116.88</ele>
        <time>2019-09-19T09:35:12Z</time>
      </trkpt>
      <trkpt lat="44.78317" lon="6.11637">
        <ele>2116.13</ele>
        <time>2019-09-19T09:35:49Z</time>
      </trkpt>
      <trkpt lat="44.78316" lon="6.1164">
        <ele>2116.14</ele>
        <time>2019-09-19T09:36:15Z</time>
      </trkpt>
      <trkpt lat="44.78315" lon="6.1164">
        <ele>2116.46</ele>
        <time>2019-09-19T09:36:46Z</time>
      </trkpt>
      <trkpt lat="44.78315" lon="6.1164">
        <ele>2116.61</ele>
        <time>2019-09-19T09:37:18Z</time>
      </trkpt>
      <trkpt lat="44.78316" lon="6.11638">
        <ele>2116.99</ele>
        <time>2019-09-19T09:37:42Z</time>
      </trkpt>
      <trkpt lat="44.78314" lon="6.11638">
        <ele>2117.05</ele>
        <time>2019-09-19T09:38:12Z</time>
      </trkpt>
      <trkpt lat="44.78316" lon="6.11638">
        <ele>2117.17</ele>
        <time>2019-09-19T09:38:39Z</time>
      </trkpt>
      <trkpt lat="44.78316" lon="6.1164">
        <ele>2117.65</ele>
        <time>2019-09-19T09:39:07Z</time>
      </trkpt>
      <trkpt lat="44.78317" lon="6.11641">
        <ele>2117.79</ele>
        <time>2019-09-19T09:39:33Z</time>
      </trkpt>
      <trkpt lat="44.78317" lon="6.1164">
        <ele>2117.79</ele>
        <time>2019-09-19T09:39:58Z</time>
      </trkpt>
      <trkpt lat="44.78317" lon="6.11637">
        <ele>2117.89</ele>
        <time>2019-09-19T09:40:25Z</time>
      </trkpt>
      <trkpt lat="44.78316" lon="6.11636">
        <ele>2117.78</ele>
        <time>2019-09-19T09:40:48Z</time>
      </trkpt>
      <trkpt lat="44.78318" lon="6.11638">
        <ele>2118.05</ele>
        <time>2019-09-19T09:41:25Z</time>
      </trkpt>
      <trkpt lat="44.78326" lon="6.11634">
        <ele>2119.88</ele>
        <time>2019-09-19T09:41:44Z</time>
      </trkpt>
      <trkpt lat="44.7833" lon="6.11629">
        <ele>2121.67</ele>
        <time>2019-09-19T09:41:58Z</time>
      </trkpt>
      <trkpt lat="44.7834" lon="6.11632">
        <ele>2124.81</ele>
        <time>2019-09-19T09:42:14Z</time>
      </trkpt>
      <trkpt lat="44.78346" lon="6.11627">
        <ele>2127.12</ele>
        <time>2019-09-19T09:42:31Z</time>
      </trkpt>
      <trkpt lat="44.78352" lon="6.11622">
        <ele>2130.27</ele>
        <time>2019-09-19T09:42:49Z</time>
      </trkpt>
      <trkpt lat="44.78358" lon="6.11623">
        <ele>2132.36</ele>
        <time>2019-09-19T09:43:06Z</time>
      </trkpt>
      <trkpt lat="44.78364" lon="6.11624">
        <ele>2133.99</ele>
        <time>2019-09-19T09:43:19Z</time>
      </trkpt>
      <trkpt lat="44.7837" lon="6.11622">
        <ele>2136.98</ele>
        <time>2019-09-19T09:43:37Z</time>
      </trkpt>
      <trkpt lat="44.78376" lon="6.1162">
        <ele>2139.08</ele>
        <time>2019-09-19T09:43:52Z</time>
      </trkpt>
      <trkpt lat="44.78382" lon="6.11619">
        <ele>2141.37</ele>
        <time>2019-09-19T09:44:05Z</time>
      </trkpt>
      <trkpt lat="44.78388" lon="6.11618">
        <ele>2143.68</ele>
        <time>2019-09-19T09:44:21Z</time>
      </trkpt>
      <trkpt lat="44.78396" lon="6.1162">
        <ele>2146.44</ele>
        <time>2019-09-19T09:44:39Z</time>
      </trkpt>
      <trkpt lat="44.78398" lon="6.11619">
        <ele>2148.62</ele>
        <time>2019-09-19T09:44:53Z</time>
      </trkpt>
      <trkpt lat="44.784" lon="6.11615">
        <ele>2151.21</ele>
        <time>2019-09-19T09:45:06Z</time>
      </trkpt>
      <trkpt lat="44.78404" lon="6.1161">
        <ele>2154.36</ele>
        <time>2019-09-19T09:45:18Z</time>
      </trkpt>
      <trkpt lat="44.78408" lon="6.116">
        <ele>2155.73</ele>
        <time>2019-09-19T09:45:34Z</time>
      </trkpt>
      <trkpt lat="44.7842" lon="6.1159">
        <ele>2153.96</ele>
        <time>2019-09-19T09:45:51Z</time>
      </trkpt>
      <trkpt lat="44.78429" lon="6.11576">
        <ele>2152.74</ele>
        <time>2019-09-19T09:46:09Z</time>
      </trkpt>
      <trkpt lat="44.78429" lon="6.11568">
        <ele>2153.35</ele>
        <time>2019-09-19T09:46:24Z</time>
      </trkpt>
      <trkpt lat="44.78429" lon="6.11567">
        <ele>2153.37</ele>
        <time>2019-09-19T09:46:44Z</time>
      </trkpt>
      <trkpt lat="44.78431" lon="6.11566">
        <ele>2153.95</ele>
        <time>2019-09-19T09:47:09Z</time>
      </trkpt>
      <trkpt lat="44.78432" lon="6.11566">
        <ele>2154.67</ele>
        <time>2019-09-19T09:47:28Z</time>
      </trkpt>
      <trkpt lat="44.78432" lon="6.11566">
        <ele>2155.14</ele>
        <time>2019-09-19T09:47:52Z</time>
      </trkpt>
      <trkpt lat="44.78432" lon="6.11565">
        <ele>2155.32</ele>
        <time>2019-09-19T09:48:17Z</time>
      </trkpt>
      <trkpt lat="44.78432" lon="6.11567">
        <ele>2154.59</ele>
        <time>2019-09-19T09:48:44Z</time>
      </trkpt>
      <trkpt lat="44.78433" lon="6.11566">
        <ele>2155</ele>
        <time>2019-09-19T09:49:04Z</time>
      </trkpt>
      <trkpt lat="44.78433" lon="6.11565">
        <ele>2153.91</ele>
        <time>2019-09-19T09:49:30Z</time>
      </trkpt>
      <trkpt lat="44.78434" lon="6.11565">
        <ele>2154.42</ele>
        <time>2019-09-19T09:49:51Z</time>
      </trkpt>
      <trkpt lat="44.78433" lon="6.11564">
        <ele>2154.66</ele>
        <time>2019-09-19T09:50:14Z</time>
      </trkpt>
      <trkpt lat="44.78439" lon="6.11564">
        <ele>2155.3</ele>
        <time>2019-09-19T09:50:30Z</time>
      </trkpt>
      <trkpt lat="44.78443" lon="6.11565">
        <ele>2155.99</ele>
        <time>2019-09-19T09:50:45Z</time>
      </trkpt>
      <trkpt lat="44.78444" lon="6.1156">
        <ele>2156.64</ele>
        <time>2019-09-19T09:50:58Z</time>
      </trkpt>
      <trkpt lat="44.78446" lon="6.11557">
        <ele>2158.56</ele>
        <time>2019-09-19T09:51:13Z</time>
      </trkpt>
      <trkpt lat="44.78446" lon="6.11557">
        <ele>2158.62</ele>
        <time>2019-09-19T09:51:33Z</time>
      </trkpt>
      <trkpt lat="44.78445" lon="6.11557">
        <ele>2158.64</ele>
        <time>2019-09-19T09:51:50Z</time>
      </trkpt>
      <trkpt lat="44.78443" lon="6.11555">
        <ele>2158.9</ele>
        <time>2019-09-19T09:52:06Z</time>
      </trkpt>
      <trkpt lat="44.78439" lon="6.11548">
        <ele>2159.35</ele>
        <time>2019-09-19T09:52:19Z</time>
      </trkpt>
      <trkpt lat="44.78438" lon="6.11537">
        <ele>2159.83</ele>
        <time>2019-09-19T09:52:33Z</time>
      </trkpt>
      <trkpt lat="44.78433" lon="6.11524">
        <ele>2161.56</ele>
        <time>2019-09-19T09:52:49Z</time>
      </trkpt>
      <trkpt lat="44.78435" lon="6.11517">
        <ele>2162.63</ele>
        <time>2019-09-19T09:53:03Z</time>
      </trkpt>
      <trkpt lat="44.78434" lon="6.11504">
        <ele>2164.37</ele>
        <time>2019-09-19T09:53:17Z</time>
      </trkpt>
      <trkpt lat="44.78432" lon="6.11495">
        <ele>2167.28</ele>
        <time>2019-09-19T09:53:31Z</time>
      </trkpt>
      <trkpt lat="44.78432" lon="6.11486">
        <ele>2169.26</ele>
        <time>2019-09-19T09:53:52Z</time>
      </trkpt>
      <trkpt lat="44.78433" lon="6.11477">
        <ele>2170.52</ele>
        <time>2019-09-19T09:54:00Z</time>
      </trkpt>
      <trkpt lat="44.78436" lon="6.11456">
        <ele>2171.69</ele>
        <time>2019-09-19T09:54:19Z</time>
      </trkpt>
      <trkpt lat="44.78437" lon="6.11453">
        <ele>2172.04</ele>
        <time>2019-09-19T09:54:37Z</time>
      </trkpt>
      <trkpt lat="44.78439" lon="6.11446">
        <ele>2172.93</ele>
        <time>2019-09-19T09:54:55Z</time>
      </trkpt>
      <trkpt lat="44.78442" lon="6.1144">
        <ele>2175.96</ele>
        <time>2019-09-19T09:55:10Z</time>
      </trkpt>
      <trkpt lat="44.78445" lon="6.11431">
        <ele>2179.02</ele>
        <time>2019-09-19T09:55:26Z</time>
      </trkpt>
      <trkpt lat="44.78446" lon="6.11423">
        <ele>2181.99</ele>
        <time>2019-09-19T09:55:42Z</time>
      </trkpt>
      <trkpt lat="44.78448" lon="6.11419">
        <ele>2184.36</ele>
        <time>2019-09-19T09:55:57Z</time>
      </trkpt>
      <trkpt lat="44.78445" lon="6.11411">
        <ele>2186.94</ele>
        <time>2019-09-19T09:56:13Z</time>
      </trkpt>
      <trkpt lat="44.78448" lon="6.11404">
        <ele>2188.91</ele>
        <time>2019-09-19T09:56:30Z</time>
      </trkpt>
      <trkpt lat="44.78446" lon="6.11397">
        <ele>2191.04</ele>
        <time>2019-09-19T09:56:45Z</time>
      </trkpt>
      <trkpt lat="44.78441" lon="6.11389">
        <ele>2194.22</ele>
        <time>2019-09-19T09:57:02Z</time>
      </trkpt>
      <trkpt lat="44.78441" lon="6.11382">
        <ele>2196.78</ele>
        <time>2019-09-19T09:57:16Z</time>
      </trkpt>
      <trkpt lat="44.78442" lon="6.11374">
        <ele>2199.02</ele>
        <time>2019-09-19T09:57:31Z</time>
      </trkpt>
      <trkpt lat="44.78442" lon="6.11366">
        <ele>2201.09</ele>
        <time>2019-09-19T09:57:44Z</time>
      </trkpt>
      <trkpt lat="44.78437" lon="6.11355">
        <ele>2202.57</ele>
        <time>2019-09-19T09:58:01Z</time>
      </trkpt>
      <trkpt lat="44.78435" lon="6.1135">
        <ele>2203.41</ele>
        <time>2019-09-19T09:58:14Z</time>
      </trkpt>
      <trkpt lat="44.78436" lon="6.1134">
        <ele>2205.15</ele>
        <time>2019-09-19T09:58:30Z</time>
      </trkpt>
      <trkpt lat="44.78437" lon="6.11331">
        <ele>2207.89</ele>
        <time>2019-09-19T09:58:47Z</time>
      </trkpt>
      <trkpt lat="44.78436" lon="6.11325">
        <ele>2209.99</ele>
        <time>2019-09-19T09:59:01Z</time>
      </trkpt>
      <trkpt lat="44.78437" lon="6.11319">
        <ele>2211.61</ele>
        <time>2019-09-19T09:59:14Z</time>
      </trkpt>
      <trkpt lat="44.78433" lon="6.11311">
        <ele>2214.06</ele>
        <time>2019-09-19T09:59:30Z</time>
      </trkpt>
      <trkpt lat="44.78437" lon="6.11305">
        <ele>2215.61</ele>
        <time>2019-09-19T09:59:43Z</time>
      </trkpt>
      <trkpt lat="44.78442" lon="6.11297">
        <ele>2218.3</ele>
        <time>2019-09-19T10:00:02Z</time>
      </trkpt>
      <trkpt lat="44.78442" lon="6.11291">
        <ele>2221.33</ele>
        <time>2019-09-19T10:00:17Z</time>
      </trkpt>
      <trkpt lat="44.78444" lon="6.11285">
        <ele>2223.86</ele>
        <time>2019-09-19T10:00:33Z</time>
      </trkpt>
      <trkpt lat="44.78446" lon="6.11282">
        <ele>2226.12</ele>
        <time>2019-09-19T10:00:48Z</time>
      </trkpt>
      <trkpt lat="44.78445" lon="6.11277">
        <ele>2228.02</ele>
        <time>2019-09-19T10:01:04Z</time>
      </trkpt>
      <trkpt lat="44.78446" lon="6.11271">
        <ele>2230.46</ele>
        <time>2019-09-19T10:01:18Z</time>
      </trkpt>
      <trkpt lat="44.78447" lon="6.11267">
        <ele>2232.74</ele>
        <time>2019-09-19T10:01:33Z</time>
      </trkpt>
      <trkpt lat="44.78454" lon="6.11264">
        <ele>2234.39</ele>
        <time>2019-09-19T10:01:48Z</time>
      </trkpt>
      <trkpt lat="44.78454" lon="6.11261">
        <ele>2236.99</ele>
        <time>2019-09-19T10:02:04Z</time>
      </trkpt>
      <trkpt lat="44.78454" lon="6.11258">
        <ele>2238.54</ele>
        <time>2019-09-19T10:02:20Z</time>
      </trkpt>
      <trkpt lat="44.78453" lon="6.11253">
        <ele>2240.23</ele>
        <time>2019-09-19T10:02:34Z</time>
      </trkpt>
      <trkpt lat="44.78455" lon="6.11252">
        <ele>2241.12</ele>
        <time>2019-09-19T10:02:55Z</time>
      </trkpt>
      <trkpt lat="44.78455" lon="6.11253">
        <ele>2241.7</ele>
        <time>2019-09-19T10:03:18Z</time>
      </trkpt>
      <trkpt lat="44.78456" lon="6.11252">
        <ele>2241.73</ele>
        <time>2019-09-19T10:03:41Z</time>
      </trkpt>
      <trkpt lat="44.78456" lon="6.11252">
        <ele>2241.65</ele>
        <time>2019-09-19T10:04:09Z</time>
      </trkpt>
      <trkpt lat="44.78456" lon="6.11252">
        <ele>2241.79</ele>
        <time>2019-09-19T10:04:28Z</time>
      </trkpt>
      <trkpt lat="44.78456" lon="6.11252">
        <ele>2241.95</ele>
        <time>2019-09-19T10:04:49Z</time>
      </trkpt>
      <trkpt lat="44.7846" lon="6.11254">
        <ele>2241.43</ele>
        <time>2019-09-19T10:05:12Z</time>
      </trkpt>
      <trkpt lat="44.78462" lon="6.11253">
        <ele>2242.66</ele>
        <time>2019-09-19T10:05:26Z</time>
      </trkpt>
      <trkpt lat="44.78462" lon="6.11254">
        <ele>2243.53</ele>
        <time>2019-09-19T10:05:44Z</time>
      </trkpt>
      <trkpt lat="44.78462" lon="6.11254">
        <ele>2243.71</ele>
        <time>2019-09-19T10:06:08Z</time>
      </trkpt>
      <trkpt lat="44.78463" lon="6.11253">
        <ele>2244.42</ele>
        <time>2019-09-19T10:06:33Z</time>
      </trkpt>
      <trkpt lat="44.78463" lon="6.11253">
        <ele>2244.67</ele>
        <time>2019-09-19T10:06:57Z</time>
      </trkpt>
      <trkpt lat="44.78464" lon="6.11253">
        <ele>2244.1</ele>
        <time>2019-09-19T10:07:31Z</time>
      </trkpt>
      <trkpt lat="44.78462" lon="6.11254">
        <ele>2243.76</ele>
        <time>2019-09-19T10:07:54Z</time>
      </trkpt>
      <trkpt lat="44.78462" lon="6.11254">
        <ele>2243.42</ele>
        <time>2019-09-19T10:08:18Z</time>
      </trkpt>
      <trkpt lat="44.78462" lon="6.11254">
        <ele>2243.56</ele>
        <time>2019-09-19T10:08:41Z</time>
      </trkpt>
      <trkpt lat="44.78459" lon="6.11254">
        <ele>2242.53</ele>
        <time>2019-09-19T10:08:56Z</time>
      </trkpt>
      <trkpt lat="44.78458" lon="6.11254">
        <ele>2241.81</ele>
        <time>2019-09-19T10:09:27Z</time>
      </trkpt>
      <trkpt lat="44.78459" lon="6.11253">
        <ele>2242.96</ele>
        <time>2019-09-19T10:09:50Z</time>
      </trkpt>
      <trkpt lat="44.78456" lon="6.11252">
        <ele>2242.32</ele>
        <time>2019-09-19T10:10:03Z</time>
      </trkpt>
      <trkpt lat="44.78455" lon="6.11253">
        <ele>2242.19</ele>
        <time>2019-09-19T10:10:26Z</time>
      </trkpt>
      <trkpt lat="44.78455" lon="6.11253">
        <ele>2242.49</ele>
        <time>2019-09-19T10:10:51Z</time>
      </trkpt>
      <trkpt lat="44.78456" lon="6.11253">
        <ele>2242.46</ele>
        <time>2019-09-19T10:11:20Z</time>
      </trkpt>
      <trkpt lat="44.78454" lon="6.11252">
        <ele>2242.37</ele>
        <time>2019-09-19T10:11:43Z</time>
      </trkpt>
      <trkpt lat="44.78451" lon="6.11255">
        <ele>2241.8</ele>
        <time>2019-09-19T10:12:00Z</time>
      </trkpt>
      <trkpt lat="44.78447" lon="6.11258">
        <ele>2240.38</ele>
        <time>2019-09-19T10:12:14Z</time>
      </trkpt>
      <trkpt lat="44.78442" lon="6.11262">
        <ele>2237.75</ele>
        <time>2019-09-19T10:12:30Z</time>
      </trkpt>
      <trkpt lat="44.78445" lon="6.11268">
        <ele>2235.28</ele>
        <time>2019-09-19T10:12:46Z</time>
      </trkpt>
      <trkpt lat="44.78442" lon="6.11271">
        <ele>2233.22</ele>
        <time>2019-09-19T10:12:59Z</time>
      </trkpt>
      <trkpt lat="44.78441" lon="6.11277">
        <ele>2231.67</ele>
        <time>2019-09-19T10:13:15Z</time>
      </trkpt>
      <trkpt lat="44.78443" lon="6.11282">
        <ele>2229.55</ele>
        <time>2019-09-19T10:13:26Z</time>
      </trkpt>
      <trkpt lat="44.78444" lon="6.11287">
        <ele>2226.67</ele>
        <time>2019-09-19T10:13:40Z</time>
      </trkpt>
      <trkpt lat="44.78445" lon="6.11295">
        <ele>2223.85</ele>
        <time>2019-09-19T10:13:57Z</time>
      </trkpt>
      <trkpt lat="44.78438" lon="6.11303">
        <ele>2220.9</ele>
        <time>2019-09-19T10:14:12Z</time>
      </trkpt>
      <trkpt lat="44.78436" lon="6.11311">
        <ele>2218.26</ele>
        <time>2019-09-19T10:14:26Z</time>
      </trkpt>
      <trkpt lat="44.78435" lon="6.1132">
        <ele>2215.92</ele>
        <time>2019-09-19T10:14:40Z</time>
      </trkpt>
      <trkpt lat="44.78437" lon="6.11327">
        <ele>2213.38</ele>
        <time>2019-09-19T10:14:56Z</time>
      </trkpt>
      <trkpt lat="44.78436" lon="6.11337">
        <ele>2210.7</ele>
        <time>2019-09-19T10:15:12Z</time>
      </trkpt>
      <trkpt lat="44.78435" lon="6.1135">
        <ele>2207.58</ele>
        <time>2019-09-19T10:15:27Z</time>
      </trkpt>
      <trkpt lat="44.78443" lon="6.11364">
        <ele>2205.7</ele>
        <time>2019-09-19T10:15:42Z</time>
      </trkpt>
      <trkpt lat="44.78446" lon="6.11375">
        <ele>2204.24</ele>
        <time>2019-09-19T10:15:57Z</time>
      </trkpt>
      <trkpt lat="44.78441" lon="6.11382">
        <ele>2201.25</ele>
        <time>2019-09-19T10:16:15Z</time>
      </trkpt>
      <trkpt lat="44.78438" lon="6.11388">
        <ele>2198.96</ele>
        <time>2019-09-19T10:16:28Z</time>
      </trkpt>
      <trkpt lat="44.78433" lon="6.11394">
        <ele>2196.42</ele>
        <time>2019-09-19T10:16:42Z</time>
      </trkpt>
      <trkpt lat="44.78433" lon="6.114">
        <ele>2193.32</ele>
        <time>2019-09-19T10:16:55Z</time>
      </trkpt>
      <trkpt lat="44.78436" lon="6.11406">
        <ele>2190.7</ele>
        <time>2019-09-19T10:17:08Z</time>
      </trkpt>
      <trkpt lat="44.78435" lon="6.11413">
        <ele>2188.82</ele>
        <time>2019-09-19T10:17:21Z</time>
      </trkpt>
      <trkpt lat="44.78437" lon="6.11423">
        <ele>2185.66</ele>
        <time>2019-09-19T10:17:41Z</time>
      </trkpt>
      <trkpt lat="44.78439" lon="6.11434">
        <ele>2182.66</ele>
        <time>2019-09-19T10:17:58Z</time>
      </trkpt>
      <trkpt lat="44.78439" lon="6.11444">
        <ele>2179.55</ele>
        <time>2019-09-19T10:18:12Z</time>
      </trkpt>
      <trkpt lat="44.78438" lon="6.11456">
        <ele>2177.05</ele>
        <time>2019-09-19T10:18:25Z</time>
      </trkpt>
      <trkpt lat="44.78436" lon="6.11463">
        <ele>2175.88</ele>
        <time>2019-09-19T10:18:32Z</time>
      </trkpt>
      <trkpt lat="44.78434" lon="6.11475">
        <ele>2175.64</ele>
        <time>2019-09-19T10:18:42Z</time>
      </trkpt>
      <trkpt lat="44.7843" lon="6.11492">
        <ele>2174.21</ele>
        <time>2019-09-19T10:18:59Z</time>
      </trkpt>
      <trkpt lat="44.78435" lon="6.11503">
        <ele>2171.8</ele>
        <time>2019-09-19T10:19:14Z</time>
      </trkpt>
      <trkpt lat="44.78435" lon="6.11518">
        <ele>2168.87</ele>
        <time>2019-09-19T10:19:30Z</time>
      </trkpt>
      <trkpt lat="44.78435" lon="6.1153">
        <ele>2167.01</ele>
        <time>2019-09-19T10:19:44Z</time>
      </trkpt>
      <trkpt lat="44.78437" lon="6.11545">
        <ele>2165.35</ele>
        <time>2019-09-19T10:19:58Z</time>
      </trkpt>
      <trkpt lat="44.78435" lon="6.11558">
        <ele>2162.34</ele>
        <time>2019-09-19T10:20:12Z</time>
      </trkpt>
      <trkpt lat="44.78432" lon="6.11569">
        <ele>2160.48</ele>
        <time>2019-09-19T10:20:30Z</time>
      </trkpt>
      <trkpt lat="44.78431" lon="6.11569">
        <ele>2158.69</ele>
        <time>2019-09-19T10:20:42Z</time>
      </trkpt>
      <trkpt lat="44.7843" lon="6.11572">
        <ele>2158.52</ele>
        <time>2019-09-19T10:21:58Z</time>
      </trkpt>
      <trkpt lat="44.7843" lon="6.1157">
        <ele>2158.7</ele>
        <time>2019-09-19T10:22:48Z</time>
      </trkpt>
      <trkpt lat="44.78431" lon="6.11563">
        <ele>2159.13</ele>
        <time>2019-09-19T10:23:06Z</time>
      </trkpt>
      <trkpt lat="44.7843" lon="6.11559">
        <ele>2158.99</ele>
        <time>2019-09-19T10:23:21Z</time>
      </trkpt>
      <trkpt lat="44.7843" lon="6.11558">
        <ele>2159.43</ele>
        <time>2019-09-19T10:23:52Z</time>
      </trkpt>
      <trkpt lat="44.78429" lon="6.11557">
        <ele>2159.53</ele>
        <time>2019-09-19T10:24:20Z</time>
      </trkpt>
      <trkpt lat="44.7843" lon="6.11557">
        <ele>2159.82</ele>
        <time>2019-09-19T10:24:45Z</time>
      </trkpt>
      <trkpt lat="44.7843" lon="6.11558">
        <ele>2159.61</ele>
        <time>2019-09-19T10:25:11Z</time>
      </trkpt>
      <trkpt lat="44.7843" lon="6.11559">
        <ele>2159.24</ele>
        <time>2019-09-19T10:25:56Z</time>
      </trkpt>
      <trkpt lat="44.78431" lon="6.11559">
        <ele>2159.85</ele>
        <time>2019-09-19T10:27:42Z</time>
      </trkpt>
      <trkpt lat="44.78431" lon="6.11558">
        <ele>2158.72</ele>
        <time>2019-09-19T10:30:05Z</time>
      </trkpt>
      <trkpt lat="44.78431" lon="6.1156">
        <ele>2159.54</ele>
        <time>2019-09-19T10:31:28Z</time>
      </trkpt>
      <trkpt lat="44.78431" lon="6.1156">
        <ele>2159.45</ele>
        <time>2019-09-19T10:31:58Z</time>
      </trkpt>
      <trkpt lat="44.7843" lon="6.11559">
        <ele>2159.71</ele>
        <time>2019-09-19T10:32:30Z</time>
      </trkpt>
      <trkpt lat="44.7843" lon="6.1156">
        <ele>2160.12</ele>
        <time>2019-09-19T10:33:11Z</time>
      </trkpt>
      <trkpt lat="44.78431" lon="6.11561">
        <ele>2159.7</ele>
        <time>2019-09-19T10:33:41Z</time>
      </trkpt>
      <trkpt lat="44.78431" lon="6.1156">
        <ele>2159.72</ele>
        <time>2019-09-19T10:34:28Z</time>
      </trkpt>
      <trkpt lat="44.78431" lon="6.1156">
        <ele>2159.49</ele>
        <time>2019-09-19T10:35:02Z</time>
      </trkpt>
      <trkpt lat="44.78431" lon="6.11561">
        <ele>2159.68</ele>
        <time>2019-09-19T10:35:41Z</time>
      </trkpt>
      <trkpt lat="44.7843" lon="6.11561">
        <ele>2159.7</ele>
        <time>2019-09-19T10:36:20Z</time>
      </trkpt>
      <trkpt lat="44.78432" lon="6.11561">
        <ele>2159.78</ele>
        <time>2019-09-19T10:37:05Z</time>
      </trkpt>
      <trkpt lat="44.78431" lon="6.11561">
        <ele>2159.97</ele>
        <time>2019-09-19T10:38:09Z</time>
      </trkpt>
      <trkpt lat="44.78431" lon="6.11561">
        <ele>2160.26</ele>
        <time>2019-09-19T10:39:19Z</time>
      </trkpt>
      <trkpt lat="44.7843" lon="6.11562">
        <ele>2160.4</ele>
        <time>2019-09-19T10:40:29Z</time>
      </trkpt>
      <trkpt lat="44.78431" lon="6.11562">
        <ele>2160.12</ele>
        <time>2019-09-19T10:41:41Z</time>
      </trkpt>
      <trkpt lat="44.78431" lon="6.11561">
        <ele>2160.41</ele>
        <time>2019-09-19T10:42:49Z</time>
      </trkpt>
      <trkpt lat="44.7843" lon="6.11561">
        <ele>2160.51</ele>
        <time>2019-09-19T10:43:44Z</time>
      </trkpt>
      <trkpt lat="44.7843" lon="6.1156">
        <ele>2160.82</ele>
        <time>2019-09-19T10:44:18Z</time>
      </trkpt>
      <trkpt lat="44.78431" lon="6.11561">
        <ele>2160.46</ele>
        <time>2019-09-19T10:45:05Z</time>
      </trkpt>
      <trkpt lat="44.78431" lon="6.11562">
        <ele>2160.82</ele>
        <time>2019-09-19T10:46:10Z</time>
      </trkpt>
      <trkpt lat="44.7843" lon="6.11562">
        <ele>2161.06</ele>
        <time>2019-09-19T10:46:56Z</time>
      </trkpt>
      <trkpt lat="44.78431" lon="6.11563">
        <ele>2160.7</ele>
        <time>2019-09-19T10:48:03Z</time>
      </trkpt>
      <trkpt lat="44.78431" lon="6.11562">
        <ele>2160.59</ele>
        <time>2019-09-19T10:48:33Z</time>
      </trkpt>
      <trkpt lat="44.78431" lon="6.11561">
        <ele>2160.75</ele>
        <time>2019-09-19T10:49:09Z</time>
      </trkpt>
      <trkpt lat="44.78431" lon="6.11561">
        <ele>2160.73</ele>
        <time>2019-09-19T10:49:45Z</time>
      </trkpt>
      <trkpt lat="44.78432" lon="6.11562">
        <ele>2160.59</ele>
        <time>2019-09-19T10:50:48Z</time>
      </trkpt>
      <trkpt lat="44.78431" lon="6.11562">
        <ele>2161.01</ele>
        <time>2019-09-19T10:51:41Z</time>
      </trkpt>
      <trkpt lat="44.78432" lon="6.11562">
        <ele>2160.77</ele>
        <time>2019-09-19T10:52:40Z</time>
      </trkpt>
      <trkpt lat="44.78431" lon="6.11562">
        <ele>2160.71</ele>
        <time>2019-09-19T10:54:14Z</time>
      </trkpt>
      <trkpt lat="44.78431" lon="6.11562">
        <ele>2161.16</ele>
        <time>2019-09-19T10:55:10Z</time>
      </trkpt>
      <trkpt lat="44.78432" lon="6.11561">
        <ele>2161.48</ele>
        <time>2019-09-19T10:55:32Z</time>
      </trkpt>
      <trkpt lat="44.78434" lon="6.11561">
        <ele>2161.05</ele>
        <time>2019-09-19T10:56:10Z</time>
      </trkpt>
      <trkpt lat="44.78433" lon="6.11561">
        <ele>2161.38</ele>
        <time>2019-09-19T10:57:09Z</time>
      </trkpt>
      <trkpt lat="44.78433" lon="6.11562">
        <ele>2161.47</ele>
        <time>2019-09-19T10:58:35Z</time>
      </trkpt>
      <trkpt lat="44.78432" lon="6.11562">
        <ele>2161.74</ele>
        <time>2019-09-19T11:00:04Z</time>
      </trkpt>
      <trkpt lat="44.78432" lon="6.11562">
        <ele>2162.05</ele>
        <time>2019-09-19T11:01:37Z</time>
      </trkpt>
      <trkpt lat="44.78432" lon="6.11562">
        <ele>2162.08</ele>
        <time>2019-09-19T11:03:08Z</time>
      </trkpt>
      <trkpt lat="44.78432" lon="6.11562">
        <ele>2161.9</ele>
        <time>2019-09-19T11:04:15Z</time>
      </trkpt>
      <trkpt lat="44.78432" lon="6.11562">
        <ele>2162.57</ele>
        <time>2019-09-19T11:05:56Z</time>
      </trkpt>
      <trkpt lat="44.78433" lon="6.11563">
        <ele>2162.53</ele>
        <time>2019-09-19T11:07:21Z</time>
      </trkpt>
      <trkpt lat="44.78433" lon="6.11562">
        <ele>2162.96</ele>
        <time>2019-09-19T11:08:56Z</time>
      </trkpt>
      <trkpt lat="44.78433" lon="6.11561">
        <ele>2162.93</ele>
        <time>2019-09-19T11:09:27Z</time>
      </trkpt>
      <trkpt lat="44.78433" lon="6.11561">
        <ele>2162.23</ele>
        <time>2019-09-19T11:10:05Z</time>
      </trkpt>
      <trkpt lat="44.78433" lon="6.1156">
        <ele>2162.56</ele>
        <time>2019-09-19T11:11:14Z</time>
      </trkpt>
      <trkpt lat="44.78434" lon="6.1156">
        <ele>2163.05</ele>
        <time>2019-09-19T11:11:56Z</time>
      </trkpt>
      <trkpt lat="44.78432" lon="6.1156">
        <ele>2163.33</ele>
        <time>2019-09-19T11:13:17Z</time>
      </trkpt>
      <trkpt lat="44.78433" lon="6.1156">
        <ele>2163.51</ele>
        <time>2019-09-19T11:14:15Z</time>
      </trkpt>
      <trkpt lat="44.78432" lon="6.11559">
        <ele>2163.26</ele>
        <time>2019-09-19T11:15:29Z</time>
      </trkpt>
      <trkpt lat="44.78432" lon="6.11559">
        <ele>2163.11</ele>
        <time>2019-09-19T11:16:33Z</time>
      </trkpt>
      <trkpt lat="44.78433" lon="6.11559">
        <ele>2163.64</ele>
        <time>2019-09-19T11:17:28Z</time>
      </trkpt>
      <trkpt lat="44.78432" lon="6.1156">
        <ele>2163.47</ele>
        <time>2019-09-19T11:18:33Z</time>
      </trkpt>
      <trkpt lat="44.78432" lon="6.11563">
        <ele>2163.89</ele>
        <time>2019-09-19T11:19:18Z</time>
      </trkpt>
      <trkpt lat="44.78432" lon="6.11564">
        <ele>2163.67</ele>
        <time>2019-09-19T11:19:57Z</time>
      </trkpt>
      <trkpt lat="44.78432" lon="6.11563">
        <ele>2163.91</ele>
        <time>2019-09-19T11:20:15Z</time>
      </trkpt>
      <trkpt lat="44.78431" lon="6.1156">
        <ele>2164.48</ele>
        <time>2019-09-19T11:20:36Z</time>
      </trkpt>
      <trkpt lat="44.78431" lon="6.1156">
        <ele>2164.41</ele>
        <time>2019-09-19T11:20:52Z</time>
      </trkpt>
      <trkpt lat="44.78431" lon="6.11563">
        <ele>2163.55</ele>
        <time>2019-09-19T11:21:13Z</time>
      </trkpt>
      <trkpt lat="44.78431" lon="6.11563">
        <ele>2164.17</ele>
        <time>2019-09-19T11:21:50Z</time>
      </trkpt>
      <trkpt lat="44.7843" lon="6.11563">
        <ele>2164.38</ele>
        <time>2019-09-19T11:22:20Z</time>
      </trkpt>
      <trkpt lat="44.78431" lon="6.11567">
        <ele>2164.39</ele>
        <time>2019-09-19T11:22:38Z</time>
      </trkpt>
      <trkpt lat="44.78432" lon="6.11567">
        <ele>2163.47</ele>
        <time>2019-09-19T11:23:00Z</time>
      </trkpt>
      <trkpt lat="44.78433" lon="6.11567">
        <ele>2164.01</ele>
        <time>2019-09-19T11:23:22Z</time>
      </trkpt>
      <trkpt lat="44.78433" lon="6.11567">
        <ele>2164.09</ele>
        <time>2019-09-19T11:23:47Z</time>
      </trkpt>
      <trkpt lat="44.78434" lon="6.11568">
        <ele>2164.21</ele>
        <time>2019-09-19T11:24:18Z</time>
      </trkpt>
      <trkpt lat="44.78433" lon="6.11567">
        <ele>2164.4</ele>
        <time>2019-09-19T11:24:50Z</time>
      </trkpt>
      <trkpt lat="44.7843" lon="6.11566">
        <ele>2164.17</ele>
        <time>2019-09-19T11:25:11Z</time>
      </trkpt>
      <trkpt lat="44.78431" lon="6.11572">
        <ele>2163.9</ele>
        <time>2019-09-19T11:25:24Z</time>
      </trkpt>
      <trkpt lat="44.78424" lon="6.11587">
        <ele>2163.15</ele>
        <time>2019-09-19T11:25:41Z</time>
      </trkpt>
      <trkpt lat="44.78418" lon="6.11595">
        <ele>2164.06</ele>
        <time>2019-09-19T11:25:55Z</time>
      </trkpt>
      <trkpt lat="44.7841" lon="6.11607">
        <ele>2165.91</ele>
        <time>2019-09-19T11:26:09Z</time>
      </trkpt>
      <trkpt lat="44.78408" lon="6.11615">
        <ele>2165.41</ele>
        <time>2019-09-19T11:26:25Z</time>
      </trkpt>
      <trkpt lat="44.78405" lon="6.11618">
        <ele>2163.56</ele>
        <time>2019-09-19T11:26:41Z</time>
      </trkpt>
      <trkpt lat="44.78401" lon="6.1162">
        <ele>2160.89</ele>
        <time>2019-09-19T11:26:59Z</time>
      </trkpt>
      <trkpt lat="44.78396" lon="6.11621">
        <ele>2158.4</ele>
        <time>2019-09-19T11:27:17Z</time>
      </trkpt>
      <trkpt lat="44.78385" lon="6.11625">
        <ele>2155.36</ele>
        <time>2019-09-19T11:27:37Z</time>
      </trkpt>
      <trkpt lat="44.78378" lon="6.11625">
        <ele>2152.8</ele>
        <time>2019-09-19T11:27:55Z</time>
      </trkpt>
      <trkpt lat="44.78371" lon="6.11629">
        <ele>2149.61</ele>
        <time>2019-09-19T11:28:11Z</time>
      </trkpt>
      <trkpt lat="44.78362" lon="6.11631">
        <ele>2146.5</ele>
        <time>2019-09-19T11:28:29Z</time>
      </trkpt>
      <trkpt lat="44.78353" lon="6.11632">
        <ele>2143.43</ele>
        <time>2019-09-19T11:28:46Z</time>
      </trkpt>
      <trkpt lat="44.78342" lon="6.11634">
        <ele>2140.23</ele>
        <time>2019-09-19T11:29:07Z</time>
      </trkpt>
      <trkpt lat="44.78332" lon="6.11639">
        <ele>2137.18</ele>
        <time>2019-09-19T11:29:23Z</time>
      </trkpt>
      <trkpt lat="44.78325" lon="6.11646">
        <ele>2134.14</ele>
        <time>2019-09-19T11:29:37Z</time>
      </trkpt>
      <trkpt lat="44.78319" lon="6.1165">
        <ele>2132.07</ele>
        <time>2019-09-19T11:29:56Z</time>
      </trkpt>
      <trkpt lat="44.7831" lon="6.11641">
        <ele>2130.29</ele>
        <time>2019-09-19T11:30:13Z</time>
      </trkpt>
      <trkpt lat="44.78301" lon="6.11638">
        <ele>2127.07</ele>
        <time>2019-09-19T11:30:30Z</time>
      </trkpt>
      <trkpt lat="44.78294" lon="6.11642">
        <ele>2123.99</ele>
        <time>2019-09-19T11:30:43Z</time>
      </trkpt>
      <trkpt lat="44.78285" lon="6.11641">
        <ele>2120.91</ele>
        <time>2019-09-19T11:30:58Z</time>
      </trkpt>
      <trkpt lat="44.78279" lon="6.11645">
        <ele>2118.47</ele>
        <time>2019-09-19T11:31:13Z</time>
      </trkpt>
      <trkpt lat="44.78269" lon="6.1164">
        <ele>2115.87</ele>
        <time>2019-09-19T11:31:32Z</time>
      </trkpt>
      <trkpt lat="44.78255" lon="6.11639">
        <ele>2113.09</ele>
        <time>2019-09-19T11:31:53Z</time>
      </trkpt>
      <trkpt lat="44.78242" lon="6.11644">
        <ele>2111.73</ele>
        <time>2019-09-19T11:32:08Z</time>
      </trkpt>
      <trkpt lat="44.78232" lon="6.11646">
        <ele>2109.58</ele>
        <time>2019-09-19T11:32:25Z</time>
      </trkpt>
      <trkpt lat="44.78224" lon="6.11645">
        <ele>2107.25</ele>
        <time>2019-09-19T11:32:42Z</time>
      </trkpt>
      <trkpt lat="44.78217" lon="6.11649">
        <ele>2104.73</ele>
        <time>2019-09-19T11:33:00Z</time>
      </trkpt>
      <trkpt lat="44.78209" lon="6.11657">
        <ele>2101.63</ele>
        <time>2019-09-19T11:33:18Z</time>
      </trkpt>
      <trkpt lat="44.78199" lon="6.11667">
        <ele>2098.73</ele>
        <time>2019-09-19T11:33:39Z</time>
      </trkpt>
      <trkpt lat="44.78192" lon="6.11672">
        <ele>2096.27</ele>
        <time>2019-09-19T11:33:56Z</time>
      </trkpt>
      <trkpt lat="44.78179" lon="6.11677">
        <ele>2093.56</ele>
        <time>2019-09-19T11:34:12Z</time>
      </trkpt>
      <trkpt lat="44.78173" lon="6.11676">
        <ele>2092.19</ele>
        <time>2019-09-19T11:34:27Z</time>
      </trkpt>
      <trkpt lat="44.78167" lon="6.11683">
        <ele>2089.37</ele>
        <time>2019-09-19T11:34:43Z</time>
      </trkpt>
      <trkpt lat="44.7817" lon="6.11691">
        <ele>2087.4</ele>
        <time>2019-09-19T11:35:02Z</time>
      </trkpt>
      <trkpt lat="44.78173" lon="6.11698">
        <ele>2085.18</ele>
        <time>2019-09-19T11:35:20Z</time>
      </trkpt>
      <trkpt lat="44.78172" lon="6.11708">
        <ele>2082.09</ele>
        <time>2019-09-19T11:35:38Z</time>
      </trkpt>
      <trkpt lat="44.78176" lon="6.11716">
        <ele>2078.99</ele>
        <time>2019-09-19T11:35:51Z</time>
      </trkpt>
      <trkpt lat="44.7818" lon="6.11722">
        <ele>2075.83</ele>
        <time>2019-09-19T11:36:08Z</time>
      </trkpt>
      <trkpt lat="44.78183" lon="6.11732">
        <ele>2072.6</ele>
        <time>2019-09-19T11:36:26Z</time>
      </trkpt>
      <trkpt lat="44.78181" lon="6.1174">
        <ele>2069.51</ele>
        <time>2019-09-19T11:36:43Z</time>
      </trkpt>
      <trkpt lat="44.7818" lon="6.11749">
        <ele>2066.47</ele>
        <time>2019-09-19T11:37:00Z</time>
      </trkpt>
      <trkpt lat="44.78176" lon="6.11759">
        <ele>2063.43</ele>
        <time>2019-09-19T11:37:15Z</time>
      </trkpt>
      <trkpt lat="44.78164" lon="6.11766">
        <ele>2060.32</ele>
        <time>2019-09-19T11:37:31Z</time>
      </trkpt>
      <trkpt lat="44.78155" lon="6.11769">
        <ele>2057.18</ele>
        <time>2019-09-19T11:37:49Z</time>
      </trkpt>
      <trkpt lat="44.78146" lon="6.1177">
        <ele>2054.04</ele>
        <time>2019-09-19T11:38:06Z</time>
      </trkpt>
      <trkpt lat="44.78141" lon="6.11772">
        <ele>2051.04</ele>
        <time>2019-09-19T11:38:21Z</time>
      </trkpt>
      <trkpt lat="44.7813" lon="6.11772">
        <ele>2048.46</ele>
        <time>2019-09-19T11:38:40Z</time>
      </trkpt>
      <trkpt lat="44.7812" lon="6.11772">
        <ele>2045.37</ele>
        <time>2019-09-19T11:39:01Z</time>
      </trkpt>
      <trkpt lat="44.78115" lon="6.11774">
        <ele>2042.23</ele>
        <time>2019-09-19T11:39:17Z</time>
      </trkpt>
      <trkpt lat="44.78105" lon="6.11777">
        <ele>2038.92</ele>
        <time>2019-09-19T11:39:35Z</time>
      </trkpt>
      <trkpt lat="44.78095" lon="6.11779">
        <ele>2035.85</ele>
        <time>2019-09-19T11:39:52Z</time>
      </trkpt>
      <trkpt lat="44.78083" lon="6.11784">
        <ele>2033.4</ele>
        <time>2019-09-19T11:40:09Z</time>
      </trkpt>
      <trkpt lat="44.78074" lon="6.11788">
        <ele>2031.04</ele>
        <time>2019-09-19T11:40:27Z</time>
      </trkpt>
      <trkpt lat="44.7807" lon="6.11796">
        <ele>2028.08</ele>
        <time>2019-09-19T11:40:45Z</time>
      </trkpt>
      <trkpt lat="44.78068" lon="6.11806">
        <ele>2025.05</ele>
        <time>2019-09-19T11:41:06Z</time>
      </trkpt>
      <trkpt lat="44.78068" lon="6.11817">
        <ele>2022.05</ele>
        <time>2019-09-19T11:41:23Z</time>
      </trkpt>
      <trkpt lat="44.7807" lon="6.11817">
        <ele>2020.43</ele>
        <time>2019-09-19T11:41:42Z</time>
      </trkpt>
      <trkpt lat="44.78068" lon="6.11818">
        <ele>2020.78</ele>
        <time>2019-09-19T11:42:12Z</time>
      </trkpt>
      <trkpt lat="44.78068" lon="6.11819">
        <ele>2021.21</ele>
        <time>2019-09-19T11:42:39Z</time>
      </trkpt>
      <trkpt lat="44.78068" lon="6.11822">
        <ele>2019.92</ele>
        <time>2019-09-19T11:43:04Z</time>
      </trkpt>
      <trkpt lat="44.78072" lon="6.11828">
        <ele>2017.15</ele>
        <time>2019-09-19T11:43:21Z</time>
      </trkpt>
      <trkpt lat="44.78072" lon="6.11834">
        <ele>2013.88</ele>
        <time>2019-09-19T11:43:39Z</time>
      </trkpt>
      <trkpt lat="44.78074" lon="6.11842">
        <ele>2010.74</ele>
        <time>2019-09-19T11:43:56Z</time>
      </trkpt>
      <trkpt lat="44.78077" lon="6.11847">
        <ele>2007.6</ele>
        <time>2019-09-19T11:44:11Z</time>
      </trkpt>
      <trkpt lat="44.7808" lon="6.11852">
        <ele>2004.58</ele>
        <time>2019-09-19T11:44:26Z</time>
      </trkpt>
      <trkpt lat="44.78084" lon="6.11858">
        <ele>2001.4</ele>
        <time>2019-09-19T11:44:40Z</time>
      </trkpt>
      <trkpt lat="44.78089" lon="6.11863">
        <ele>1998.19</ele>
        <time>2019-09-19T11:44:55Z</time>
      </trkpt>
      <trkpt lat="44.78098" lon="6.11867">
        <ele>1995.23</ele>
        <time>2019-09-19T11:45:14Z</time>
      </trkpt>
      <trkpt lat="44.78104" lon="6.11874">
        <ele>1992.2</ele>
        <time>2019-09-19T11:45:26Z</time>
      </trkpt>
      <trkpt lat="44.78108" lon="6.11886">
        <ele>1989.15</ele>
        <time>2019-09-19T11:45:44Z</time>
      </trkpt>
      <trkpt lat="44.78104" lon="6.11895">
        <ele>1986.28</ele>
        <time>2019-09-19T11:46:00Z</time>
      </trkpt>
      <trkpt lat="44.78102" lon="6.11906">
        <ele>1983.21</ele>
        <time>2019-09-19T11:46:15Z</time>
      </trkpt>
      <trkpt lat="44.78096" lon="6.11912">
        <ele>1980.14</ele>
        <time>2019-09-19T11:46:31Z</time>
      </trkpt>
      <trkpt lat="44.78089" lon="6.11915">
        <ele>1977.06</ele>
        <time>2019-09-19T11:46:50Z</time>
      </trkpt>
      <trkpt lat="44.78085" lon="6.11917">
        <ele>1973.96</ele>
        <time>2019-09-19T11:47:09Z</time>
      </trkpt>
      <trkpt lat="44.78081" lon="6.11925">
        <ele>1970.78</ele>
        <time>2019-09-19T11:47:25Z</time>
      </trkpt>
      <trkpt lat="44.78082" lon="6.11931">
        <ele>1967.6</ele>
        <time>2019-09-19T11:47:44Z</time>
      </trkpt>
      <trkpt lat="44.78084" lon="6.11936">
        <ele>1964.51</ele>
        <time>2019-09-19T11:48:02Z</time>
      </trkpt>
      <trkpt lat="44.78083" lon="6.11944">
        <ele>1961.47</ele>
        <time>2019-09-19T11:48:17Z</time>
      </trkpt>
      <trkpt lat="44.78088" lon="6.1195">
        <ele>1958.12</ele>
        <time>2019-09-19T11:48:33Z</time>
      </trkpt>
      <trkpt lat="44.78089" lon="6.11961">
        <ele>1955.04</ele>
        <time>2019-09-19T11:48:47Z</time>
      </trkpt>
      <trkpt lat="44.78088" lon="6.1197">
        <ele>1951.7</ele>
        <time>2019-09-19T11:49:01Z</time>
      </trkpt>
      <trkpt lat="44.78082" lon="6.11977">
        <ele>1948.68</ele>
        <time>2019-09-19T11:49:15Z</time>
      </trkpt>
      <trkpt lat="44.78075" lon="6.11985">
        <ele>1945.48</ele>
        <time>2019-09-19T11:49:29Z</time>
      </trkpt>
      <trkpt lat="44.78072" lon="6.11995">
        <ele>1942.45</ele>
        <time>2019-09-19T11:49:44Z</time>
      </trkpt>
      <trkpt lat="44.78066" lon="6.12001">
        <ele>1939.25</ele>
        <time>2019-09-19T11:50:01Z</time>
      </trkpt>
      <trkpt lat="44.78063" lon="6.12005">
        <ele>1936.24</ele>
        <time>2019-09-19T11:50:14Z</time>
      </trkpt>
      <trkpt lat="44.78064" lon="6.12012">
        <ele>1933.1</ele>
        <time>2019-09-19T11:50:26Z</time>
      </trkpt>
      <trkpt lat="44.78061" lon="6.1202">
        <ele>1930.04</ele>
        <time>2019-09-19T11:50:38Z</time>
      </trkpt>
      <trkpt lat="44.78054" lon="6.1203">
        <ele>1926.86</ele>
        <time>2019-09-19T11:50:53Z</time>
      </trkpt>
      <trkpt lat="44.78052" lon="6.12037">
        <ele>1924.57</ele>
        <time>2019-09-19T11:51:09Z</time>
      </trkpt>
      <trkpt lat="44.78043" lon="6.12037">
        <ele>1923.29</ele>
        <time>2019-09-19T11:51:28Z</time>
      </trkpt>
      <trkpt lat="44.78035" lon="6.12041">
        <ele>1922.75</ele>
        <time>2019-09-19T11:51:45Z</time>
      </trkpt>
      <trkpt lat="44.78023" lon="6.12045">
        <ele>1921.4</ele>
        <time>2019-09-19T11:52:09Z</time>
      </trkpt>
      <trkpt lat="44.78019" lon="6.12047">
        <ele>1920.34</ele>
        <time>2019-09-19T11:52:41Z</time>
      </trkpt>
      <trkpt lat="44.78019" lon="6.12044">
        <ele>1920.09</ele>
        <time>2019-09-19T11:53:30Z</time>
      </trkpt>
      <trkpt lat="44.7802" lon="6.12042">
        <ele>1919.99</ele>
        <time>2019-09-19T11:54:11Z</time>
      </trkpt>
      <trkpt lat="44.78019" lon="6.12043">
        <ele>1919.62</ele>
        <time>2019-09-19T11:55:07Z</time>
      </trkpt>
      <trkpt lat="44.7802" lon="6.12041">
        <ele>1919.05</ele>
        <time>2019-09-19T11:56:16Z</time>
      </trkpt>
      <trkpt lat="44.78019" lon="6.12042">
        <ele>1918.67</ele>
        <time>2019-09-19T11:57:13Z</time>
      </trkpt>
      <trkpt lat="44.78019" lon="6.12042">
        <ele>1918.42</ele>
        <time>2019-09-19T11:58:15Z</time>
      </trkpt>
      <trkpt lat="44.78019" lon="6.12043">
        <ele>1918.16</ele>
        <time>2019-09-19T11:59:05Z</time>
      </trkpt>
      <trkpt lat="44.78019" lon="6.12042">
        <ele>1917.83</ele>
        <time>2019-09-19T11:59:42Z</time>
      </trkpt>
      <trkpt lat="44.7802" lon="6.12041">
        <ele>1917.57</ele>
        <time>2019-09-19T12:00:15Z</time>
      </trkpt>
      <trkpt lat="44.78019" lon="6.12041">
        <ele>1917.43</ele>
        <time>2019-09-19T12:01:00Z</time>
      </trkpt>
      <trkpt lat="44.7802" lon="6.12041">
        <ele>1918.21</ele>
        <time>2019-09-19T12:01:31Z</time>
      </trkpt>
      <trkpt lat="44.78018" lon="6.12042">
        <ele>1917.88</ele>
        <time>2019-09-19T12:02:00Z</time>
      </trkpt>
      <trkpt lat="44.7802" lon="6.12043">
        <ele>1917.45</ele>
        <time>2019-09-19T12:02:24Z</time>
      </trkpt>
      <trkpt lat="44.78016" lon="6.1205">
        <ele>1916.88</ele>
        <time>2019-09-19T12:02:48Z</time>
      </trkpt>
      <trkpt lat="44.7801" lon="6.12068">
        <ele>1916.36</ele>
        <time>2019-09-19T12:03:07Z</time>
      </trkpt>
      <trkpt lat="44.78002" lon="6.12085">
        <ele>1915.3</ele>
        <time>2019-09-19T12:03:29Z</time>
      </trkpt>
      <trkpt lat="44.78003" lon="6.12097">
        <ele>1913.15</ele>
        <time>2019-09-19T12:03:47Z</time>
      </trkpt>
      <trkpt lat="44.78008" lon="6.12102">
        <ele>1910</ele>
        <time>2019-09-19T12:04:04Z</time>
      </trkpt>
      <trkpt lat="44.78018" lon="6.12102">
        <ele>1906.98</ele>
        <time>2019-09-19T12:04:21Z</time>
      </trkpt>
      <trkpt lat="44.78029" lon="6.121">
        <ele>1903.85</ele>
        <time>2019-09-19T12:04:39Z</time>
      </trkpt>
      <trkpt lat="44.78034" lon="6.12105">
        <ele>1900.82</ele>
        <time>2019-09-19T12:04:53Z</time>
      </trkpt>
      <trkpt lat="44.78032" lon="6.12117">
        <ele>1897.67</ele>
        <time>2019-09-19T12:05:08Z</time>
      </trkpt>
      <trkpt lat="44.78036" lon="6.12119">
        <ele>1894.69</ele>
        <time>2019-09-19T12:05:22Z</time>
      </trkpt>
      <trkpt lat="44.78044" lon="6.12118">
        <ele>1891.34</ele>
        <time>2019-09-19T12:05:40Z</time>
      </trkpt>
      <trkpt lat="44.78054" lon="6.12112">
        <ele>1888.32</ele>
        <time>2019-09-19T12:05:59Z</time>
      </trkpt>
      <trkpt lat="44.78063" lon="6.12112">
        <ele>1885.25</ele>
        <time>2019-09-19T12:06:19Z</time>
      </trkpt>
      <trkpt lat="44.78068" lon="6.12117">
        <ele>1882.23</ele>
        <time>2019-09-19T12:06:34Z</time>
      </trkpt>
      <trkpt lat="44.78074" lon="6.12119">
        <ele>1878.91</ele>
        <time>2019-09-19T12:06:51Z</time>
      </trkpt>
      <trkpt lat="44.78084" lon="6.12122">
        <ele>1875.65</ele>
        <time>2019-09-19T12:07:08Z</time>
      </trkpt>
      <trkpt lat="44.78086" lon="6.12122">
        <ele>1874.56</ele>
        <time>2019-09-19T12:07:14Z</time>
      </trkpt>
      <trkpt lat="44.78095" lon="6.12126">
        <ele>1871.24</ele>
        <time>2019-09-19T12:07:32Z</time>
      </trkpt>
      <trkpt lat="44.78107" lon="6.12129">
        <ele>1868.62</ele>
        <time>2019-09-19T12:07:52Z</time>
      </trkpt>
      <trkpt lat="44.78113" lon="6.12139">
        <ele>1865.6</ele>
        <time>2019-09-19T12:08:11Z</time>
      </trkpt>
      <trkpt lat="44.78127" lon="6.12147">
        <ele>1862.46</ele>
        <time>2019-09-19T12:08:30Z</time>
      </trkpt>
      <trkpt lat="44.78142" lon="6.12144">
        <ele>1860.01</ele>
        <time>2019-09-19T12:08:47Z</time>
      </trkpt>
      <trkpt lat="44.78159" lon="6.12144">
        <ele>1857.01</ele>
        <time>2019-09-19T12:09:08Z</time>
      </trkpt>
      <trkpt lat="44.78166" lon="6.12146">
        <ele>1853.87</ele>
        <time>2019-09-19T12:09:25Z</time>
      </trkpt>
      <trkpt lat="44.78175" lon="6.1215">
        <ele>1850.8</ele>
        <time>2019-09-19T12:09:41Z</time>
      </trkpt>
      <trkpt lat="44.78185" lon="6.12159">
        <ele>1848</ele>
        <time>2019-09-19T12:10:02Z</time>
      </trkpt>
      <trkpt lat="44.78194" lon="6.12168">
        <ele>1845.23</ele>
        <time>2019-09-19T12:10:20Z</time>
      </trkpt>
      <trkpt lat="44.78196" lon="6.12173">
        <ele>1843.33</ele>
        <time>2019-09-19T12:10:31Z</time>
      </trkpt>
      <trkpt lat="44.78206" lon="6.12169">
        <ele>1840.12</ele>
        <time>2019-09-19T12:10:50Z</time>
      </trkpt>
      <trkpt lat="44.78213" lon="6.12169">
        <ele>1837.07</ele>
        <time>2019-09-19T12:11:09Z</time>
      </trkpt>
      <trkpt lat="44.78221" lon="6.12169">
        <ele>1833.83</ele>
        <time>2019-09-19T12:11:27Z</time>
      </trkpt>
      <trkpt lat="44.78229" lon="6.12172">
        <ele>1831.1</ele>
        <time>2019-09-19T12:11:45Z</time>
      </trkpt>
      <trkpt lat="44.78237" lon="6.12178">
        <ele>1827.92</ele>
        <time>2019-09-19T12:12:02Z</time>
      </trkpt>
      <trkpt lat="44.78246" lon="6.12181">
        <ele>1824.86</ele>
        <time>2019-09-19T12:12:19Z</time>
      </trkpt>
      <trkpt lat="44.7825" lon="6.12188">
        <ele>1821.69</ele>
        <time>2019-09-19T12:12:33Z</time>
      </trkpt>
      <trkpt lat="44.78252" lon="6.12195">
        <ele>1818.58</ele>
        <time>2019-09-19T12:12:50Z</time>
      </trkpt>
      <trkpt lat="44.78252" lon="6.12197">
        <ele>1818.26</ele>
        <time>2019-09-19T12:12:52Z</time>
      </trkpt>
      <trkpt lat="44.78258" lon="6.12205">
        <ele>1814.92</ele>
        <time>2019-09-19T12:13:10Z</time>
      </trkpt>
      <trkpt lat="44.78258" lon="6.12212">
        <ele>1811.62</ele>
        <time>2019-09-19T12:13:27Z</time>
      </trkpt>
      <trkpt lat="44.78262" lon="6.12222">
        <ele>1808.64</ele>
        <time>2019-09-19T12:13:46Z</time>
      </trkpt>
      <trkpt lat="44.78267" lon="6.12229">
        <ele>1805.59</ele>
        <time>2019-09-19T12:14:02Z</time>
      </trkpt>
      <trkpt lat="44.78271" lon="6.12239">
        <ele>1802.53</ele>
        <time>2019-09-19T12:14:20Z</time>
      </trkpt>
      <trkpt lat="44.78266" lon="6.12248">
        <ele>1799.49</ele>
        <time>2019-09-19T12:14:37Z</time>
      </trkpt>
      <trkpt lat="44.78259" lon="6.12254">
        <ele>1796.41</ele>
        <time>2019-09-19T12:14:55Z</time>
      </trkpt>
      <trkpt lat="44.78256" lon="6.1226">
        <ele>1793.31</ele>
        <time>2019-09-19T12:15:12Z</time>
      </trkpt>
      <trkpt lat="44.78251" lon="6.12264">
        <ele>1790.36</ele>
        <time>2019-09-19T12:15:30Z</time>
      </trkpt>
      <trkpt lat="44.78255" lon="6.12271">
        <ele>1787.32</ele>
        <time>2019-09-19T12:15:45Z</time>
      </trkpt>
      <trkpt lat="44.78261" lon="6.12279">
        <ele>1784.27</ele>
        <time>2019-09-19T12:16:05Z</time>
      </trkpt>
      <trkpt lat="44.78255" lon="6.12286">
        <ele>1781.07</ele>
        <time>2019-09-19T12:16:21Z</time>
      </trkpt>
      <trkpt lat="44.78256" lon="6.12293">
        <ele>1777.9</ele>
        <time>2019-09-19T12:16:38Z</time>
      </trkpt>
      <trkpt lat="44.78251" lon="6.12298">
        <ele>1774.87</ele>
        <time>2019-09-19T12:16:54Z</time>
      </trkpt>
      <trkpt lat="44.78242" lon="6.12302">
        <ele>1771.81</ele>
        <time>2019-09-19T12:17:13Z</time>
      </trkpt>
      <trkpt lat="44.78239" lon="6.12307">
        <ele>1768.53</ele>
        <time>2019-09-19T12:17:35Z</time>
      </trkpt>
      <trkpt lat="44.78241" lon="6.12315">
        <ele>1765.35</ele>
        <time>2019-09-19T12:17:52Z</time>
      </trkpt>
      <trkpt lat="44.78245" lon="6.12324">
        <ele>1762.31</ele>
        <time>2019-09-19T12:18:08Z</time>
      </trkpt>
      <trkpt lat="44.78247" lon="6.12333">
        <ele>1759.22</ele>
        <time>2019-09-19T12:18:23Z</time>
      </trkpt>
      <trkpt lat="44.78244" lon="6.12341">
        <ele>1756.12</ele>
        <time>2019-09-19T12:18:39Z</time>
      </trkpt>
      <trkpt lat="44.78237" lon="6.12349">
        <ele>1752.9</ele>
        <time>2019-09-19T12:18:56Z</time>
      </trkpt>
      <trkpt lat="44.78234" lon="6.12353">
        <ele>1749.88</ele>
        <time>2019-09-19T12:19:11Z</time>
      </trkpt>
      <trkpt lat="44.78229" lon="6.12359">
        <ele>1747.23</ele>
        <time>2019-09-19T12:19:32Z</time>
      </trkpt>
      <trkpt lat="44.78232" lon="6.12365">
        <ele>1744.52</ele>
        <time>2019-09-19T12:19:50Z</time>
      </trkpt>
      <trkpt lat="44.78227" lon="6.12371">
        <ele>1742.32</ele>
        <time>2019-09-19T12:20:11Z</time>
      </trkpt>
      <trkpt lat="44.78217" lon="6.12379">
        <ele>1739.7</ele>
        <time>2019-09-19T12:20:31Z</time>
      </trkpt>
      <trkpt lat="44.78209" lon="6.12381">
        <ele>1737.33</ele>
        <time>2019-09-19T12:20:51Z</time>
      </trkpt>
      <trkpt lat="44.78198" lon="6.12387">
        <ele>1734.48</ele>
        <time>2019-09-19T12:21:12Z</time>
      </trkpt>
      <trkpt lat="44.78195" lon="6.12394">
        <ele>1731.32</ele>
        <time>2019-09-19T12:21:30Z</time>
      </trkpt>
      <trkpt lat="44.78193" lon="6.12404">
        <ele>1728.23</ele>
        <time>2019-09-19T12:21:46Z</time>
      </trkpt>
      <trkpt lat="44.78188" lon="6.12415">
        <ele>1725.09</ele>
        <time>2019-09-19T12:22:01Z</time>
      </trkpt>
      <trkpt lat="44.78185" lon="6.12425">
        <ele>1721.96</ele>
        <time>2019-09-19T12:22:19Z</time>
      </trkpt>
      <trkpt lat="44.78184" lon="6.12438">
        <ele>1718.76</ele>
        <time>2019-09-19T12:22:37Z</time>
      </trkpt>
      <trkpt lat="44.78182" lon="6.1245">
        <ele>1715.73</ele>
        <time>2019-09-19T12:22:52Z</time>
      </trkpt>
      <trkpt lat="44.78182" lon="6.12461">
        <ele>1712.57</ele>
        <time>2019-09-19T12:23:09Z</time>
      </trkpt>
      <trkpt lat="44.78184" lon="6.12473">
        <ele>1709.39</ele>
        <time>2019-09-19T12:23:27Z</time>
      </trkpt>
      <trkpt lat="44.78185" lon="6.12479">
        <ele>1708.26</ele>
        <time>2019-09-19T12:23:50Z</time>
      </trkpt>
      <trkpt lat="44.78188" lon="6.1248">
        <ele>1707.89</ele>
        <time>2019-09-19T12:24:14Z</time>
      </trkpt>
      <trkpt lat="44.78186" lon="6.12479">
        <ele>1707.46</ele>
        <time>2019-09-19T12:24:51Z</time>
      </trkpt>
      <trkpt lat="44.7818" lon="6.12476">
        <ele>1707.15</ele>
        <time>2019-09-19T12:25:47Z</time>
      </trkpt>
      <trkpt lat="44.78179" lon="6.12474">
        <ele>1706.93</ele>
        <time>2019-09-19T12:26:52Z</time>
      </trkpt>
      <trkpt lat="44.78178" lon="6.12475">
        <ele>1706.72</ele>
        <time>2019-09-19T12:27:48Z</time>
      </trkpt>
      <trkpt lat="44.78181" lon="6.12475">
        <ele>1706.69</ele>
        <time>2019-09-19T12:28:21Z</time>
      </trkpt>
      <trkpt lat="44.78181" lon="6.12472">
        <ele>1706.48</ele>
        <time>2019-09-19T12:28:49Z</time>
      </trkpt>
      <trkpt lat="44.78184" lon="6.12474">
        <ele>1706.32</ele>
        <time>2019-09-19T12:29:17Z</time>
      </trkpt>
      <trkpt lat="44.78182" lon="6.12474">
        <ele>1705.82</ele>
        <time>2019-09-19T12:29:43Z</time>
      </trkpt>
      <trkpt lat="44.78181" lon="6.12474">
        <ele>1705.55</ele>
        <time>2019-09-19T12:30:10Z</time>
      </trkpt>
      <trkpt lat="44.78178" lon="6.12474">
        <ele>1705.42</ele>
        <time>2019-09-19T12:30:39Z</time>
      </trkpt>
      <trkpt lat="44.78177" lon="6.1247">
        <ele>1705.17</ele>
        <time>2019-09-19T12:31:12Z</time>
      </trkpt>
      <trkpt lat="44.78175" lon="6.12468">
        <ele>1705.04</ele>
        <time>2019-09-19T12:31:21Z</time>
      </trkpt>
      <trkpt lat="44.78179" lon="6.12471">
        <ele>1704.75</ele>
        <time>2019-09-19T12:31:53Z</time>
      </trkpt>
      <trkpt lat="44.78179" lon="6.12471">
        <ele>1704.07</ele>
        <time>2019-09-19T12:32:23Z</time>
      </trkpt>
      <trkpt lat="44.78182" lon="6.12478">
        <ele>1703.82</ele>
        <time>2019-09-19T12:32:52Z</time>
      </trkpt>
      <trkpt lat="44.78184" lon="6.12478">
        <ele>1703.61</ele>
        <time>2019-09-19T12:33:23Z</time>
      </trkpt>
      <trkpt lat="44.78181" lon="6.12479">
        <ele>1703.19</ele>
        <time>2019-09-19T12:33:46Z</time>
      </trkpt>
      <trkpt lat="44.78184" lon="6.12487">
        <ele>1701.34</ele>
        <time>2019-09-19T12:34:06Z</time>
      </trkpt>
      <trkpt lat="44.78185" lon="6.12497">
        <ele>1699.26</ele>
        <time>2019-09-19T12:34:21Z</time>
      </trkpt>
      <trkpt lat="44.78184" lon="6.12503">
        <ele>1696.43</ele>
        <time>2019-09-19T12:34:38Z</time>
      </trkpt>
      <trkpt lat="44.78192" lon="6.12508">
        <ele>1693.39</ele>
        <time>2019-09-19T12:34:54Z</time>
      </trkpt>
      <trkpt lat="44.78198" lon="6.12516">
        <ele>1690.49</ele>
        <time>2019-09-19T12:35:12Z</time>
      </trkpt>
      <trkpt lat="44.78207" lon="6.12524">
        <ele>1687.84</ele>
        <time>2019-09-19T12:35:31Z</time>
      </trkpt>
      <trkpt lat="44.78216" lon="6.12529">
        <ele>1684.94</ele>
        <time>2019-09-19T12:35:47Z</time>
      </trkpt>
      <trkpt lat="44.78225" lon="6.12539">
        <ele>1681.89</ele>
        <time>2019-09-19T12:36:06Z</time>
      </trkpt>
      <trkpt lat="44.78231" lon="6.1255">
        <ele>1678.82</ele>
        <time>2019-09-19T12:36:22Z</time>
      </trkpt>
      <trkpt lat="44.78238" lon="6.1256">
        <ele>1675.8</ele>
        <time>2019-09-19T12:36:39Z</time>
      </trkpt>
      <trkpt lat="44.78244" lon="6.12571">
        <ele>1672.75</ele>
        <time>2019-09-19T12:36:55Z</time>
      </trkpt>
      <trkpt lat="44.78254" lon="6.12579">
        <ele>1669.75</ele>
        <time>2019-09-19T12:37:15Z</time>
      </trkpt>
      <trkpt lat="44.78267" lon="6.12589">
        <ele>1666.71</ele>
        <time>2019-09-19T12:37:33Z</time>
      </trkpt>
      <trkpt lat="44.78276" lon="6.12601">
        <ele>1663.66</ele>
        <time>2019-09-19T12:37:48Z</time>
      </trkpt>
      <trkpt lat="44.78288" lon="6.12615">
        <ele>1660.44</ele>
        <time>2019-09-19T12:38:08Z</time>
      </trkpt>
      <trkpt lat="44.78294" lon="6.12626">
        <ele>1657.42</ele>
        <time>2019-09-19T12:38:22Z</time>
      </trkpt>
      <trkpt lat="44.78295" lon="6.12634">
        <ele>1654.21</ele>
        <time>2019-09-19T12:38:36Z</time>
      </trkpt>
      <trkpt lat="44.78305" lon="6.1264">
        <ele>1651.07</ele>
        <time>2019-09-19T12:38:55Z</time>
      </trkpt>
      <trkpt lat="44.78316" lon="6.1265">
        <ele>1648.03</ele>
        <time>2019-09-19T12:39:17Z</time>
      </trkpt>
      <trkpt lat="44.78322" lon="6.12656">
        <ele>1644.94</ele>
        <time>2019-09-19T12:39:33Z</time>
      </trkpt>
      <trkpt lat="44.7833" lon="6.12664">
        <ele>1641.94</ele>
        <time>2019-09-19T12:39:50Z</time>
      </trkpt>
      <trkpt lat="44.78339" lon="6.12673">
        <ele>1638.85</ele>
        <time>2019-09-19T12:40:07Z</time>
      </trkpt>
      <trkpt lat="44.78349" lon="6.12681">
        <ele>1635.73</ele>
        <time>2019-09-19T12:40:26Z</time>
      </trkpt>
      <trkpt lat="44.7836" lon="6.12688">
        <ele>1632.72</ele>
        <time>2019-09-19T12:40:43Z</time>
      </trkpt>
      <trkpt lat="44.78368" lon="6.12698">
        <ele>1629.68</ele>
        <time>2019-09-19T12:41:02Z</time>
      </trkpt>
      <trkpt lat="44.78373" lon="6.12707">
        <ele>1626.63</ele>
        <time>2019-09-19T12:41:17Z</time>
      </trkpt>
      <trkpt lat="44.78375" lon="6.12716">
        <ele>1623.62</ele>
        <time>2019-09-19T12:41:31Z</time>
      </trkpt>
      <trkpt lat="44.78384" lon="6.12724">
        <ele>1620.59</ele>
        <time>2019-09-19T12:41:47Z</time>
      </trkpt>
      <trkpt lat="44.78391" lon="6.12732">
        <ele>1617.45</ele>
        <time>2019-09-19T12:42:02Z</time>
      </trkpt>
      <trkpt lat="44.78402" lon="6.12742">
        <ele>1614.63</ele>
        <time>2019-09-19T12:42:22Z</time>
      </trkpt>
      <trkpt lat="44.78411" lon="6.12753">
        <ele>1611.55</ele>
        <time>2019-09-19T12:42:41Z</time>
      </trkpt>
      <trkpt lat="44.78419" lon="6.12761">
        <ele>1609.37</ele>
        <time>2019-09-19T12:42:59Z</time>
      </trkpt>
      <trkpt lat="44.78425" lon="6.12772">
        <ele>1606.29</ele>
        <time>2019-09-19T12:43:16Z</time>
      </trkpt>
      <trkpt lat="44.78432" lon="6.12782">
        <ele>1603.21</ele>
        <time>2019-09-19T12:43:36Z</time>
      </trkpt>
      <trkpt lat="44.78442" lon="6.12794">
        <ele>1600.15</ele>
        <time>2019-09-19T12:43:57Z</time>
      </trkpt>
      <trkpt lat="44.78452" lon="6.12805">
        <ele>1597.54</ele>
        <time>2019-09-19T12:44:18Z</time>
      </trkpt>
      <trkpt lat="44.78461" lon="6.12814">
        <ele>1594.69</ele>
        <time>2019-09-19T12:44:37Z</time>
      </trkpt>
      <trkpt lat="44.78472" lon="6.12824">
        <ele>1591.89</ele>
        <time>2019-09-19T12:44:59Z</time>
      </trkpt>
      <trkpt lat="44.78484" lon="6.12832">
        <ele>1589.19</ele>
        <time>2019-09-19T12:45:20Z</time>
      </trkpt>
      <trkpt lat="44.78492" lon="6.12841">
        <ele>1586.74</ele>
        <time>2019-09-19T12:45:40Z</time>
      </trkpt>
      <trkpt lat="44.78503" lon="6.12849">
        <ele>1583.95</ele>
        <time>2019-09-19T12:46:01Z</time>
      </trkpt>
      <trkpt lat="44.78515" lon="6.1286">
        <ele>1581.81</ele>
        <time>2019-09-19T12:46:21Z</time>
      </trkpt>
      <trkpt lat="44.78523" lon="6.12872">
        <ele>1578.88</ele>
        <time>2019-09-19T12:46:40Z</time>
      </trkpt>
      <trkpt lat="44.78533" lon="6.12883">
        <ele>1575.84</ele>
        <time>2019-09-19T12:46:57Z</time>
      </trkpt>
      <trkpt lat="44.78542" lon="6.12891">
        <ele>1572.77</ele>
        <time>2019-09-19T12:47:12Z</time>
      </trkpt>
      <trkpt lat="44.78551" lon="6.12897">
        <ele>1569.81</ele>
        <time>2019-09-19T12:47:32Z</time>
      </trkpt>
      <trkpt lat="44.78561" lon="6.12901">
        <ele>1567.59</ele>
        <time>2019-09-19T12:47:50Z</time>
      </trkpt>
      <trkpt lat="44.78568" lon="6.12904">
        <ele>1564.58</ele>
        <time>2019-09-19T12:48:05Z</time>
      </trkpt>
      <trkpt lat="44.78579" lon="6.1291">
        <ele>1561.64</ele>
        <time>2019-09-19T12:48:25Z</time>
      </trkpt>
      <trkpt lat="44.78588" lon="6.12916">
        <ele>1558.6</ele>
        <time>2019-09-19T12:48:43Z</time>
      </trkpt>
      <trkpt lat="44.78598" lon="6.12924">
        <ele>1555.6</ele>
        <time>2019-09-19T12:49:00Z</time>
      </trkpt>
      <trkpt lat="44.78606" lon="6.12932">
        <ele>1552.58</ele>
        <time>2019-09-19T12:49:18Z</time>
      </trkpt>
      <trkpt lat="44.78614" lon="6.1294">
        <ele>1549.52</ele>
        <time>2019-09-19T12:49:36Z</time>
      </trkpt>
      <trkpt lat="44.78622" lon="6.12946">
        <ele>1546.44</ele>
        <time>2019-09-19T12:49:54Z</time>
      </trkpt>
      <trkpt lat="44.78629" lon="6.12959">
        <ele>1543.28</ele>
        <time>2019-09-19T12:50:15Z</time>
      </trkpt>
      <trkpt lat="44.78636" lon="6.1297">
        <ele>1540.23</ele>
        <time>2019-09-19T12:50:34Z</time>
      </trkpt>
      <trkpt lat="44.78643" lon="6.12975">
        <ele>1537.18</ele>
        <time>2019-09-19T12:50:52Z</time>
      </trkpt>
      <trkpt lat="44.78649" lon="6.12984">
        <ele>1534.13</ele>
        <time>2019-09-19T12:51:07Z</time>
      </trkpt>
      <trkpt lat="44.78659" lon="6.12989">
        <ele>1531</ele>
        <time>2019-09-19T12:51:24Z</time>
      </trkpt>
      <trkpt lat="44.78668" lon="6.12999">
        <ele>1528.07</ele>
        <time>2019-09-19T12:51:43Z</time>
      </trkpt>
      <trkpt lat="44.78678" lon="6.13008">
        <ele>1525.56</ele>
        <time>2019-09-19T12:52:02Z</time>
      </trkpt>
      <trkpt lat="44.78691" lon="6.13017">
        <ele>1522.49</ele>
        <time>2019-09-19T12:52:23Z</time>
      </trkpt>
      <trkpt lat="44.78703" lon="6.13028">
        <ele>1519.39</ele>
        <time>2019-09-19T12:52:43Z</time>
      </trkpt>
      <trkpt lat="44.78711" lon="6.13033">
        <ele>1516.55</ele>
        <time>2019-09-19T12:53:03Z</time>
      </trkpt>
      <trkpt lat="44.7872" lon="6.13037">
        <ele>1513.56</ele>
        <time>2019-09-19T12:53:25Z</time>
      </trkpt>
      <trkpt lat="44.78728" lon="6.13042">
        <ele>1510.5</ele>
        <time>2019-09-19T12:53:44Z</time>
      </trkpt>
      <trkpt lat="44.78736" lon="6.13046">
        <ele>1507.41</ele>
        <time>2019-09-19T12:54:00Z</time>
      </trkpt>
      <trkpt lat="44.78744" lon="6.13047">
        <ele>1504.35</ele>
        <time>2019-09-19T12:54:15Z</time>
      </trkpt>
      <trkpt lat="44.78753" lon="6.13047">
        <ele>1501.33</ele>
        <time>2019-09-19T12:54:30Z</time>
      </trkpt>
      <trkpt lat="44.78763" lon="6.1305">
        <ele>1498.18</ele>
        <time>2019-09-19T12:54:46Z</time>
      </trkpt>
      <trkpt lat="44.78776" lon="6.13055">
        <ele>1495.09</ele>
        <time>2019-09-19T12:55:05Z</time>
      </trkpt>
      <trkpt lat="44.78785" lon="6.13061">
        <ele>1491.94</ele>
        <time>2019-09-19T12:55:21Z</time>
      </trkpt>
      <trkpt lat="44.78793" lon="6.13062">
        <ele>1488.79</ele>
        <time>2019-09-19T12:55:39Z</time>
      </trkpt>
      <trkpt lat="44.78805" lon="6.13064">
        <ele>1485.47</ele>
        <time>2019-09-19T12:55:57Z</time>
      </trkpt>
      <trkpt lat="44.78814" lon="6.1307">
        <ele>1482.35</ele>
        <time>2019-09-19T12:56:15Z</time>
      </trkpt>
      <trkpt lat="44.78824" lon="6.13079">
        <ele>1479.22</ele>
        <time>2019-09-19T12:56:32Z</time>
      </trkpt>
      <trkpt lat="44.78833" lon="6.13079">
        <ele>1476.21</ele>
        <time>2019-09-19T12:56:51Z</time>
      </trkpt>
      <trkpt lat="44.78849" lon="6.13081">
        <ele>1473.18</ele>
        <time>2019-09-19T12:57:12Z</time>
      </trkpt>
      <trkpt lat="44.78854" lon="6.13085">
        <ele>1470.09</ele>
        <time>2019-09-19T12:57:26Z</time>
      </trkpt>
      <trkpt lat="44.78862" lon="6.13084">
        <ele>1467</ele>
        <time>2019-09-19T12:57:42Z</time>
      </trkpt>
      <trkpt lat="44.78865" lon="6.13093">
        <ele>1463.92</ele>
        <time>2019-09-19T12:57:56Z</time>
      </trkpt>
      <trkpt lat="44.78867" lon="6.13107">
        <ele>1460.76</ele>
        <time>2019-09-19T12:58:12Z</time>
      </trkpt>
      <trkpt lat="44.78867" lon="6.13118">
        <ele>1457.65</ele>
        <time>2019-09-19T12:58:30Z</time>
      </trkpt>
      <trkpt lat="44.78864" lon="6.13132">
        <ele>1454.52</ele>
        <time>2019-09-19T12:58:49Z</time>
      </trkpt>
      <trkpt lat="44.78863" lon="6.13133">
        <ele>1454.41</ele>
        <time>2019-09-19T12:58:50Z</time>
      </trkpt>
      <trkpt lat="44.78861" lon="6.13136">
        <ele>1453.89</ele>
        <time>2019-09-19T12:58:53Z</time>
      </trkpt>
      <trkpt lat="44.78854" lon="6.13146">
        <ele>1451.09</ele>
        <time>2019-09-19T12:59:12Z</time>
      </trkpt>
      <trkpt lat="44.78857" lon="6.13147">
        <ele>1448.08</ele>
        <time>2019-09-19T12:59:30Z</time>
      </trkpt>
      <trkpt lat="44.78867" lon="6.13153">
        <ele>1445.44</ele>
        <time>2019-09-19T12:59:50Z</time>
      </trkpt>
      <trkpt lat="44.78874" lon="6.13156">
        <ele>1442.34</ele>
        <time>2019-09-19T13:00:08Z</time>
      </trkpt>
      <trkpt lat="44.78883" lon="6.13158">
        <ele>1439.29</ele>
        <time>2019-09-19T13:00:24Z</time>
      </trkpt>
      <trkpt lat="44.78893" lon="6.13161">
        <ele>1436.2</ele>
        <time>2019-09-19T13:00:44Z</time>
      </trkpt>
      <trkpt lat="44.78902" lon="6.13161">
        <ele>1433.27</ele>
        <time>2019-09-19T13:01:00Z</time>
      </trkpt>
      <trkpt lat="44.78912" lon="6.13168">
        <ele>1430.48</ele>
        <time>2019-09-19T13:01:19Z</time>
      </trkpt>
      <trkpt lat="44.78919" lon="6.1317">
        <ele>1427.36</ele>
        <time>2019-09-19T13:01:35Z</time>
      </trkpt>
      <trkpt lat="44.78927" lon="6.13171">
        <ele>1424.22</ele>
        <time>2019-09-19T13:01:52Z</time>
      </trkpt>
      <trkpt lat="44.78935" lon="6.13171">
        <ele>1421.14</ele>
        <time>2019-09-19T13:02:08Z</time>
      </trkpt>
      <trkpt lat="44.78943" lon="6.13169">
        <ele>1418.09</ele>
        <time>2019-09-19T13:02:26Z</time>
      </trkpt>
      <trkpt lat="44.78952" lon="6.13166">
        <ele>1414.99</ele>
        <time>2019-09-19T13:02:42Z</time>
      </trkpt>
      <trkpt lat="44.7896" lon="6.13158">
        <ele>1411.92</ele>
        <time>2019-09-19T13:03:02Z</time>
      </trkpt>
      <trkpt lat="44.78968" lon="6.13149">
        <ele>1408.87</ele>
        <time>2019-09-19T13:03:17Z</time>
      </trkpt>
      <trkpt lat="44.78976" lon="6.13143">
        <ele>1405.83</ele>
        <time>2019-09-19T13:03:30Z</time>
      </trkpt>
      <trkpt lat="44.78986" lon="6.13141">
        <ele>1402.69</ele>
        <time>2019-09-19T13:03:47Z</time>
      </trkpt>
      <trkpt lat="44.78997" lon="6.13132">
        <ele>1399.84</ele>
        <time>2019-09-19T13:04:04Z</time>
      </trkpt>
      <trkpt lat="44.79007" lon="6.13122">
        <ele>1396.81</ele>
        <time>2019-09-19T13:04:23Z</time>
      </trkpt>
      <trkpt lat="44.79013" lon="6.13142">
        <ele>1393.85</ele>
        <time>2019-09-19T13:04:43Z</time>
      </trkpt>
      <trkpt lat="44.79017" lon="6.13153">
        <ele>1391.78</ele>
        <time>2019-09-19T13:05:02Z</time>
      </trkpt>
      <trkpt lat="44.79028" lon="6.13169">
        <ele>1391.19</ele>
        <time>2019-09-19T13:05:19Z</time>
      </trkpt>
      <trkpt lat="44.79032" lon="6.13175">
        <ele>1390.56</ele>
        <time>2019-09-19T13:05:24Z</time>
      </trkpt>
      <trkpt lat="44.7904" lon="6.13196">
        <ele>1388.72</ele>
        <time>2019-09-19T13:05:41Z</time>
      </trkpt>
      <trkpt lat="44.79041" lon="6.13198">
        <ele>1388.51</ele>
        <time>2019-09-19T13:05:43Z</time>
      </trkpt>
      <trkpt lat="44.79051" lon="6.1322">
        <ele>1385.57</ele>
        <time>2019-09-19T13:06:02Z</time>
      </trkpt>
      <trkpt lat="44.79058" lon="6.1323">
        <ele>1383.93</ele>
        <time>2019-09-19T13:06:20Z</time>
      </trkpt>
      <trkpt lat="44.79066" lon="6.1322">
        <ele>1382.41</ele>
        <time>2019-09-19T13:06:38Z</time>
      </trkpt>
      <trkpt lat="44.79072" lon="6.13201">
        <ele>1379.29</ele>
        <time>2019-09-19T13:06:57Z</time>
      </trkpt>
      <trkpt lat="44.79074" lon="6.13182">
        <ele>1376.19</ele>
        <time>2019-09-19T13:07:15Z</time>
      </trkpt>
      <trkpt lat="44.7909" lon="6.13168">
        <ele>1373.28</ele>
        <time>2019-09-19T13:07:34Z</time>
      </trkpt>
      <trkpt lat="44.79093" lon="6.1317">
        <ele>1372.98</ele>
        <time>2019-09-19T13:07:37Z</time>
      </trkpt>
      <trkpt lat="44.79103" lon="6.13182">
        <ele>1371.26</ele>
        <time>2019-09-19T13:07:53Z</time>
      </trkpt>
      <trkpt lat="44.79114" lon="6.13204">
        <ele>1368.7</ele>
        <time>2019-09-19T13:08:13Z</time>
      </trkpt>
      <trkpt lat="44.79123" lon="6.13221">
        <ele>1366.21</ele>
        <time>2019-09-19T13:08:32Z</time>
      </trkpt>
      <trkpt lat="44.79131" lon="6.13235">
        <ele>1364.64</ele>
        <time>2019-09-19T13:08:49Z</time>
      </trkpt>
      <trkpt lat="44.79131" lon="6.1323">
        <ele>1363.12</ele>
        <time>2019-09-19T13:09:06Z</time>
      </trkpt>
      <trkpt lat="44.79129" lon="6.13221">
        <ele>1362.25</ele>
        <time>2019-09-19T13:09:24Z</time>
      </trkpt>
      <trkpt lat="44.79129" lon="6.13201">
        <ele>1361.25</ele>
        <time>2019-09-19T13:09:43Z</time>
      </trkpt>
      <trkpt lat="44.7913" lon="6.13198">
        <ele>1361.01</ele>
        <time>2019-09-19T13:09:46Z</time>
      </trkpt>
      <trkpt lat="44.79132" lon="6.13177">
        <ele>1360.07</ele>
        <time>2019-09-19T13:10:04Z</time>
      </trkpt>
      <trkpt lat="44.79133" lon="6.13168">
        <ele>1359.46</ele>
        <time>2019-09-19T13:10:20Z</time>
      </trkpt>
      <trkpt lat="44.79136" lon="6.13164">
        <ele>1359.21</ele>
        <time>2019-09-19T13:10:43Z</time>
      </trkpt>
      <trkpt lat="44.79134" lon="6.13165">
        <ele>1359.08</ele>
        <time>2019-09-19T13:11:01Z</time>
      </trkpt>
      <trkpt lat="44.79135" lon="6.13164">
        <ele>1358.11</ele>
        <time>2019-09-19T13:11:19Z</time>
      </trkpt>
      <trkpt lat="44.79136" lon="6.13163">
        <ele>1357.29</ele>
        <time>2019-09-19T13:11:57Z</time>
      </trkpt>
      <trkpt lat="44.79135" lon="6.13163">
        <ele>1357.02</ele>
        <time>2019-09-19T13:12:43Z</time>
      </trkpt>
      <trkpt lat="44.79137" lon="6.13165">
        <ele>1357.13</ele>
        <time>2019-09-19T13:13:12Z</time>
      </trkpt>
      <trkpt lat="44.79138" lon="6.1317">
        <ele>1356.99</ele>
        <time>2019-09-19T13:13:40Z</time>
      </trkpt>
      <trkpt lat="44.79136" lon="6.13169">
        <ele>1356.71</ele>
        <time>2019-09-19T13:14:18Z</time>
      </trkpt>
      <trkpt lat="44.79137" lon="6.13169">
        <ele>1356.39</ele>
        <time>2019-09-19T13:14:54Z</time>
      </trkpt>
      <trkpt lat="44.79139" lon="6.13168">
        <ele>1356.36</ele>
        <time>2019-09-19T13:15:48Z</time>
      </trkpt>
      <trkpt lat="44.79139" lon="6.13169">
        <ele>1356.02</ele>
        <time>2019-09-19T13:16:40Z</time>
      </trkpt>
      <trkpt lat="44.79138" lon="6.13168">
        <ele>1355.66</ele>
        <time>2019-09-19T13:17:39Z</time>
      </trkpt>
      <trkpt lat="44.7914" lon="6.13168">
        <ele>1355.43</ele>
        <time>2019-09-19T13:18:13Z</time>
      </trkpt>
      <trkpt lat="44.79143" lon="6.13166">
        <ele>1355.36</ele>
        <time>2019-09-19T13:18:48Z</time>
      </trkpt>
      <trkpt lat="44.79142" lon="6.13163">
        <ele>1355.25</ele>
        <time>2019-09-19T13:19:32Z</time>
      </trkpt>
      <trkpt lat="44.7914" lon="6.13163">
        <ele>1354.83</ele>
        <time>2019-09-19T13:20:09Z</time>
      </trkpt>
      <trkpt lat="44.79139" lon="6.13162">
        <ele>1354.97</ele>
        <time>2019-09-19T13:21:09Z</time>
      </trkpt>
      <trkpt lat="44.79139" lon="6.13169">
        <ele>1355.15</ele>
        <time>2019-09-19T13:21:49Z</time>
      </trkpt>
      <trkpt lat="44.79135" lon="6.13165">
        <ele>1355.63</ele>
        <time>2019-09-19T13:22:06Z</time>
      </trkpt>
      <trkpt lat="44.79129" lon="6.13153">
        <ele>1355.21</ele>
        <time>2019-09-19T13:22:23Z</time>
      </trkpt>
      <trkpt lat="44.79131" lon="6.13136">
        <ele>1354.47</ele>
        <time>2019-09-19T13:22:41Z</time>
      </trkpt>
      <trkpt lat="44.79144" lon="6.13119">
        <ele>1352.79</ele>
        <time>2019-09-19T13:22:59Z</time>
      </trkpt>
      <trkpt lat="44.79146" lon="6.13113">
        <ele>1352.05</ele>
        <time>2019-09-19T13:23:04Z</time>
      </trkpt>
      <trkpt lat="44.79152" lon="6.13109">
        <ele>1350.7</ele>
        <time>2019-09-19T13:23:11Z</time>
      </trkpt>
      <trkpt lat="44.79161" lon="6.13102">
        <ele>1349.42</ele>
        <time>2019-09-19T13:23:20Z</time>
      </trkpt>
      <trkpt lat="44.79173" lon="6.13093">
        <ele>1346.9</ele>
        <time>2019-09-19T13:23:34Z</time>
      </trkpt>
      <trkpt lat="44.79186" lon="6.13083">
        <ele>1343.89</ele>
        <time>2019-09-19T13:23:50Z</time>
      </trkpt>
      <trkpt lat="44.79196" lon="6.13075">
        <ele>1340.83</ele>
        <time>2019-09-19T13:24:02Z</time>
      </trkpt>
      <trkpt lat="44.79206" lon="6.13065">
        <ele>1337.69</ele>
        <time>2019-09-19T13:24:18Z</time>
      </trkpt>
      <trkpt lat="44.79215" lon="6.13056">
        <ele>1334.62</ele>
        <time>2019-09-19T13:24:33Z</time>
      </trkpt>
      <trkpt lat="44.79226" lon="6.13049">
        <ele>1331.45</ele>
        <time>2019-09-19T13:24:51Z</time>
      </trkpt>
      <trkpt lat="44.79236" lon="6.13035">
        <ele>1328.36</ele>
        <time>2019-09-19T13:25:09Z</time>
      </trkpt>
      <trkpt lat="44.79244" lon="6.13019">
        <ele>1325.21</ele>
        <time>2019-09-19T13:25:26Z</time>
      </trkpt>
      <trkpt lat="44.79256" lon="6.13009">
        <ele>1323.02</ele>
        <time>2019-09-19T13:25:44Z</time>
      </trkpt>
      <trkpt lat="44.79272" lon="6.12997">
        <ele>1321.41</ele>
        <time>2019-09-19T13:26:02Z</time>
      </trkpt>
      <trkpt lat="44.79285" lon="6.12987">
        <ele>1318.91</ele>
        <time>2019-09-19T13:26:23Z</time>
      </trkpt>
      <trkpt lat="44.79296" lon="6.12976">
        <ele>1317.34</ele>
        <time>2019-09-19T13:26:40Z</time>
      </trkpt>
      <trkpt lat="44.79307" lon="6.12963">
        <ele>1314.67</ele>
        <time>2019-09-19T13:26:58Z</time>
      </trkpt>
      <trkpt lat="44.79326" lon="6.12958">
        <ele>1312</ele>
        <time>2019-09-19T13:27:19Z</time>
      </trkpt>
      <trkpt lat="44.79328" lon="6.12957">
        <ele>1311.67</ele>
        <time>2019-09-19T13:27:21Z</time>
      </trkpt>
      <trkpt lat="44.79345" lon="6.12942">
        <ele>1308.78</ele>
        <time>2019-09-19T13:27:44Z</time>
      </trkpt>
      <trkpt lat="44.7936" lon="6.12935">
        <ele>1306.31</ele>
        <time>2019-09-19T13:28:03Z</time>
      </trkpt>
      <trkpt lat="44.79376" lon="6.1292">
        <ele>1303.43</ele>
        <time>2019-09-19T13:28:23Z</time>
      </trkpt>
      <trkpt lat="44.79392" lon="6.12896">
        <ele>1301.82</ele>
        <time>2019-09-19T13:28:41Z</time>
      </trkpt>
      <trkpt lat="44.79407" lon="6.12877">
        <ele>1301.6</ele>
        <time>2019-09-19T13:29:00Z</time>
      </trkpt>
      <trkpt lat="44.79416" lon="6.12864">
        <ele>1301.37</ele>
        <time>2019-09-19T13:29:21Z</time>
      </trkpt>
      <trkpt lat="44.79424" lon="6.12848">
        <ele>1299.49</ele>
        <time>2019-09-19T13:29:40Z</time>
      </trkpt>
      <trkpt lat="44.79437" lon="6.12836">
        <ele>1297.05</ele>
        <time>2019-09-19T13:29:59Z</time>
      </trkpt>
      <trkpt lat="44.79451" lon="6.12828">
        <ele>1297.49</ele>
        <time>2019-09-19T13:30:15Z</time>
      </trkpt>
      <trkpt lat="44.79466" lon="6.1282">
        <ele>1298.23</ele>
        <time>2019-09-19T13:30:33Z</time>
      </trkpt>
      <trkpt lat="44.79479" lon="6.1281">
        <ele>1298.14</ele>
        <time>2019-09-19T13:30:49Z</time>
      </trkpt>
      <trkpt lat="44.79496" lon="6.12794">
        <ele>1297.22</ele>
        <time>2019-09-19T13:31:12Z</time>
      </trkpt>
      <trkpt lat="44.7952" lon="6.12786">
        <ele>1294.7</ele>
        <time>2019-09-19T13:31:35Z</time>
      </trkpt>
      <trkpt lat="44.7953" lon="6.1278">
        <ele>1293.64</ele>
        <time>2019-09-19T13:31:48Z</time>
      </trkpt>
      <trkpt lat="44.79541" lon="6.12763">
        <ele>1290.43</ele>
        <time>2019-09-19T13:32:07Z</time>
      </trkpt>
      <trkpt lat="44.79553" lon="6.12756">
        <ele>1287.25</ele>
        <time>2019-09-19T13:32:25Z</time>
      </trkpt>
      <trkpt lat="44.79564" lon="6.12741">
        <ele>1284.89</ele>
        <time>2019-09-19T13:32:41Z</time>
      </trkpt>
      <trkpt lat="44.79573" lon="6.12725">
        <ele>1283.1</ele>
        <time>2019-09-19T13:32:54Z</time>
      </trkpt>
      <trkpt lat="44.7958" lon="6.12696">
        <ele>1280.31</ele>
        <time>2019-09-19T13:33:15Z</time>
      </trkpt>
      <trkpt lat="44.79584" lon="6.12675">
        <ele>1277.51</ele>
        <time>2019-09-19T13:33:33Z</time>
      </trkpt>
      <trkpt lat="44.79594" lon="6.12664">
        <ele>1275.52</ele>
        <time>2019-09-19T13:33:51Z</time>
      </trkpt>
      <trkpt lat="44.79605" lon="6.12648">
        <ele>1272.65</ele>
        <time>2019-09-19T13:34:09Z</time>
      </trkpt>
      <trkpt lat="44.7962" lon="6.1263">
        <ele>1269.95</ele>
        <time>2019-09-19T13:34:30Z</time>
      </trkpt>
      <trkpt lat="44.79632" lon="6.12619">
        <ele>1266.99</ele>
        <time>2019-09-19T13:34:49Z</time>
      </trkpt>
      <trkpt lat="44.79641" lon="6.12614">
        <ele>1266.31</ele>
        <time>2019-09-19T13:35:00Z</time>
      </trkpt>
      <trkpt lat="44.79652" lon="6.12602">
        <ele>1263.48</ele>
        <time>2019-09-19T13:35:16Z</time>
      </trkpt>
      <trkpt lat="44.79662" lon="6.12595">
        <ele>1262.01</ele>
        <time>2019-09-19T13:35:30Z</time>
      </trkpt>
      <trkpt lat="44.7967" lon="6.12595">
        <ele>1260.87</ele>
        <time>2019-09-19T13:35:41Z</time>
      </trkpt>
      <trkpt lat="44.79677" lon="6.12588">
        <ele>1257.77</ele>
        <time>2019-09-19T13:35:55Z</time>
      </trkpt>
      <trkpt lat="44.7968" lon="6.12583">
        <ele>1254.68</ele>
        <time>2019-09-19T13:36:06Z</time>
      </trkpt>
      <trkpt lat="44.79686" lon="6.12575">
        <ele>1251.53</ele>
        <time>2019-09-19T13:36:19Z</time>
      </trkpt>
      <trkpt lat="44.79692" lon="6.12571">
        <ele>1248.5</ele>
        <time>2019-09-19T13:36:31Z</time>
      </trkpt>
      <trkpt lat="44.797" lon="6.1257">
        <ele>1245.42</ele>
        <time>2019-09-19T13:36:46Z</time>
      </trkpt>
      <trkpt lat="44.7971" lon="6.12565">
        <ele>1242.4</ele>
        <time>2019-09-19T13:36:58Z</time>
      </trkpt>
      <trkpt lat="44.79717" lon="6.12557">
        <ele>1239.36</ele>
        <time>2019-09-19T13:37:14Z</time>
      </trkpt>
      <trkpt lat="44.7973" lon="6.12548">
        <ele>1236.26</ele>
        <time>2019-09-19T13:37:31Z</time>
      </trkpt>
      <trkpt lat="44.79743" lon="6.12532">
        <ele>1233.29</ele>
        <time>2019-09-19T13:37:50Z</time>
      </trkpt>
      <trkpt lat="44.79751" lon="6.12518">
        <ele>1230.97</ele>
        <time>2019-09-19T13:38:05Z</time>
      </trkpt>
      <trkpt lat="44.79757" lon="6.12505">
        <ele>1229.88</ele>
        <time>2019-09-19T13:38:18Z</time>
      </trkpt>
      <trkpt lat="44.79762" lon="6.12496">
        <ele>1227.06</ele>
        <time>2019-09-19T13:38:32Z</time>
      </trkpt>
      <trkpt lat="44.79767" lon="6.12493">
        <ele>1225.11</ele>
        <time>2019-09-19T13:38:42Z</time>
      </trkpt>
      <trkpt lat="44.79775" lon="6.1249">
        <ele>1221.83</ele>
        <time>2019-09-19T13:39:02Z</time>
      </trkpt>
      <trkpt lat="44.79782" lon="6.12483">
        <ele>1218.74</ele>
        <time>2019-09-19T13:39:17Z</time>
      </trkpt>
      <trkpt lat="44.79793" lon="6.12474">
        <ele>1215.63</ele>
        <time>2019-09-19T13:39:34Z</time>
      </trkpt>
      <trkpt lat="44.79795" lon="6.12474">
        <ele>1214.42</ele>
        <time>2019-09-19T13:39:39Z</time>
      </trkpt>
      <trkpt lat="44.79809" lon="6.12453">
        <ele>1210.91</ele>
        <time>2019-09-19T13:39:58Z</time>
      </trkpt>
      <trkpt lat="44.79814" lon="6.12433">
        <ele>1208.25</ele>
        <time>2019-09-19T13:40:16Z</time>
      </trkpt>
      <trkpt lat="44.79823" lon="6.12421">
        <ele>1205.19</ele>
        <time>2019-09-19T13:40:34Z</time>
      </trkpt>
      <trkpt lat="44.79829" lon="6.12409">
        <ele>1202.13</ele>
        <time>2019-09-19T13:40:50Z</time>
      </trkpt>
      <trkpt lat="44.79829" lon="6.12406">
        <ele>1201.73</ele>
        <time>2019-09-19T13:40:52Z</time>
      </trkpt>
      <trkpt lat="44.7983" lon="6.12399">
        <ele>1201.05</ele>
        <time>2019-09-19T13:40:59Z</time>
      </trkpt>
      <trkpt lat="44.79835" lon="6.12395">
        <ele>1200.72</ele>
        <time>2019-09-19T13:41:06Z</time>
      </trkpt>
      <trkpt lat="44.79841" lon="6.12393">
        <ele>1200.57</ele>
        <time>2019-09-19T13:41:11Z</time>
      </trkpt>
      <trkpt lat="44.79846" lon="6.12381">
        <ele>1198.35</ele>
        <time>2019-09-19T13:41:31Z</time>
      </trkpt>
      <trkpt lat="44.79849" lon="6.12365">
        <ele>1196.33</ele>
        <time>2019-09-19T13:41:56Z</time>
      </trkpt>
      <trkpt lat="44.79858" lon="6.12353">
        <ele>1193.22</ele>
        <time>2019-09-19T13:42:15Z</time>
      </trkpt>
      <trkpt lat="44.79859" lon="6.1235">
        <ele>1192.61</ele>
        <time>2019-09-19T13:42:19Z</time>
      </trkpt>
      <trkpt lat="44.79867" lon="6.12329">
        <ele>1189.56</ele>
        <time>2019-09-19T13:42:40Z</time>
      </trkpt>
      <trkpt lat="44.79877" lon="6.12315">
        <ele>1186.5</ele>
        <time>2019-09-19T13:42:58Z</time>
      </trkpt>
      <trkpt lat="44.79887" lon="6.12292">
        <ele>1183.66</ele>
        <time>2019-09-19T13:43:18Z</time>
      </trkpt>
      <trkpt lat="44.79893" lon="6.12276">
        <ele>1180.71</ele>
        <time>2019-09-19T13:43:39Z</time>
      </trkpt>
      <trkpt lat="44.79895" lon="6.12274">
        <ele>1180.38</ele>
        <time>2019-09-19T13:43:43Z</time>
      </trkpt>
      <trkpt lat="44.79907" lon="6.12259">
        <ele>1178.16</ele>
        <time>2019-09-19T13:44:06Z</time>
      </trkpt>
      <trkpt lat="44.79916" lon="6.1225">
        <ele>1176.04</ele>
        <time>2019-09-19T13:44:23Z</time>
      </trkpt>
      <trkpt lat="44.79925" lon="6.12225">
        <ele>1173.02</ele>
        <time>2019-09-19T13:44:41Z</time>
      </trkpt>
      <trkpt lat="44.7993" lon="6.12197">
        <ele>1169.91</ele>
        <time>2019-09-19T13:44:59Z</time>
      </trkpt>
      <trkpt lat="44.79935" lon="6.12177">
        <ele>1166.83</ele>
        <time>2019-09-19T13:45:16Z</time>
      </trkpt>
      <trkpt lat="44.79936" lon="6.12152">
        <ele>1163.81</ele>
        <time>2019-09-19T13:45:35Z</time>
      </trkpt>
      <trkpt lat="44.7994" lon="6.12127">
        <ele>1161.52</ele>
        <time>2019-09-19T13:45:51Z</time>
      </trkpt>
      <trkpt lat="44.79943" lon="6.12114">
        <ele>1159.7</ele>
        <time>2019-09-19T13:46:06Z</time>
      </trkpt>
      <trkpt lat="44.79944" lon="6.12111">
        <ele>1159.17</ele>
        <time>2019-09-19T13:46:10Z</time>
      </trkpt>
      <trkpt lat="44.79949" lon="6.12097">
        <ele>1157.67</ele>
        <time>2019-09-19T13:46:24Z</time>
      </trkpt>
      <trkpt lat="44.79968" lon="6.12088">
        <ele>1156.85</ele>
        <time>2019-09-19T13:46:41Z</time>
      </trkpt>
      <trkpt lat="44.79979" lon="6.12069">
        <ele>1155.96</ele>
        <time>2019-09-19T13:47:02Z</time>
      </trkpt>
      <trkpt lat="44.79985" lon="6.1204">
        <ele>1152.65</ele>
        <time>2019-09-19T13:47:17Z</time>
      </trkpt>
      <trkpt lat="44.79993" lon="6.12023">
        <ele>1149.79</ele>
        <time>2019-09-19T13:47:33Z</time>
      </trkpt>
      <trkpt lat="44.80003" lon="6.12004">
        <ele>1146.88</ele>
        <time>2019-09-19T13:47:53Z</time>
      </trkpt>
      <trkpt lat="44.80011" lon="6.11984">
        <ele>1143.82</ele>
        <time>2019-09-19T13:48:10Z</time>
      </trkpt>
      <trkpt lat="44.80019" lon="6.11963">
        <ele>1140.92</ele>
        <time>2019-09-19T13:48:29Z</time>
      </trkpt>
      <trkpt lat="44.80026" lon="6.11951">
        <ele>1137.89</ele>
        <time>2019-09-19T13:48:43Z</time>
      </trkpt>
      <trkpt lat="44.80031" lon="6.11942">
        <ele>1134.77</ele>
        <time>2019-09-19T13:49:00Z</time>
      </trkpt>
      <trkpt lat="44.80043" lon="6.11924">
        <ele>1132.41</ele>
        <time>2019-09-19T13:49:19Z</time>
      </trkpt>
      <trkpt lat="44.8005" lon="6.11896">
        <ele>1129.25</ele>
        <time>2019-09-19T13:49:39Z</time>
      </trkpt>
      <trkpt lat="44.80051" lon="6.1189">
        <ele>1128.62</ele>
        <time>2019-09-19T13:49:43Z</time>
      </trkpt>
      <trkpt lat="44.8005" lon="6.11877">
        <ele>1125.32</ele>
        <time>2019-09-19T13:50:00Z</time>
      </trkpt>
      <trkpt lat="44.8005" lon="6.11871">
        <ele>1122.78</ele>
        <time>2019-09-19T13:50:16Z</time>
      </trkpt>
      <trkpt lat="44.80058" lon="6.11865">
        <ele>1120.28</ele>
        <time>2019-09-19T13:50:33Z</time>
      </trkpt>
      <trkpt lat="44.80071" lon="6.11851">
        <ele>1117.66</ele>
        <time>2019-09-19T13:50:49Z</time>
      </trkpt>
      <trkpt lat="44.80086" lon="6.11843">
        <ele>1114.48</ele>
        <time>2019-09-19T13:51:09Z</time>
      </trkpt>
      <trkpt lat="44.80096" lon="6.11835">
        <ele>1111.39</ele>
        <time>2019-09-19T13:51:24Z</time>
      </trkpt>
      <trkpt lat="44.80107" lon="6.11823">
        <ele>1108.3</ele>
        <time>2019-09-19T13:51:40Z</time>
      </trkpt>
      <trkpt lat="44.80122" lon="6.11798">
        <ele>1105.13</ele>
        <time>2019-09-19T13:51:59Z</time>
      </trkpt>
      <trkpt lat="44.80129" lon="6.11774">
        <ele>1102.04</ele>
        <time>2019-09-19T13:52:14Z</time>
      </trkpt>
      <trkpt lat="44.80133" lon="6.11754">
        <ele>1098.95</ele>
        <time>2019-09-19T13:52:30Z</time>
      </trkpt>
      <trkpt lat="44.80137" lon="6.11724">
        <ele>1095.98</ele>
        <time>2019-09-19T13:52:50Z</time>
      </trkpt>
      <trkpt lat="44.80154" lon="6.1171">
        <ele>1093.48</ele>
        <time>2019-09-19T13:53:09Z</time>
      </trkpt>
      <trkpt lat="44.80162" lon="6.11696">
        <ele>1092.05</ele>
        <time>2019-09-19T13:53:28Z</time>
      </trkpt>
      <trkpt lat="44.80162" lon="6.11678">
        <ele>1089</ele>
        <time>2019-09-19T13:53:45Z</time>
      </trkpt>
      <trkpt lat="44.80162" lon="6.11672">
        <ele>1088.38</ele>
        <time>2019-09-19T13:53:50Z</time>
      </trkpt>
      <trkpt lat="44.80162" lon="6.1165">
        <ele>1086.52</ele>
        <time>2019-09-19T13:54:07Z</time>
      </trkpt>
      <trkpt lat="44.80164" lon="6.1163">
        <ele>1084.74</ele>
        <time>2019-09-19T13:54:19Z</time>
      </trkpt>
      <trkpt lat="44.80184" lon="6.11609">
        <ele>1083.61</ele>
        <time>2019-09-19T13:54:38Z</time>
      </trkpt>
      <trkpt lat="44.80201" lon="6.11598">
        <ele>1082.5</ele>
        <time>2019-09-19T13:54:55Z</time>
      </trkpt>
      <trkpt lat="44.80206" lon="6.11596">
        <ele>1082.24</ele>
        <time>2019-09-19T13:54:59Z</time>
      </trkpt>
      <trkpt lat="44.80218" lon="6.1159">
        <ele>1081.27</ele>
        <time>2019-09-19T13:55:09Z</time>
      </trkpt>
      <trkpt lat="44.80231" lon="6.11581">
        <ele>1079.7</ele>
        <time>2019-09-19T13:55:21Z</time>
      </trkpt>
      <trkpt lat="44.80235" lon="6.11579">
        <ele>1079.02</ele>
        <time>2019-09-19T13:55:25Z</time>
      </trkpt>
      <trkpt lat="44.80238" lon="6.11576">
        <ele>1078.34</ele>
        <time>2019-09-19T13:55:29Z</time>
      </trkpt>
      <trkpt lat="44.80249" lon="6.11563">
        <ele>1075.4</ele>
        <time>2019-09-19T13:55:45Z</time>
      </trkpt>
      <trkpt lat="44.8026" lon="6.11554">
        <ele>1072.88</ele>
        <time>2019-09-19T13:55:59Z</time>
      </trkpt>
      <trkpt lat="44.80264" lon="6.11544">
        <ele>1071.53</ele>
        <time>2019-09-19T13:56:07Z</time>
      </trkpt>
      <trkpt lat="44.80266" lon="6.11538">
        <ele>1070.92</ele>
        <time>2019-09-19T13:56:11Z</time>
      </trkpt>
      <trkpt lat="44.8027" lon="6.11531">
        <ele>1070</ele>
        <time>2019-09-19T13:56:17Z</time>
      </trkpt>
      <trkpt lat="44.80273" lon="6.11527">
        <ele>1069.38</ele>
        <time>2019-09-19T13:56:21Z</time>
      </trkpt>
      <trkpt lat="44.80281" lon="6.11513">
        <ele>1066.88</ele>
        <time>2019-09-19T13:56:36Z</time>
      </trkpt>
      <trkpt lat="44.80292" lon="6.11487">
        <ele>1064.1</ele>
        <time>2019-09-19T13:56:55Z</time>
      </trkpt>
      <trkpt lat="44.80295" lon="6.11478">
        <ele>1063.49</ele>
        <time>2019-09-19T13:56:59Z</time>
      </trkpt>
      <trkpt lat="44.80305" lon="6.11463">
        <ele>1062.01</ele>
        <time>2019-09-19T13:57:11Z</time>
      </trkpt>
      <trkpt lat="44.80315" lon="6.11448">
        <ele>1060.11</ele>
        <time>2019-09-19T13:57:24Z</time>
      </trkpt>
      <trkpt lat="44.80326" lon="6.11432">
        <ele>1057.73</ele>
        <time>2019-09-19T13:57:39Z</time>
      </trkpt>
      <trkpt lat="44.80339" lon="6.11413">
        <ele>1055.25</ele>
        <time>2019-09-19T13:57:57Z</time>
      </trkpt>
      <trkpt lat="44.8034" lon="6.1141">
        <ele>1055.04</ele>
        <time>2019-09-19T13:57:59Z</time>
      </trkpt>
      <trkpt lat="44.80341" lon="6.11406">
        <ele>1054.8</ele>
        <time>2019-09-19T13:58:02Z</time>
      </trkpt>
      <trkpt lat="44.80341" lon="6.11395">
        <ele>1052.52</ele>
        <time>2019-09-19T13:58:16Z</time>
      </trkpt>
      <trkpt lat="44.80337" lon="6.11379">
        <ele>1050.71</ele>
        <time>2019-09-19T13:58:34Z</time>
      </trkpt>
      <trkpt lat="44.80334" lon="6.11365">
        <ele>1049.91</ele>
        <time>2019-09-19T13:58:50Z</time>
      </trkpt>
      <trkpt lat="44.80333" lon="6.11355">
        <ele>1048.85</ele>
        <time>2019-09-19T13:59:09Z</time>
      </trkpt>
      <trkpt lat="44.80337" lon="6.11352">
        <ele>1048.45</ele>
        <time>2019-09-19T13:59:19Z</time>
      </trkpt>
      <trkpt lat="44.80334" lon="6.11352">
        <ele>1048.74</ele>
        <time>2019-09-19T13:59:37Z</time>
      </trkpt>
      <trkpt lat="44.80338" lon="6.11344">
        <ele>1048.41</ele>
        <time>2019-09-19T13:59:59Z</time>
      </trkpt>
      <trkpt lat="44.80339" lon="6.11345">
        <ele>1048.7</ele>
        <time>2019-09-19T14:00:23Z</time>
      </trkpt>
      <trkpt lat="44.80339" lon="6.11345">
        <ele>998.57</ele>
        <time>2019-09-19T14:00:36Z</time>
      </trkpt>
    </trkseg>
  </trk>
</gpx>